<?xml version="1.0" encoding="UTF-8" standalone="no" ?>
<gpx xmlns="http://www.topografix.com/GPX/1/1" xmlns:xsi="http://www.w3.org/2001/XMLSchema-instance" xsi:schemaLocation="http://www.topografix.com/GPX/1/1 http://www.topografix.com/GPX/1/1/gpx.xsd" version="1.1" creator="VisuGPX - https://www.visugpx.com">
  <metadata>
    <name>Forte Pernante</name>
  </metadata>
  <trk>
    <name><![CDATA[2021-03-03 12:02:00]]></name>
    <trkseg>
      <trkpt lat="44.16566" lon="7.55242">
        <ele>1361.36</ele>
        <time>2021-03-03T07:27:33Z</time>
      </trkpt>
      <trkpt lat="44.1657" lon="7.55238">
        <ele>1368.57</ele>
        <time>2021-03-03T07:27:49Z</time>
      </trkpt>
      <trkpt lat="44.16565" lon="7.55216">
        <ele>1358.48</ele>
        <time>2021-03-03T07:28:01Z</time>
      </trkpt>
      <trkpt lat="44.16557" lon="7.55216">
        <ele>1363.29</ele>
        <time>2021-03-03T07:28:15Z</time>
      </trkpt>
      <trkpt lat="44.1655" lon="7.55212">
        <ele>1367.61</ele>
        <time>2021-03-03T07:28:26Z</time>
      </trkpt>
      <trkpt lat="44.16547" lon="7.55212">
        <ele>1368.57</ele>
        <time>2021-03-03T07:28:30Z</time>
      </trkpt>
      <trkpt lat="44.16539" lon="7.55217">
        <ele>1370.98</ele>
        <time>2021-03-03T07:28:43Z</time>
      </trkpt>
      <trkpt lat="44.16532" lon="7.55215">
        <ele>1375.3</ele>
        <time>2021-03-03T07:28:56Z</time>
      </trkpt>
      <trkpt lat="44.16529" lon="7.55214">
        <ele>1374.82</ele>
        <time>2021-03-03T07:29:09Z</time>
      </trkpt>
      <trkpt lat="44.16526" lon="7.55213">
        <ele>1375.3</ele>
        <time>2021-03-03T07:29:12Z</time>
      </trkpt>
      <trkpt lat="44.16516" lon="7.55208">
        <ele>1379.15</ele>
        <time>2021-03-03T07:29:26Z</time>
      </trkpt>
      <trkpt lat="44.16508" lon="7.55207">
        <ele>1383.96</ele>
        <time>2021-03-03T07:29:38Z</time>
      </trkpt>
      <trkpt lat="44.165" lon="7.55204">
        <ele>1387.32</ele>
        <time>2021-03-03T07:29:53Z</time>
      </trkpt>
      <trkpt lat="44.16497" lon="7.55202">
        <ele>1386.36</ele>
        <time>2021-03-03T07:30:07Z</time>
      </trkpt>
      <trkpt lat="44.165" lon="7.55203">
        <ele>1386.36</ele>
        <time>2021-03-03T07:30:23Z</time>
      </trkpt>
      <trkpt lat="44.1649" lon="7.55202">
        <ele>1388.76</ele>
        <time>2021-03-03T07:30:39Z</time>
      </trkpt>
      <trkpt lat="44.16488" lon="7.55202">
        <ele>1389.24</ele>
        <time>2021-03-03T07:30:41Z</time>
      </trkpt>
      <trkpt lat="44.1648" lon="7.55208">
        <ele>1391.65</ele>
        <time>2021-03-03T07:30:55Z</time>
      </trkpt>
      <trkpt lat="44.16475" lon="7.55216">
        <ele>1394.05</ele>
        <time>2021-03-03T07:31:05Z</time>
      </trkpt>
      <trkpt lat="44.16474" lon="7.55229">
        <ele>1396.45</ele>
        <time>2021-03-03T07:31:17Z</time>
      </trkpt>
      <trkpt lat="44.16474" lon="7.55243">
        <ele>1398.86</ele>
        <time>2021-03-03T07:31:30Z</time>
      </trkpt>
      <trkpt lat="44.16474" lon="7.55245">
        <ele>1399.34</ele>
        <time>2021-03-03T07:31:32Z</time>
      </trkpt>
      <trkpt lat="44.16473" lon="7.55257">
        <ele>1400.78</ele>
        <time>2021-03-03T07:31:46Z</time>
      </trkpt>
      <trkpt lat="44.16468" lon="7.55266">
        <ele>1402.22</ele>
        <time>2021-03-03T07:32:00Z</time>
      </trkpt>
      <trkpt lat="44.16462" lon="7.55262">
        <ele>1404.62</ele>
        <time>2021-03-03T07:32:10Z</time>
      </trkpt>
      <trkpt lat="44.16457" lon="7.55256">
        <ele>1405.58</ele>
        <time>2021-03-03T07:32:23Z</time>
      </trkpt>
      <trkpt lat="44.16453" lon="7.55253">
        <ele>1406.07</ele>
        <time>2021-03-03T07:32:34Z</time>
      </trkpt>
      <trkpt lat="44.16447" lon="7.55248">
        <ele>1407.99</ele>
        <time>2021-03-03T07:32:44Z</time>
      </trkpt>
      <trkpt lat="44.16437" lon="7.55243">
        <ele>1411.35</ele>
        <time>2021-03-03T07:32:58Z</time>
      </trkpt>
      <trkpt lat="44.16432" lon="7.55242">
        <ele>1415.2</ele>
        <time>2021-03-03T07:33:12Z</time>
      </trkpt>
      <trkpt lat="44.16424" lon="7.55237">
        <ele>1415.68</ele>
        <time>2021-03-03T07:33:27Z</time>
      </trkpt>
      <trkpt lat="44.16415" lon="7.55233">
        <ele>1418.56</ele>
        <time>2021-03-03T07:33:41Z</time>
      </trkpt>
      <trkpt lat="44.16414" lon="7.55229">
        <ele>1416.64</ele>
        <time>2021-03-03T07:33:51Z</time>
      </trkpt>
      <trkpt lat="44.16411" lon="7.55226">
        <ele>1415.68</ele>
        <time>2021-03-03T07:33:56Z</time>
      </trkpt>
      <trkpt lat="44.16405" lon="7.55219">
        <ele>1415.2</ele>
        <time>2021-03-03T07:34:09Z</time>
      </trkpt>
      <trkpt lat="44.164" lon="7.5521">
        <ele>1417.12</ele>
        <time>2021-03-03T07:34:21Z</time>
      </trkpt>
      <trkpt lat="44.16393" lon="7.55199">
        <ele>1419.52</ele>
        <time>2021-03-03T07:34:35Z</time>
      </trkpt>
      <trkpt lat="44.16389" lon="7.5519">
        <ele>1420.97</ele>
        <time>2021-03-03T07:34:47Z</time>
      </trkpt>
      <trkpt lat="44.16387" lon="7.55179">
        <ele>1421.93</ele>
        <time>2021-03-03T07:34:59Z</time>
      </trkpt>
      <trkpt lat="44.16387" lon="7.55177">
        <ele>1422.41</ele>
        <time>2021-03-03T07:35:01Z</time>
      </trkpt>
      <trkpt lat="44.16382" lon="7.55163">
        <ele>1423.37</ele>
        <time>2021-03-03T07:35:15Z</time>
      </trkpt>
      <trkpt lat="44.16379" lon="7.5515">
        <ele>1423.37</ele>
        <time>2021-03-03T07:35:27Z</time>
      </trkpt>
      <trkpt lat="44.16375" lon="7.55137">
        <ele>1425.29</ele>
        <time>2021-03-03T07:35:39Z</time>
      </trkpt>
      <trkpt lat="44.16373" lon="7.55131">
        <ele>1426.25</ele>
        <time>2021-03-03T07:35:53Z</time>
      </trkpt>
      <trkpt lat="44.16373" lon="7.55124">
        <ele>1427.21</ele>
        <time>2021-03-03T07:36:06Z</time>
      </trkpt>
      <trkpt lat="44.16373" lon="7.55122">
        <ele>1427.21</ele>
        <time>2021-03-03T07:36:08Z</time>
      </trkpt>
      <trkpt lat="44.16371" lon="7.55117">
        <ele>1428.18</ele>
        <time>2021-03-03T07:36:12Z</time>
      </trkpt>
      <trkpt lat="44.16366" lon="7.55102">
        <ele>1429.14</ele>
        <time>2021-03-03T07:36:26Z</time>
      </trkpt>
      <trkpt lat="44.16364" lon="7.55091">
        <ele>1431.06</ele>
        <time>2021-03-03T07:36:36Z</time>
      </trkpt>
      <trkpt lat="44.16362" lon="7.55085">
        <ele>1431.06</ele>
        <time>2021-03-03T07:36:42Z</time>
      </trkpt>
      <trkpt lat="44.16357" lon="7.5507">
        <ele>1432.02</ele>
        <time>2021-03-03T07:36:56Z</time>
      </trkpt>
      <trkpt lat="44.16354" lon="7.55057">
        <ele>1433.94</ele>
        <time>2021-03-03T07:37:09Z</time>
      </trkpt>
      <trkpt lat="44.16354" lon="7.55055">
        <ele>1434.42</ele>
        <time>2021-03-03T07:37:11Z</time>
      </trkpt>
      <trkpt lat="44.16353" lon="7.55042">
        <ele>1435.39</ele>
        <time>2021-03-03T07:37:24Z</time>
      </trkpt>
      <trkpt lat="44.16352" lon="7.55034">
        <ele>1436.35</ele>
        <time>2021-03-03T07:37:34Z</time>
      </trkpt>
      <trkpt lat="44.16351" lon="7.55021">
        <ele>1437.79</ele>
        <time>2021-03-03T07:37:47Z</time>
      </trkpt>
      <trkpt lat="44.16353" lon="7.5501">
        <ele>1439.23</ele>
        <time>2021-03-03T07:37:59Z</time>
      </trkpt>
      <trkpt lat="44.16354" lon="7.54997">
        <ele>1441.63</ele>
        <time>2021-03-03T07:38:11Z</time>
      </trkpt>
      <trkpt lat="44.16354" lon="7.54984">
        <ele>1443.56</ele>
        <time>2021-03-03T07:38:25Z</time>
      </trkpt>
      <trkpt lat="44.16356" lon="7.54973">
        <ele>1445</ele>
        <time>2021-03-03T07:38:37Z</time>
      </trkpt>
      <trkpt lat="44.16355" lon="7.54961">
        <ele>1446.44</ele>
        <time>2021-03-03T07:38:49Z</time>
      </trkpt>
      <trkpt lat="44.16354" lon="7.5495">
        <ele>1448.36</ele>
        <time>2021-03-03T07:39:01Z</time>
      </trkpt>
      <trkpt lat="44.16352" lon="7.54939">
        <ele>1451.73</ele>
        <time>2021-03-03T07:39:15Z</time>
      </trkpt>
      <trkpt lat="44.16347" lon="7.54927">
        <ele>1455.09</ele>
        <time>2021-03-03T07:39:29Z</time>
      </trkpt>
      <trkpt lat="44.16341" lon="7.54918">
        <ele>1458.46</ele>
        <time>2021-03-03T07:39:45Z</time>
      </trkpt>
      <trkpt lat="44.16337" lon="7.5491">
        <ele>1460.38</ele>
        <time>2021-03-03T07:39:57Z</time>
      </trkpt>
      <trkpt lat="44.1633" lon="7.54904">
        <ele>1463.74</ele>
        <time>2021-03-03T07:40:12Z</time>
      </trkpt>
      <trkpt lat="44.16327" lon="7.54901">
        <ele>1465.67</ele>
        <time>2021-03-03T07:40:23Z</time>
      </trkpt>
      <trkpt lat="44.16321" lon="7.54896">
        <ele>1468.55</ele>
        <time>2021-03-03T07:40:36Z</time>
      </trkpt>
      <trkpt lat="44.1631" lon="7.54896">
        <ele>1470.95</ele>
        <time>2021-03-03T07:40:50Z</time>
      </trkpt>
      <trkpt lat="44.16302" lon="7.549">
        <ele>1474.32</ele>
        <time>2021-03-03T07:41:04Z</time>
      </trkpt>
      <trkpt lat="44.16304" lon="7.54901">
        <ele>1472.88</ele>
        <time>2021-03-03T07:41:22Z</time>
      </trkpt>
      <trkpt lat="44.163" lon="7.54904">
        <ele>1472.4</ele>
        <time>2021-03-03T07:41:29Z</time>
      </trkpt>
      <trkpt lat="44.16293" lon="7.54911">
        <ele>1473.84</ele>
        <time>2021-03-03T07:41:44Z</time>
      </trkpt>
      <trkpt lat="44.16287" lon="7.5492">
        <ele>1475.28</ele>
        <time>2021-03-03T07:41:58Z</time>
      </trkpt>
      <trkpt lat="44.16282" lon="7.54929">
        <ele>1475.76</ele>
        <time>2021-03-03T07:42:10Z</time>
      </trkpt>
      <trkpt lat="44.16279" lon="7.54937">
        <ele>1475.28</ele>
        <time>2021-03-03T07:42:21Z</time>
      </trkpt>
      <trkpt lat="44.16275" lon="7.54944">
        <ele>1475.28</ele>
        <time>2021-03-03T07:42:30Z</time>
      </trkpt>
      <trkpt lat="44.16271" lon="7.54955">
        <ele>1478.16</ele>
        <time>2021-03-03T07:42:43Z</time>
      </trkpt>
      <trkpt lat="44.16268" lon="7.54967">
        <ele>1479.13</ele>
        <time>2021-03-03T07:42:58Z</time>
      </trkpt>
      <trkpt lat="44.16264" lon="7.5498">
        <ele>1480.57</ele>
        <time>2021-03-03T07:43:12Z</time>
      </trkpt>
      <trkpt lat="44.16259" lon="7.54988">
        <ele>1482.49</ele>
        <time>2021-03-03T07:43:25Z</time>
      </trkpt>
      <trkpt lat="44.16256" lon="7.54994">
        <ele>1483.93</ele>
        <time>2021-03-03T07:43:38Z</time>
      </trkpt>
      <trkpt lat="44.16256" lon="7.55002">
        <ele>1486.34</ele>
        <time>2021-03-03T07:43:49Z</time>
      </trkpt>
      <trkpt lat="44.16253" lon="7.55012">
        <ele>1487.3</ele>
        <time>2021-03-03T07:44:01Z</time>
      </trkpt>
      <trkpt lat="44.1625" lon="7.55025">
        <ele>1488.26</ele>
        <time>2021-03-03T07:44:16Z</time>
      </trkpt>
      <trkpt lat="44.16247" lon="7.55035">
        <ele>1490.18</ele>
        <time>2021-03-03T07:44:30Z</time>
      </trkpt>
      <trkpt lat="44.16243" lon="7.55046">
        <ele>1492.1</ele>
        <time>2021-03-03T07:44:44Z</time>
      </trkpt>
      <trkpt lat="44.16238" lon="7.55056">
        <ele>1494.51</ele>
        <time>2021-03-03T07:44:57Z</time>
      </trkpt>
      <trkpt lat="44.16234" lon="7.55067">
        <ele>1497.87</ele>
        <time>2021-03-03T07:45:12Z</time>
      </trkpt>
      <trkpt lat="44.16229" lon="7.55079">
        <ele>1500.76</ele>
        <time>2021-03-03T07:45:28Z</time>
      </trkpt>
      <trkpt lat="44.16222" lon="7.5509">
        <ele>1502.68</ele>
        <time>2021-03-03T07:45:43Z</time>
      </trkpt>
      <trkpt lat="44.16214" lon="7.55096">
        <ele>1505.08</ele>
        <time>2021-03-03T07:45:57Z</time>
      </trkpt>
      <trkpt lat="44.1621" lon="7.551">
        <ele>1508.93</ele>
        <time>2021-03-03T07:46:11Z</time>
      </trkpt>
      <trkpt lat="44.16202" lon="7.55105">
        <ele>1513.25</ele>
        <time>2021-03-03T07:46:23Z</time>
      </trkpt>
      <trkpt lat="44.16193" lon="7.5511">
        <ele>1515.66</ele>
        <time>2021-03-03T07:46:34Z</time>
      </trkpt>
      <trkpt lat="44.16192" lon="7.55111">
        <ele>1516.14</ele>
        <time>2021-03-03T07:46:36Z</time>
      </trkpt>
      <trkpt lat="44.16189" lon="7.55113">
        <ele>1516.62</ele>
        <time>2021-03-03T07:46:40Z</time>
      </trkpt>
      <trkpt lat="44.16187" lon="7.55116">
        <ele>1516.62</ele>
        <time>2021-03-03T07:46:44Z</time>
      </trkpt>
      <trkpt lat="44.16176" lon="7.55119">
        <ele>1517.58</ele>
        <time>2021-03-03T07:46:58Z</time>
      </trkpt>
      <trkpt lat="44.16175" lon="7.55119">
        <ele>1517.58</ele>
        <time>2021-03-03T07:46:59Z</time>
      </trkpt>
      <trkpt lat="44.16164" lon="7.55121">
        <ele>1519.02</ele>
        <time>2021-03-03T07:47:13Z</time>
      </trkpt>
      <trkpt lat="44.16152" lon="7.55124">
        <ele>1520.94</ele>
        <time>2021-03-03T07:47:27Z</time>
      </trkpt>
      <trkpt lat="44.1614" lon="7.55125">
        <ele>1521.9</ele>
        <time>2021-03-03T07:47:41Z</time>
      </trkpt>
      <trkpt lat="44.1613" lon="7.55126">
        <ele>1521.42</ele>
        <time>2021-03-03T07:47:55Z</time>
      </trkpt>
      <trkpt lat="44.16118" lon="7.55125">
        <ele>1520.94</ele>
        <time>2021-03-03T07:48:10Z</time>
      </trkpt>
      <trkpt lat="44.16107" lon="7.55127">
        <ele>1521.9</ele>
        <time>2021-03-03T07:48:23Z</time>
      </trkpt>
      <trkpt lat="44.16099" lon="7.55134">
        <ele>1519.98</ele>
        <time>2021-03-03T07:48:32Z</time>
      </trkpt>
      <trkpt lat="44.16088" lon="7.55146">
        <ele>1516.14</ele>
        <time>2021-03-03T07:48:46Z</time>
      </trkpt>
      <trkpt lat="44.16077" lon="7.55156">
        <ele>1516.14</ele>
        <time>2021-03-03T07:49:00Z</time>
      </trkpt>
      <trkpt lat="44.16072" lon="7.55159">
        <ele>1516.62</ele>
        <time>2021-03-03T07:49:13Z</time>
      </trkpt>
      <trkpt lat="44.16062" lon="7.55163">
        <ele>1517.1</ele>
        <time>2021-03-03T07:49:25Z</time>
      </trkpt>
      <trkpt lat="44.1605" lon="7.55168">
        <ele>1519.5</ele>
        <time>2021-03-03T07:49:41Z</time>
      </trkpt>
      <trkpt lat="44.1604" lon="7.55176">
        <ele>1519.5</ele>
        <time>2021-03-03T07:49:56Z</time>
      </trkpt>
      <trkpt lat="44.1603" lon="7.55184">
        <ele>1522.87</ele>
        <time>2021-03-03T07:50:11Z</time>
      </trkpt>
      <trkpt lat="44.16022" lon="7.55192">
        <ele>1526.23</ele>
        <time>2021-03-03T07:50:26Z</time>
      </trkpt>
      <trkpt lat="44.16016" lon="7.55201">
        <ele>1528.15</ele>
        <time>2021-03-03T07:50:41Z</time>
      </trkpt>
      <trkpt lat="44.16007" lon="7.55211">
        <ele>1530.08</ele>
        <time>2021-03-03T07:50:58Z</time>
      </trkpt>
      <trkpt lat="44.16002" lon="7.5522">
        <ele>1533.92</ele>
        <time>2021-03-03T07:51:13Z</time>
      </trkpt>
      <trkpt lat="44.15994" lon="7.55226">
        <ele>1536.8</ele>
        <time>2021-03-03T07:51:26Z</time>
      </trkpt>
      <trkpt lat="44.15987" lon="7.55234">
        <ele>1537.29</ele>
        <time>2021-03-03T07:51:40Z</time>
      </trkpt>
      <trkpt lat="44.15982" lon="7.55239">
        <ele>1537.29</ele>
        <time>2021-03-03T07:51:58Z</time>
      </trkpt>
      <trkpt lat="44.15974" lon="7.55247">
        <ele>1539.21</ele>
        <time>2021-03-03T07:52:13Z</time>
      </trkpt>
      <trkpt lat="44.1597" lon="7.55255">
        <ele>1539.21</ele>
        <time>2021-03-03T07:52:26Z</time>
      </trkpt>
      <trkpt lat="44.15966" lon="7.55266">
        <ele>1545.46</ele>
        <time>2021-03-03T07:52:42Z</time>
      </trkpt>
      <trkpt lat="44.1596" lon="7.55274">
        <ele>1548.82</ele>
        <time>2021-03-03T07:52:58Z</time>
      </trkpt>
      <trkpt lat="44.15951" lon="7.55281">
        <ele>1553.63</ele>
        <time>2021-03-03T07:53:14Z</time>
      </trkpt>
      <trkpt lat="44.15943" lon="7.55289">
        <ele>1556.51</ele>
        <time>2021-03-03T07:53:29Z</time>
      </trkpt>
      <trkpt lat="44.15936" lon="7.55294">
        <ele>1559.88</ele>
        <time>2021-03-03T07:53:46Z</time>
      </trkpt>
      <trkpt lat="44.1593" lon="7.553">
        <ele>1562.28</ele>
        <time>2021-03-03T07:53:59Z</time>
      </trkpt>
      <trkpt lat="44.15921" lon="7.55306">
        <ele>1563.24</ele>
        <time>2021-03-03T07:54:13Z</time>
      </trkpt>
      <trkpt lat="44.15914" lon="7.55311">
        <ele>1566.61</ele>
        <time>2021-03-03T07:54:28Z</time>
      </trkpt>
      <trkpt lat="44.15907" lon="7.55319">
        <ele>1567.57</ele>
        <time>2021-03-03T07:54:41Z</time>
      </trkpt>
      <trkpt lat="44.15899" lon="7.55325">
        <ele>1570.45</ele>
        <time>2021-03-03T07:54:57Z</time>
      </trkpt>
      <trkpt lat="44.1589" lon="7.5533">
        <ele>1571.89</ele>
        <time>2021-03-03T07:55:13Z</time>
      </trkpt>
      <trkpt lat="44.1588" lon="7.55335">
        <ele>1574.3</ele>
        <time>2021-03-03T07:55:28Z</time>
      </trkpt>
      <trkpt lat="44.1587" lon="7.55341">
        <ele>1574.78</ele>
        <time>2021-03-03T07:55:42Z</time>
      </trkpt>
      <trkpt lat="44.15861" lon="7.55345">
        <ele>1575.74</ele>
        <time>2021-03-03T07:55:56Z</time>
      </trkpt>
      <trkpt lat="44.15852" lon="7.55355">
        <ele>1577.66</ele>
        <time>2021-03-03T07:56:10Z</time>
      </trkpt>
      <trkpt lat="44.1585" lon="7.55358">
        <ele>1578.14</ele>
        <time>2021-03-03T07:56:13Z</time>
      </trkpt>
      <trkpt lat="44.15842" lon="7.55366">
        <ele>1579.1</ele>
        <time>2021-03-03T07:56:27Z</time>
      </trkpt>
      <trkpt lat="44.15835" lon="7.55375">
        <ele>1581.51</ele>
        <time>2021-03-03T07:56:41Z</time>
      </trkpt>
      <trkpt lat="44.15826" lon="7.55386">
        <ele>1583.43</ele>
        <time>2021-03-03T07:56:56Z</time>
      </trkpt>
      <trkpt lat="44.15819" lon="7.55392">
        <ele>1583.43</ele>
        <time>2021-03-03T07:57:07Z</time>
      </trkpt>
      <trkpt lat="44.1581" lon="7.55401">
        <ele>1586.31</ele>
        <time>2021-03-03T07:57:23Z</time>
      </trkpt>
      <trkpt lat="44.15811" lon="7.55399">
        <ele>1585.35</ele>
        <time>2021-03-03T07:57:35Z</time>
      </trkpt>
      <trkpt lat="44.15809" lon="7.554">
        <ele>1583.43</ele>
        <time>2021-03-03T07:57:59Z</time>
      </trkpt>
      <trkpt lat="44.15809" lon="7.554">
        <ele>1583.43</ele>
        <time>2021-03-03T07:58:22Z</time>
      </trkpt>
      <trkpt lat="44.15807" lon="7.554">
        <ele>1584.87</ele>
        <time>2021-03-03T07:58:42Z</time>
      </trkpt>
      <trkpt lat="44.15798" lon="7.55405">
        <ele>1587.27</ele>
        <time>2021-03-03T07:58:57Z</time>
      </trkpt>
      <trkpt lat="44.1579" lon="7.55412">
        <ele>1590.16</ele>
        <time>2021-03-03T07:59:11Z</time>
      </trkpt>
      <trkpt lat="44.15786" lon="7.55417">
        <ele>1590.64</ele>
        <time>2021-03-03T07:59:26Z</time>
      </trkpt>
      <trkpt lat="44.15773" lon="7.5542">
        <ele>1593.04</ele>
        <time>2021-03-03T07:59:42Z</time>
      </trkpt>
      <trkpt lat="44.15765" lon="7.55429">
        <ele>1594.96</ele>
        <time>2021-03-03T07:59:57Z</time>
      </trkpt>
      <trkpt lat="44.15763" lon="7.55435">
        <ele>1595.93</ele>
        <time>2021-03-03T08:00:03Z</time>
      </trkpt>
      <trkpt lat="44.15755" lon="7.55448">
        <ele>1600.25</ele>
        <time>2021-03-03T08:00:20Z</time>
      </trkpt>
      <trkpt lat="44.15746" lon="7.55459">
        <ele>1600.73</ele>
        <time>2021-03-03T08:00:36Z</time>
      </trkpt>
      <trkpt lat="44.15737" lon="7.55468">
        <ele>1602.66</ele>
        <time>2021-03-03T08:00:49Z</time>
      </trkpt>
      <trkpt lat="44.15727" lon="7.55477">
        <ele>1604.58</ele>
        <time>2021-03-03T08:01:04Z</time>
      </trkpt>
      <trkpt lat="44.15718" lon="7.55486">
        <ele>1606.02</ele>
        <time>2021-03-03T08:01:17Z</time>
      </trkpt>
      <trkpt lat="44.15709" lon="7.55494">
        <ele>1606.5</ele>
        <time>2021-03-03T08:01:30Z</time>
      </trkpt>
      <trkpt lat="44.15706" lon="7.55502">
        <ele>1607.46</ele>
        <time>2021-03-03T08:01:43Z</time>
      </trkpt>
      <trkpt lat="44.15698" lon="7.55507">
        <ele>1607.46</ele>
        <time>2021-03-03T08:01:55Z</time>
      </trkpt>
      <trkpt lat="44.15698" lon="7.55508">
        <ele>1607.94</ele>
        <time>2021-03-03T08:01:56Z</time>
      </trkpt>
      <trkpt lat="44.15687" lon="7.55521">
        <ele>1609.38</ele>
        <time>2021-03-03T08:02:11Z</time>
      </trkpt>
      <trkpt lat="44.1568" lon="7.55531">
        <ele>1610.35</ele>
        <time>2021-03-03T08:02:25Z</time>
      </trkpt>
      <trkpt lat="44.1567" lon="7.55541">
        <ele>1614.19</ele>
        <time>2021-03-03T08:02:41Z</time>
      </trkpt>
      <trkpt lat="44.15662" lon="7.5555">
        <ele>1615.63</ele>
        <time>2021-03-03T08:02:56Z</time>
      </trkpt>
      <trkpt lat="44.15653" lon="7.55559">
        <ele>1616.59</ele>
        <time>2021-03-03T08:03:10Z</time>
      </trkpt>
      <trkpt lat="44.15645" lon="7.55563">
        <ele>1616.59</ele>
        <time>2021-03-03T08:03:25Z</time>
      </trkpt>
      <trkpt lat="44.15638" lon="7.55568">
        <ele>1616.59</ele>
        <time>2021-03-03T08:03:38Z</time>
      </trkpt>
      <trkpt lat="44.15628" lon="7.55576">
        <ele>1618.04</ele>
        <time>2021-03-03T08:03:54Z</time>
      </trkpt>
      <trkpt lat="44.15619" lon="7.55582">
        <ele>1618.52</ele>
        <time>2021-03-03T08:04:08Z</time>
      </trkpt>
      <trkpt lat="44.1561" lon="7.5559">
        <ele>1620.44</ele>
        <time>2021-03-03T08:04:23Z</time>
      </trkpt>
      <trkpt lat="44.15604" lon="7.55596">
        <ele>1621.4</ele>
        <time>2021-03-03T08:04:38Z</time>
      </trkpt>
      <trkpt lat="44.15595" lon="7.55604">
        <ele>1623.32</ele>
        <time>2021-03-03T08:04:54Z</time>
      </trkpt>
      <trkpt lat="44.1559" lon="7.55606">
        <ele>1625.25</ele>
        <time>2021-03-03T08:05:07Z</time>
      </trkpt>
      <trkpt lat="44.15583" lon="7.55612">
        <ele>1628.13</ele>
        <time>2021-03-03T08:05:21Z</time>
      </trkpt>
      <trkpt lat="44.15574" lon="7.55618">
        <ele>1630.53</ele>
        <time>2021-03-03T08:05:35Z</time>
      </trkpt>
      <trkpt lat="44.15565" lon="7.55624">
        <ele>1632.94</ele>
        <time>2021-03-03T08:05:50Z</time>
      </trkpt>
      <trkpt lat="44.15558" lon="7.5563">
        <ele>1632.94</ele>
        <time>2021-03-03T08:06:04Z</time>
      </trkpt>
      <trkpt lat="44.1555" lon="7.55636">
        <ele>1633.42</ele>
        <time>2021-03-03T08:06:20Z</time>
      </trkpt>
      <trkpt lat="44.15543" lon="7.5564">
        <ele>1634.38</ele>
        <time>2021-03-03T08:06:33Z</time>
      </trkpt>
      <trkpt lat="44.15539" lon="7.55645">
        <ele>1633.9</ele>
        <time>2021-03-03T08:06:45Z</time>
      </trkpt>
      <trkpt lat="44.15529" lon="7.55651">
        <ele>1634.38</ele>
        <time>2021-03-03T08:06:59Z</time>
      </trkpt>
      <trkpt lat="44.15521" lon="7.55659">
        <ele>1635.82</ele>
        <time>2021-03-03T08:07:12Z</time>
      </trkpt>
      <trkpt lat="44.15515" lon="7.55663">
        <ele>1636.78</ele>
        <time>2021-03-03T08:07:23Z</time>
      </trkpt>
      <trkpt lat="44.15506" lon="7.55672">
        <ele>1638.7</ele>
        <time>2021-03-03T08:07:36Z</time>
      </trkpt>
      <trkpt lat="44.15495" lon="7.55682">
        <ele>1639.67</ele>
        <time>2021-03-03T08:07:50Z</time>
      </trkpt>
      <trkpt lat="44.15489" lon="7.55687">
        <ele>1640.15</ele>
        <time>2021-03-03T08:07:58Z</time>
      </trkpt>
      <trkpt lat="44.15475" lon="7.55699">
        <ele>1640.63</ele>
        <time>2021-03-03T08:08:14Z</time>
      </trkpt>
      <trkpt lat="44.15466" lon="7.55707">
        <ele>1641.11</ele>
        <time>2021-03-03T08:08:26Z</time>
      </trkpt>
      <trkpt lat="44.15459" lon="7.55728">
        <ele>1641.59</ele>
        <time>2021-03-03T08:08:40Z</time>
      </trkpt>
      <trkpt lat="44.15457" lon="7.55745">
        <ele>1643.99</ele>
        <time>2021-03-03T08:08:53Z</time>
      </trkpt>
      <trkpt lat="44.15457" lon="7.55759">
        <ele>1642.55</ele>
        <time>2021-03-03T08:09:05Z</time>
      </trkpt>
      <trkpt lat="44.15458" lon="7.55773">
        <ele>1643.99</ele>
        <time>2021-03-03T08:09:19Z</time>
      </trkpt>
      <trkpt lat="44.15458" lon="7.55784">
        <ele>1646.88</ele>
        <time>2021-03-03T08:09:31Z</time>
      </trkpt>
      <trkpt lat="44.15458" lon="7.55797">
        <ele>1652.64</ele>
        <time>2021-03-03T08:09:45Z</time>
      </trkpt>
      <trkpt lat="44.15458" lon="7.55812">
        <ele>1652.16</ele>
        <time>2021-03-03T08:10:00Z</time>
      </trkpt>
      <trkpt lat="44.15457" lon="7.55824">
        <ele>1652.64</ele>
        <time>2021-03-03T08:10:15Z</time>
      </trkpt>
      <trkpt lat="44.15457" lon="7.55834">
        <ele>1656.97</ele>
        <time>2021-03-03T08:10:30Z</time>
      </trkpt>
      <trkpt lat="44.15457" lon="7.55844">
        <ele>1659.85</ele>
        <time>2021-03-03T08:10:45Z</time>
      </trkpt>
      <trkpt lat="44.15456" lon="7.55847">
        <ele>1658.89</ele>
        <time>2021-03-03T08:10:59Z</time>
      </trkpt>
      <trkpt lat="44.15453" lon="7.55857">
        <ele>1659.85</ele>
        <time>2021-03-03T08:11:14Z</time>
      </trkpt>
      <trkpt lat="44.15451" lon="7.55868">
        <ele>1659.37</ele>
        <time>2021-03-03T08:11:27Z</time>
      </trkpt>
      <trkpt lat="44.15448" lon="7.55878">
        <ele>1661.78</ele>
        <time>2021-03-03T08:11:41Z</time>
      </trkpt>
      <trkpt lat="44.15445" lon="7.5589">
        <ele>1664.18</ele>
        <time>2021-03-03T08:11:58Z</time>
      </trkpt>
      <trkpt lat="44.15444" lon="7.55905">
        <ele>1667.54</ele>
        <time>2021-03-03T08:12:15Z</time>
      </trkpt>
      <trkpt lat="44.15445" lon="7.55914">
        <ele>1665.14</ele>
        <time>2021-03-03T08:12:31Z</time>
      </trkpt>
      <trkpt lat="44.15448" lon="7.55918">
        <ele>1668.99</ele>
        <time>2021-03-03T08:12:45Z</time>
      </trkpt>
      <trkpt lat="44.15447" lon="7.55922">
        <ele>1670.91</ele>
        <time>2021-03-03T08:13:03Z</time>
      </trkpt>
      <trkpt lat="44.15445" lon="7.55934">
        <ele>1669.95</ele>
        <time>2021-03-03T08:13:16Z</time>
      </trkpt>
      <trkpt lat="44.15446" lon="7.55936">
        <ele>1669.47</ele>
        <time>2021-03-03T08:13:32Z</time>
      </trkpt>
      <trkpt lat="44.15449" lon="7.55934">
        <ele>1668.51</ele>
        <time>2021-03-03T08:13:46Z</time>
      </trkpt>
      <trkpt lat="44.15447" lon="7.55939">
        <ele>1668.99</ele>
        <time>2021-03-03T08:14:03Z</time>
      </trkpt>
      <trkpt lat="44.15446" lon="7.55938">
        <ele>1667.54</ele>
        <time>2021-03-03T08:14:17Z</time>
      </trkpt>
      <trkpt lat="44.15445" lon="7.55941">
        <ele>1667.06</ele>
        <time>2021-03-03T08:14:32Z</time>
      </trkpt>
      <trkpt lat="44.15446" lon="7.5594">
        <ele>1666.1</ele>
        <time>2021-03-03T08:14:47Z</time>
      </trkpt>
      <trkpt lat="44.15447" lon="7.55937">
        <ele>1669.47</ele>
        <time>2021-03-03T08:15:09Z</time>
      </trkpt>
      <trkpt lat="44.15446" lon="7.55939">
        <ele>1667.54</ele>
        <time>2021-03-03T08:15:26Z</time>
      </trkpt>
      <trkpt lat="44.15443" lon="7.55941">
        <ele>1669.47</ele>
        <time>2021-03-03T08:15:46Z</time>
      </trkpt>
      <trkpt lat="44.15443" lon="7.55946">
        <ele>1668.51</ele>
        <time>2021-03-03T08:15:59Z</time>
      </trkpt>
      <trkpt lat="44.15441" lon="7.55954">
        <ele>1669.47</ele>
        <time>2021-03-03T08:16:14Z</time>
      </trkpt>
      <trkpt lat="44.15444" lon="7.55962">
        <ele>1669.95</ele>
        <time>2021-03-03T08:16:27Z</time>
      </trkpt>
      <trkpt lat="44.15445" lon="7.55973">
        <ele>1672.83</ele>
        <time>2021-03-03T08:16:43Z</time>
      </trkpt>
      <trkpt lat="44.15444" lon="7.55981">
        <ele>1673.79</ele>
        <time>2021-03-03T08:16:57Z</time>
      </trkpt>
      <trkpt lat="44.15445" lon="7.55987">
        <ele>1677.16</ele>
        <time>2021-03-03T08:17:13Z</time>
      </trkpt>
      <trkpt lat="44.15444" lon="7.56">
        <ele>1679.08</ele>
        <time>2021-03-03T08:17:28Z</time>
      </trkpt>
      <trkpt lat="44.15452" lon="7.56002">
        <ele>1680.52</ele>
        <time>2021-03-03T08:17:40Z</time>
      </trkpt>
      <trkpt lat="44.15455" lon="7.56003">
        <ele>1682.44</ele>
        <time>2021-03-03T08:17:52Z</time>
      </trkpt>
      <trkpt lat="44.15454" lon="7.56003">
        <ele>1681.96</ele>
        <time>2021-03-03T08:18:10Z</time>
      </trkpt>
      <trkpt lat="44.15457" lon="7.56008">
        <ele>1683.89</ele>
        <time>2021-03-03T08:18:23Z</time>
      </trkpt>
      <trkpt lat="44.15455" lon="7.56018">
        <ele>1684.37</ele>
        <time>2021-03-03T08:18:35Z</time>
      </trkpt>
      <trkpt lat="44.15454" lon="7.56025">
        <ele>1685.33</ele>
        <time>2021-03-03T08:18:50Z</time>
      </trkpt>
      <trkpt lat="44.15457" lon="7.5603">
        <ele>1688.21</ele>
        <time>2021-03-03T08:19:02Z</time>
      </trkpt>
      <trkpt lat="44.15469" lon="7.56029">
        <ele>1691.58</ele>
        <time>2021-03-03T08:19:16Z</time>
      </trkpt>
      <trkpt lat="44.15475" lon="7.56032">
        <ele>1693.02</ele>
        <time>2021-03-03T08:19:30Z</time>
      </trkpt>
      <trkpt lat="44.15471" lon="7.56035">
        <ele>1693.02</ele>
        <time>2021-03-03T08:19:44Z</time>
      </trkpt>
      <trkpt lat="44.15471" lon="7.56037">
        <ele>1694.46</ele>
        <time>2021-03-03T08:19:59Z</time>
      </trkpt>
      <trkpt lat="44.1547" lon="7.56036">
        <ele>1693.98</ele>
        <time>2021-03-03T08:20:14Z</time>
      </trkpt>
      <trkpt lat="44.15471" lon="7.56036">
        <ele>1693.02</ele>
        <time>2021-03-03T08:20:26Z</time>
      </trkpt>
      <trkpt lat="44.15473" lon="7.56035">
        <ele>1694.46</ele>
        <time>2021-03-03T08:20:37Z</time>
      </trkpt>
      <trkpt lat="44.15473" lon="7.56037">
        <ele>1694.46</ele>
        <time>2021-03-03T08:20:57Z</time>
      </trkpt>
      <trkpt lat="44.15468" lon="7.56041">
        <ele>1694.46</ele>
        <time>2021-03-03T08:21:11Z</time>
      </trkpt>
      <trkpt lat="44.15462" lon="7.56052">
        <ele>1696.86</ele>
        <time>2021-03-03T08:21:29Z</time>
      </trkpt>
      <trkpt lat="44.15456" lon="7.56064">
        <ele>1701.19</ele>
        <time>2021-03-03T08:21:47Z</time>
      </trkpt>
      <trkpt lat="44.15453" lon="7.56072">
        <ele>1704.55</ele>
        <time>2021-03-03T08:22:02Z</time>
      </trkpt>
      <trkpt lat="44.15452" lon="7.5608">
        <ele>1705.52</ele>
        <time>2021-03-03T08:22:15Z</time>
      </trkpt>
      <trkpt lat="44.15444" lon="7.5609">
        <ele>1705.04</ele>
        <time>2021-03-03T08:22:33Z</time>
      </trkpt>
      <trkpt lat="44.15447" lon="7.56096">
        <ele>1706.96</ele>
        <time>2021-03-03T08:22:48Z</time>
      </trkpt>
      <trkpt lat="44.15454" lon="7.56096">
        <ele>1707.92</ele>
        <time>2021-03-03T08:23:00Z</time>
      </trkpt>
      <trkpt lat="44.15462" lon="7.56095">
        <ele>1709.36</ele>
        <time>2021-03-03T08:23:13Z</time>
      </trkpt>
      <trkpt lat="44.15467" lon="7.56094">
        <ele>1709.36</ele>
        <time>2021-03-03T08:23:26Z</time>
      </trkpt>
      <trkpt lat="44.15473" lon="7.56095">
        <ele>1711.28</ele>
        <time>2021-03-03T08:23:40Z</time>
      </trkpt>
      <trkpt lat="44.15479" lon="7.56097">
        <ele>1712.25</ele>
        <time>2021-03-03T08:23:53Z</time>
      </trkpt>
      <trkpt lat="44.15484" lon="7.561">
        <ele>1714.17</ele>
        <time>2021-03-03T08:24:05Z</time>
      </trkpt>
      <trkpt lat="44.15489" lon="7.56101">
        <ele>1716.09</ele>
        <time>2021-03-03T08:24:17Z</time>
      </trkpt>
      <trkpt lat="44.15496" lon="7.56105">
        <ele>1719.46</ele>
        <time>2021-03-03T08:24:29Z</time>
      </trkpt>
      <trkpt lat="44.15496" lon="7.56105">
        <ele>1719.94</ele>
        <time>2021-03-03T08:24:30Z</time>
      </trkpt>
      <trkpt lat="44.15504" lon="7.56112">
        <ele>1722.34</ele>
        <time>2021-03-03T08:24:43Z</time>
      </trkpt>
      <trkpt lat="44.15508" lon="7.56117">
        <ele>1724.74</ele>
        <time>2021-03-03T08:24:57Z</time>
      </trkpt>
      <trkpt lat="44.15518" lon="7.56123">
        <ele>1730.03</ele>
        <time>2021-03-03T08:25:11Z</time>
      </trkpt>
      <trkpt lat="44.15524" lon="7.56128">
        <ele>1733.39</ele>
        <time>2021-03-03T08:25:21Z</time>
      </trkpt>
      <trkpt lat="44.15526" lon="7.5613">
        <ele>1734.84</ele>
        <time>2021-03-03T08:25:26Z</time>
      </trkpt>
      <trkpt lat="44.15529" lon="7.56133">
        <ele>1736.28</ele>
        <time>2021-03-03T08:25:35Z</time>
      </trkpt>
      <trkpt lat="44.15533" lon="7.56136">
        <ele>1740.12</ele>
        <time>2021-03-03T08:25:47Z</time>
      </trkpt>
      <trkpt lat="44.15538" lon="7.56138">
        <ele>1742.05</ele>
        <time>2021-03-03T08:25:58Z</time>
      </trkpt>
      <trkpt lat="44.15541" lon="7.5614">
        <ele>1742.53</ele>
        <time>2021-03-03T08:26:10Z</time>
      </trkpt>
      <trkpt lat="44.15543" lon="7.56136">
        <ele>1741.08</ele>
        <time>2021-03-03T08:26:23Z</time>
      </trkpt>
      <trkpt lat="44.15546" lon="7.56137">
        <ele>1743.01</ele>
        <time>2021-03-03T08:26:36Z</time>
      </trkpt>
      <trkpt lat="44.15547" lon="7.56137">
        <ele>1743.97</ele>
        <time>2021-03-03T08:26:45Z</time>
      </trkpt>
      <trkpt lat="44.15548" lon="7.56133">
        <ele>1743.97</ele>
        <time>2021-03-03T08:26:57Z</time>
      </trkpt>
      <trkpt lat="44.15555" lon="7.56132">
        <ele>1742.05</ele>
        <time>2021-03-03T08:27:12Z</time>
      </trkpt>
      <trkpt lat="44.15552" lon="7.56137">
        <ele>1741.57</ele>
        <time>2021-03-03T08:27:26Z</time>
      </trkpt>
      <trkpt lat="44.15551" lon="7.5615">
        <ele>1739.64</ele>
        <time>2021-03-03T08:27:41Z</time>
      </trkpt>
      <trkpt lat="44.15556" lon="7.56144">
        <ele>1740.6</ele>
        <time>2021-03-03T08:27:52Z</time>
      </trkpt>
      <trkpt lat="44.15561" lon="7.56139">
        <ele>1742.53</ele>
        <time>2021-03-03T08:28:08Z</time>
      </trkpt>
      <trkpt lat="44.15567" lon="7.56133">
        <ele>1744.45</ele>
        <time>2021-03-03T08:28:24Z</time>
      </trkpt>
      <trkpt lat="44.1557" lon="7.56139">
        <ele>1746.37</ele>
        <time>2021-03-03T08:28:32Z</time>
      </trkpt>
      <trkpt lat="44.15572" lon="7.56144">
        <ele>1746.85</ele>
        <time>2021-03-03T08:28:37Z</time>
      </trkpt>
      <trkpt lat="44.15572" lon="7.56149">
        <ele>1745.41</ele>
        <time>2021-03-03T08:28:53Z</time>
      </trkpt>
      <trkpt lat="44.15572" lon="7.56155">
        <ele>1748.78</ele>
        <time>2021-03-03T08:29:08Z</time>
      </trkpt>
      <trkpt lat="44.15574" lon="7.56165">
        <ele>1751.66</ele>
        <time>2021-03-03T08:29:21Z</time>
      </trkpt>
      <trkpt lat="44.15575" lon="7.56178">
        <ele>1754.54</ele>
        <time>2021-03-03T08:29:35Z</time>
      </trkpt>
      <trkpt lat="44.15579" lon="7.56187">
        <ele>1756.47</ele>
        <time>2021-03-03T08:29:47Z</time>
      </trkpt>
      <trkpt lat="44.15576" lon="7.56191">
        <ele>1759.35</ele>
        <time>2021-03-03T08:30:01Z</time>
      </trkpt>
      <trkpt lat="44.15572" lon="7.56194">
        <ele>1762.23</ele>
        <time>2021-03-03T08:30:21Z</time>
      </trkpt>
      <trkpt lat="44.15567" lon="7.56205">
        <ele>1762.23</ele>
        <time>2021-03-03T08:30:36Z</time>
      </trkpt>
      <trkpt lat="44.15565" lon="7.56215">
        <ele>1763.68</ele>
        <time>2021-03-03T08:30:52Z</time>
      </trkpt>
      <trkpt lat="44.15564" lon="7.5622">
        <ele>1764.64</ele>
        <time>2021-03-03T08:31:12Z</time>
      </trkpt>
      <trkpt lat="44.15557" lon="7.56221">
        <ele>1767.04</ele>
        <time>2021-03-03T08:31:25Z</time>
      </trkpt>
      <trkpt lat="44.1555" lon="7.56227">
        <ele>1768</ele>
        <time>2021-03-03T08:31:38Z</time>
      </trkpt>
      <trkpt lat="44.15546" lon="7.56234">
        <ele>1769.44</ele>
        <time>2021-03-03T08:31:52Z</time>
      </trkpt>
      <trkpt lat="44.1555" lon="7.56234">
        <ele>1770.89</ele>
        <time>2021-03-03T08:32:08Z</time>
      </trkpt>
      <trkpt lat="44.15546" lon="7.56245">
        <ele>1773.77</ele>
        <time>2021-03-03T08:32:27Z</time>
      </trkpt>
      <trkpt lat="44.15548" lon="7.56252">
        <ele>1775.21</ele>
        <time>2021-03-03T08:32:37Z</time>
      </trkpt>
      <trkpt lat="44.15555" lon="7.56258">
        <ele>1777.61</ele>
        <time>2021-03-03T08:32:50Z</time>
      </trkpt>
      <trkpt lat="44.1556" lon="7.56266">
        <ele>1779.06</ele>
        <time>2021-03-03T08:33:04Z</time>
      </trkpt>
      <trkpt lat="44.15568" lon="7.56276">
        <ele>1781.94</ele>
        <time>2021-03-03T08:33:22Z</time>
      </trkpt>
      <trkpt lat="44.15567" lon="7.56273">
        <ele>1784.34</ele>
        <time>2021-03-03T08:33:39Z</time>
      </trkpt>
      <trkpt lat="44.15569" lon="7.56277">
        <ele>1785.79</ele>
        <time>2021-03-03T08:33:54Z</time>
      </trkpt>
      <trkpt lat="44.15573" lon="7.56279">
        <ele>1786.75</ele>
        <time>2021-03-03T08:34:09Z</time>
      </trkpt>
      <trkpt lat="44.15577" lon="7.56282">
        <ele>1787.71</ele>
        <time>2021-03-03T08:34:22Z</time>
      </trkpt>
      <trkpt lat="44.15586" lon="7.56286">
        <ele>1789.63</ele>
        <time>2021-03-03T08:34:35Z</time>
      </trkpt>
      <trkpt lat="44.15594" lon="7.56292">
        <ele>1791.07</ele>
        <time>2021-03-03T08:34:48Z</time>
      </trkpt>
      <trkpt lat="44.15604" lon="7.56296">
        <ele>1794.44</ele>
        <time>2021-03-03T08:35:01Z</time>
      </trkpt>
      <trkpt lat="44.15615" lon="7.56299">
        <ele>1799.24</ele>
        <time>2021-03-03T08:35:16Z</time>
      </trkpt>
      <trkpt lat="44.15619" lon="7.563">
        <ele>1800.69</ele>
        <time>2021-03-03T08:35:21Z</time>
      </trkpt>
      <trkpt lat="44.15624" lon="7.56303">
        <ele>1800.69</ele>
        <time>2021-03-03T08:35:33Z</time>
      </trkpt>
      <trkpt lat="44.15622" lon="7.563">
        <ele>1799.24</ele>
        <time>2021-03-03T08:35:46Z</time>
      </trkpt>
      <trkpt lat="44.15623" lon="7.56302">
        <ele>1798.76</ele>
        <time>2021-03-03T08:35:58Z</time>
      </trkpt>
      <trkpt lat="44.15631" lon="7.56305">
        <ele>1801.17</ele>
        <time>2021-03-03T08:36:09Z</time>
      </trkpt>
      <trkpt lat="44.1564" lon="7.56307">
        <ele>1804.53</ele>
        <time>2021-03-03T08:36:18Z</time>
      </trkpt>
      <trkpt lat="44.15647" lon="7.5631">
        <ele>1806.94</ele>
        <time>2021-03-03T08:36:25Z</time>
      </trkpt>
      <trkpt lat="44.1565" lon="7.56311">
        <ele>1807.9</ele>
        <time>2021-03-03T08:36:38Z</time>
      </trkpt>
      <trkpt lat="44.15656" lon="7.56314">
        <ele>1810.78</ele>
        <time>2021-03-03T08:36:50Z</time>
      </trkpt>
      <trkpt lat="44.15661" lon="7.56316">
        <ele>1811.74</ele>
        <time>2021-03-03T08:37:01Z</time>
      </trkpt>
      <trkpt lat="44.15663" lon="7.56319">
        <ele>1813.18</ele>
        <time>2021-03-03T08:37:13Z</time>
      </trkpt>
      <trkpt lat="44.15665" lon="7.56325">
        <ele>1813.18</ele>
        <time>2021-03-03T08:37:25Z</time>
      </trkpt>
      <trkpt lat="44.15667" lon="7.56337">
        <ele>1813.66</ele>
        <time>2021-03-03T08:37:39Z</time>
      </trkpt>
      <trkpt lat="44.15668" lon="7.56338">
        <ele>1814.15</ele>
        <time>2021-03-03T08:37:45Z</time>
      </trkpt>
      <trkpt lat="44.15668" lon="7.56345">
        <ele>1812.22</ele>
        <time>2021-03-03T08:37:53Z</time>
      </trkpt>
      <trkpt lat="44.15666" lon="7.56347">
        <ele>1812.22</ele>
        <time>2021-03-03T08:38:07Z</time>
      </trkpt>
      <trkpt lat="44.15667" lon="7.56343">
        <ele>1812.22</ele>
        <time>2021-03-03T08:38:15Z</time>
      </trkpt>
      <trkpt lat="44.15676" lon="7.56327">
        <ele>1813.18</ele>
        <time>2021-03-03T08:38:26Z</time>
      </trkpt>
      <trkpt lat="44.1568" lon="7.56328">
        <ele>1813.18</ele>
        <time>2021-03-03T08:38:39Z</time>
      </trkpt>
      <trkpt lat="44.1568" lon="7.56329">
        <ele>1812.7</ele>
        <time>2021-03-03T08:38:48Z</time>
      </trkpt>
      <trkpt lat="44.15678" lon="7.5633">
        <ele>1812.22</ele>
        <time>2021-03-03T08:39:05Z</time>
      </trkpt>
      <trkpt lat="44.15677" lon="7.56329">
        <ele>1811.74</ele>
        <time>2021-03-03T08:39:26Z</time>
      </trkpt>
      <trkpt lat="44.15677" lon="7.56331">
        <ele>1812.22</ele>
        <time>2021-03-03T08:39:41Z</time>
      </trkpt>
      <trkpt lat="44.15664" lon="7.56351">
        <ele>1811.74</ele>
        <time>2021-03-03T08:39:54Z</time>
      </trkpt>
      <trkpt lat="44.15653" lon="7.56361">
        <ele>1810.78</ele>
        <time>2021-03-03T08:40:06Z</time>
      </trkpt>
      <trkpt lat="44.15641" lon="7.56373">
        <ele>1810.3</ele>
        <time>2021-03-03T08:40:20Z</time>
      </trkpt>
      <trkpt lat="44.15632" lon="7.56381">
        <ele>1811.74</ele>
        <time>2021-03-03T08:40:34Z</time>
      </trkpt>
      <trkpt lat="44.15627" lon="7.56392">
        <ele>1812.7</ele>
        <time>2021-03-03T08:40:48Z</time>
      </trkpt>
      <trkpt lat="44.15616" lon="7.56399">
        <ele>1813.66</ele>
        <time>2021-03-03T08:41:03Z</time>
      </trkpt>
      <trkpt lat="44.15614" lon="7.56399">
        <ele>1813.66</ele>
        <time>2021-03-03T08:41:05Z</time>
      </trkpt>
      <trkpt lat="44.15609" lon="7.56403">
        <ele>1815.59</ele>
        <time>2021-03-03T08:41:16Z</time>
      </trkpt>
      <trkpt lat="44.15602" lon="7.56405">
        <ele>1817.51</ele>
        <time>2021-03-03T08:41:29Z</time>
      </trkpt>
      <trkpt lat="44.15595" lon="7.56404">
        <ele>1817.99</ele>
        <time>2021-03-03T08:41:42Z</time>
      </trkpt>
      <trkpt lat="44.15585" lon="7.56396">
        <ele>1817.99</ele>
        <time>2021-03-03T08:41:55Z</time>
      </trkpt>
      <trkpt lat="44.15577" lon="7.5639">
        <ele>1818.47</ele>
        <time>2021-03-03T08:42:08Z</time>
      </trkpt>
      <trkpt lat="44.15574" lon="7.56387">
        <ele>1819.43</ele>
        <time>2021-03-03T08:42:25Z</time>
      </trkpt>
      <trkpt lat="44.15564" lon="7.56383">
        <ele>1820.87</ele>
        <time>2021-03-03T08:42:37Z</time>
      </trkpt>
      <trkpt lat="44.15553" lon="7.5638">
        <ele>1821.84</ele>
        <time>2021-03-03T08:42:51Z</time>
      </trkpt>
      <trkpt lat="44.15541" lon="7.56376">
        <ele>1824.24</ele>
        <time>2021-03-03T08:43:04Z</time>
      </trkpt>
      <trkpt lat="44.15528" lon="7.56377">
        <ele>1826.16</ele>
        <time>2021-03-03T08:43:19Z</time>
      </trkpt>
      <trkpt lat="44.15514" lon="7.56376">
        <ele>1827.12</ele>
        <time>2021-03-03T08:43:34Z</time>
      </trkpt>
      <trkpt lat="44.15503" lon="7.56377">
        <ele>1827.6</ele>
        <time>2021-03-03T08:43:48Z</time>
      </trkpt>
      <trkpt lat="44.15491" lon="7.56378">
        <ele>1828.56</ele>
        <time>2021-03-03T08:44:03Z</time>
      </trkpt>
      <trkpt lat="44.15476" lon="7.5638">
        <ele>1831.93</ele>
        <time>2021-03-03T08:44:18Z</time>
      </trkpt>
      <trkpt lat="44.15466" lon="7.56383">
        <ele>1833.85</ele>
        <time>2021-03-03T08:44:31Z</time>
      </trkpt>
      <trkpt lat="44.15458" lon="7.56389">
        <ele>1834.33</ele>
        <time>2021-03-03T08:44:44Z</time>
      </trkpt>
      <trkpt lat="44.15453" lon="7.56392">
        <ele>1834.81</ele>
        <time>2021-03-03T08:44:57Z</time>
      </trkpt>
      <trkpt lat="44.15446" lon="7.56397">
        <ele>1835.29</ele>
        <time>2021-03-03T08:45:10Z</time>
      </trkpt>
      <trkpt lat="44.15438" lon="7.56399">
        <ele>1836.26</ele>
        <time>2021-03-03T08:45:21Z</time>
      </trkpt>
      <trkpt lat="44.15427" lon="7.56405">
        <ele>1837.7</ele>
        <time>2021-03-03T08:45:35Z</time>
      </trkpt>
      <trkpt lat="44.15417" lon="7.56408">
        <ele>1839.14</ele>
        <time>2021-03-03T08:45:49Z</time>
      </trkpt>
      <trkpt lat="44.15415" lon="7.56411">
        <ele>1838.18</ele>
        <time>2021-03-03T08:46:10Z</time>
      </trkpt>
      <trkpt lat="44.15404" lon="7.56417">
        <ele>1838.66</ele>
        <time>2021-03-03T08:46:23Z</time>
      </trkpt>
      <trkpt lat="44.15392" lon="7.56424">
        <ele>1840.1</ele>
        <time>2021-03-03T08:46:37Z</time>
      </trkpt>
      <trkpt lat="44.15382" lon="7.56432">
        <ele>1840.58</ele>
        <time>2021-03-03T08:46:50Z</time>
      </trkpt>
      <trkpt lat="44.15374" lon="7.56439">
        <ele>1842.5</ele>
        <time>2021-03-03T08:47:04Z</time>
      </trkpt>
      <trkpt lat="44.15366" lon="7.56447">
        <ele>1843.47</ele>
        <time>2021-03-03T08:47:18Z</time>
      </trkpt>
      <trkpt lat="44.15355" lon="7.56454">
        <ele>1844.91</ele>
        <time>2021-03-03T08:47:33Z</time>
      </trkpt>
      <trkpt lat="44.15343" lon="7.5646">
        <ele>1845.87</ele>
        <time>2021-03-03T08:47:46Z</time>
      </trkpt>
      <trkpt lat="44.15342" lon="7.56461">
        <ele>1846.35</ele>
        <time>2021-03-03T08:47:47Z</time>
      </trkpt>
      <trkpt lat="44.15334" lon="7.56461">
        <ele>1847.79</ele>
        <time>2021-03-03T08:47:59Z</time>
      </trkpt>
      <trkpt lat="44.15335" lon="7.56465">
        <ele>1846.83</ele>
        <time>2021-03-03T08:48:16Z</time>
      </trkpt>
      <trkpt lat="44.15328" lon="7.56473">
        <ele>1845.87</ele>
        <time>2021-03-03T08:48:29Z</time>
      </trkpt>
      <trkpt lat="44.15318" lon="7.56479">
        <ele>1847.79</ele>
        <time>2021-03-03T08:48:42Z</time>
      </trkpt>
      <trkpt lat="44.15304" lon="7.56489">
        <ele>1848.75</ele>
        <time>2021-03-03T08:48:57Z</time>
      </trkpt>
      <trkpt lat="44.15293" lon="7.56499">
        <ele>1848.75</ele>
        <time>2021-03-03T08:49:11Z</time>
      </trkpt>
      <trkpt lat="44.15285" lon="7.56509">
        <ele>1849.23</ele>
        <time>2021-03-03T08:49:25Z</time>
      </trkpt>
      <trkpt lat="44.15273" lon="7.56516">
        <ele>1850.68</ele>
        <time>2021-03-03T08:49:39Z</time>
      </trkpt>
      <trkpt lat="44.15263" lon="7.56524">
        <ele>1851.64</ele>
        <time>2021-03-03T08:49:53Z</time>
      </trkpt>
      <trkpt lat="44.15255" lon="7.56532">
        <ele>1852.6</ele>
        <time>2021-03-03T08:50:06Z</time>
      </trkpt>
      <trkpt lat="44.15254" lon="7.56533">
        <ele>1853.08</ele>
        <time>2021-03-03T08:50:07Z</time>
      </trkpt>
      <trkpt lat="44.15244" lon="7.56542">
        <ele>1854.04</ele>
        <time>2021-03-03T08:50:21Z</time>
      </trkpt>
      <trkpt lat="44.15231" lon="7.56548">
        <ele>1855</ele>
        <time>2021-03-03T08:50:35Z</time>
      </trkpt>
      <trkpt lat="44.15219" lon="7.56553">
        <ele>1855.48</ele>
        <time>2021-03-03T08:50:49Z</time>
      </trkpt>
      <trkpt lat="44.15207" lon="7.56555">
        <ele>1855.48</ele>
        <time>2021-03-03T08:51:03Z</time>
      </trkpt>
      <trkpt lat="44.15196" lon="7.56553">
        <ele>1855.48</ele>
        <time>2021-03-03T08:51:16Z</time>
      </trkpt>
      <trkpt lat="44.15187" lon="7.56551">
        <ele>1855.96</ele>
        <time>2021-03-03T08:51:29Z</time>
      </trkpt>
      <trkpt lat="44.15181" lon="7.5655">
        <ele>1855</ele>
        <time>2021-03-03T08:51:37Z</time>
      </trkpt>
      <trkpt lat="44.1518" lon="7.56549">
        <ele>1855</ele>
        <time>2021-03-03T08:51:38Z</time>
      </trkpt>
      <trkpt lat="44.15179" lon="7.56547">
        <ele>1855.48</ele>
        <time>2021-03-03T08:51:39Z</time>
      </trkpt>
      <trkpt lat="44.15171" lon="7.56535">
        <ele>1856.92</ele>
        <time>2021-03-03T08:51:53Z</time>
      </trkpt>
      <trkpt lat="44.15164" lon="7.56525">
        <ele>1858.37</ele>
        <time>2021-03-03T08:52:07Z</time>
      </trkpt>
      <trkpt lat="44.15157" lon="7.56515">
        <ele>1859.81</ele>
        <time>2021-03-03T08:52:21Z</time>
      </trkpt>
      <trkpt lat="44.15149" lon="7.56504">
        <ele>1860.77</ele>
        <time>2021-03-03T08:52:35Z</time>
      </trkpt>
      <trkpt lat="44.15144" lon="7.56492">
        <ele>1861.73</ele>
        <time>2021-03-03T08:52:49Z</time>
      </trkpt>
      <trkpt lat="44.15136" lon="7.56477">
        <ele>1862.69</ele>
        <time>2021-03-03T08:53:03Z</time>
      </trkpt>
      <trkpt lat="44.15128" lon="7.56463">
        <ele>1863.65</ele>
        <time>2021-03-03T08:53:16Z</time>
      </trkpt>
      <trkpt lat="44.15119" lon="7.56447">
        <ele>1866.54</ele>
        <time>2021-03-03T08:53:31Z</time>
      </trkpt>
      <trkpt lat="44.15112" lon="7.56435">
        <ele>1867.02</ele>
        <time>2021-03-03T08:53:45Z</time>
      </trkpt>
      <trkpt lat="44.15104" lon="7.56421">
        <ele>1868.94</ele>
        <time>2021-03-03T08:54:00Z</time>
      </trkpt>
      <trkpt lat="44.15097" lon="7.56409">
        <ele>1869.42</ele>
        <time>2021-03-03T08:54:15Z</time>
      </trkpt>
      <trkpt lat="44.1509" lon="7.56397">
        <ele>1870.86</ele>
        <time>2021-03-03T08:54:28Z</time>
      </trkpt>
      <trkpt lat="44.15082" lon="7.56384">
        <ele>1872.3</ele>
        <time>2021-03-03T08:54:42Z</time>
      </trkpt>
      <trkpt lat="44.15078" lon="7.56376">
        <ele>1871.82</ele>
        <time>2021-03-03T08:54:58Z</time>
      </trkpt>
      <trkpt lat="44.15073" lon="7.56369">
        <ele>1872.3</ele>
        <time>2021-03-03T08:55:17Z</time>
      </trkpt>
      <trkpt lat="44.15069" lon="7.56361">
        <ele>1871.34</ele>
        <time>2021-03-03T08:55:34Z</time>
      </trkpt>
      <trkpt lat="44.15061" lon="7.56349">
        <ele>1871.82</ele>
        <time>2021-03-03T08:55:48Z</time>
      </trkpt>
      <trkpt lat="44.15053" lon="7.56336">
        <ele>1873.75</ele>
        <time>2021-03-03T08:56:03Z</time>
      </trkpt>
      <trkpt lat="44.15045" lon="7.56322">
        <ele>1874.71</ele>
        <time>2021-03-03T08:56:17Z</time>
      </trkpt>
      <trkpt lat="44.15038" lon="7.56308">
        <ele>1874.71</ele>
        <time>2021-03-03T08:56:30Z</time>
      </trkpt>
      <trkpt lat="44.15032" lon="7.56296">
        <ele>1874.71</ele>
        <time>2021-03-03T08:56:42Z</time>
      </trkpt>
      <trkpt lat="44.15027" lon="7.56283">
        <ele>1874.71</ele>
        <time>2021-03-03T08:56:56Z</time>
      </trkpt>
      <trkpt lat="44.15025" lon="7.56276">
        <ele>1874.23</ele>
        <time>2021-03-03T08:57:08Z</time>
      </trkpt>
      <trkpt lat="44.15023" lon="7.56272">
        <ele>1874.71</ele>
        <time>2021-03-03T08:57:13Z</time>
      </trkpt>
      <trkpt lat="44.15017" lon="7.56261">
        <ele>1875.67</ele>
        <time>2021-03-03T08:57:25Z</time>
      </trkpt>
      <trkpt lat="44.15011" lon="7.56248">
        <ele>1877.11</ele>
        <time>2021-03-03T08:57:38Z</time>
      </trkpt>
      <trkpt lat="44.15004" lon="7.56234">
        <ele>1878.55</ele>
        <time>2021-03-03T08:57:53Z</time>
      </trkpt>
      <trkpt lat="44.14995" lon="7.5622">
        <ele>1879.51</ele>
        <time>2021-03-03T08:58:08Z</time>
      </trkpt>
      <trkpt lat="44.1499" lon="7.56213">
        <ele>1880</ele>
        <time>2021-03-03T08:58:19Z</time>
      </trkpt>
      <trkpt lat="44.14981" lon="7.56201">
        <ele>1880.96</ele>
        <time>2021-03-03T08:58:33Z</time>
      </trkpt>
      <trkpt lat="44.14971" lon="7.5619">
        <ele>1881.44</ele>
        <time>2021-03-03T08:58:47Z</time>
      </trkpt>
      <trkpt lat="44.14961" lon="7.56181">
        <ele>1881.44</ele>
        <time>2021-03-03T08:59:02Z</time>
      </trkpt>
      <trkpt lat="44.14953" lon="7.56172">
        <ele>1882.4</ele>
        <time>2021-03-03T08:59:15Z</time>
      </trkpt>
      <trkpt lat="44.14946" lon="7.56166">
        <ele>1882.88</ele>
        <time>2021-03-03T08:59:28Z</time>
      </trkpt>
      <trkpt lat="44.14944" lon="7.56162">
        <ele>1883.84</ele>
        <time>2021-03-03T08:59:41Z</time>
      </trkpt>
      <trkpt lat="44.14936" lon="7.56154">
        <ele>1883.84</ele>
        <time>2021-03-03T08:59:56Z</time>
      </trkpt>
      <trkpt lat="44.14932" lon="7.56149">
        <ele>1884.8</ele>
        <time>2021-03-03T09:00:02Z</time>
      </trkpt>
      <trkpt lat="44.14928" lon="7.56149">
        <ele>1886.24</ele>
        <time>2021-03-03T09:00:19Z</time>
      </trkpt>
      <trkpt lat="44.1492" lon="7.56141">
        <ele>1886.24</ele>
        <time>2021-03-03T09:00:35Z</time>
      </trkpt>
      <trkpt lat="44.14913" lon="7.56132">
        <ele>1887.21</ele>
        <time>2021-03-03T09:00:48Z</time>
      </trkpt>
      <trkpt lat="44.14911" lon="7.56122">
        <ele>1888.65</ele>
        <time>2021-03-03T09:01:01Z</time>
      </trkpt>
      <trkpt lat="44.14911" lon="7.56111">
        <ele>1890.09</ele>
        <time>2021-03-03T09:01:14Z</time>
      </trkpt>
      <trkpt lat="44.14912" lon="7.56104">
        <ele>1892.01</ele>
        <time>2021-03-03T09:01:29Z</time>
      </trkpt>
      <trkpt lat="44.14912" lon="7.56103">
        <ele>1892.01</ele>
        <time>2021-03-03T09:01:30Z</time>
      </trkpt>
      <trkpt lat="44.14913" lon="7.56092">
        <ele>1894.42</ele>
        <time>2021-03-03T09:01:43Z</time>
      </trkpt>
      <trkpt lat="44.14915" lon="7.56089">
        <ele>1894.42</ele>
        <time>2021-03-03T09:01:46Z</time>
      </trkpt>
      <trkpt lat="44.14922" lon="7.5608">
        <ele>1895.86</ele>
        <time>2021-03-03T09:01:58Z</time>
      </trkpt>
      <trkpt lat="44.14927" lon="7.5607">
        <ele>1897.3</ele>
        <time>2021-03-03T09:02:10Z</time>
      </trkpt>
      <trkpt lat="44.14928" lon="7.56061">
        <ele>1898.26</ele>
        <time>2021-03-03T09:02:21Z</time>
      </trkpt>
      <trkpt lat="44.1493" lon="7.5605">
        <ele>1898.74</ele>
        <time>2021-03-03T09:02:34Z</time>
      </trkpt>
      <trkpt lat="44.14931" lon="7.56038">
        <ele>1900.18</ele>
        <time>2021-03-03T09:02:47Z</time>
      </trkpt>
      <trkpt lat="44.14931" lon="7.56025">
        <ele>1901.63</ele>
        <time>2021-03-03T09:03:02Z</time>
      </trkpt>
      <trkpt lat="44.14931" lon="7.56014">
        <ele>1903.07</ele>
        <time>2021-03-03T09:03:16Z</time>
      </trkpt>
      <trkpt lat="44.14931" lon="7.56013">
        <ele>1904.51</ele>
        <time>2021-03-03T09:03:38Z</time>
      </trkpt>
      <trkpt lat="44.14931" lon="7.56008">
        <ele>1904.03</ele>
        <time>2021-03-03T09:04:03Z</time>
      </trkpt>
      <trkpt lat="44.14931" lon="7.55996">
        <ele>1904.03</ele>
        <time>2021-03-03T09:04:17Z</time>
      </trkpt>
      <trkpt lat="44.1493" lon="7.55986">
        <ele>1905.95</ele>
        <time>2021-03-03T09:04:30Z</time>
      </trkpt>
      <trkpt lat="44.14928" lon="7.55976">
        <ele>1907.39</ele>
        <time>2021-03-03T09:04:43Z</time>
      </trkpt>
      <trkpt lat="44.14928" lon="7.55964">
        <ele>1909.32</ele>
        <time>2021-03-03T09:04:57Z</time>
      </trkpt>
      <trkpt lat="44.14926" lon="7.55955">
        <ele>1909.8</ele>
        <time>2021-03-03T09:05:08Z</time>
      </trkpt>
      <trkpt lat="44.14921" lon="7.55944">
        <ele>1911.24</ele>
        <time>2021-03-03T09:05:22Z</time>
      </trkpt>
      <trkpt lat="44.14915" lon="7.55933">
        <ele>1913.16</ele>
        <time>2021-03-03T09:05:36Z</time>
      </trkpt>
      <trkpt lat="44.14909" lon="7.55928">
        <ele>1914.12</ele>
        <time>2021-03-03T09:05:50Z</time>
      </trkpt>
      <trkpt lat="44.149" lon="7.55921">
        <ele>1914.6</ele>
        <time>2021-03-03T09:06:03Z</time>
      </trkpt>
      <trkpt lat="44.14893" lon="7.55916">
        <ele>1915.56</ele>
        <time>2021-03-03T09:06:12Z</time>
      </trkpt>
      <trkpt lat="44.14892" lon="7.55916">
        <ele>1915.56</ele>
        <time>2021-03-03T09:06:13Z</time>
      </trkpt>
      <trkpt lat="44.1489" lon="7.55914">
        <ele>1915.56</ele>
        <time>2021-03-03T09:06:15Z</time>
      </trkpt>
      <trkpt lat="44.14877" lon="7.55913">
        <ele>1916.53</ele>
        <time>2021-03-03T09:06:30Z</time>
      </trkpt>
      <trkpt lat="44.14866" lon="7.55905">
        <ele>1915.56</ele>
        <time>2021-03-03T09:06:44Z</time>
      </trkpt>
      <trkpt lat="44.14858" lon="7.55897">
        <ele>1915.56</ele>
        <time>2021-03-03T09:06:55Z</time>
      </trkpt>
      <trkpt lat="44.14849" lon="7.55889">
        <ele>1915.56</ele>
        <time>2021-03-03T09:07:07Z</time>
      </trkpt>
      <trkpt lat="44.14841" lon="7.5588">
        <ele>1915.08</ele>
        <time>2021-03-03T09:07:22Z</time>
      </trkpt>
      <trkpt lat="44.14836" lon="7.55875">
        <ele>1916.53</ele>
        <time>2021-03-03T09:07:41Z</time>
      </trkpt>
      <trkpt lat="44.14834" lon="7.55872">
        <ele>1916.53</ele>
        <time>2021-03-03T09:07:44Z</time>
      </trkpt>
      <trkpt lat="44.14832" lon="7.55871">
        <ele>1916.04</ele>
        <time>2021-03-03T09:07:47Z</time>
      </trkpt>
      <trkpt lat="44.1482" lon="7.55859">
        <ele>1912.68</ele>
        <time>2021-03-03T09:08:03Z</time>
      </trkpt>
      <trkpt lat="44.1481" lon="7.55845">
        <ele>1910.28</ele>
        <time>2021-03-03T09:08:16Z</time>
      </trkpt>
      <trkpt lat="44.14803" lon="7.55835">
        <ele>1909.32</ele>
        <time>2021-03-03T09:08:28Z</time>
      </trkpt>
      <trkpt lat="44.14796" lon="7.55822">
        <ele>1909.32</ele>
        <time>2021-03-03T09:08:39Z</time>
      </trkpt>
      <trkpt lat="44.14788" lon="7.55803">
        <ele>1909.32</ele>
        <time>2021-03-03T09:08:54Z</time>
      </trkpt>
      <trkpt lat="44.14785" lon="7.55796">
        <ele>1910.28</ele>
        <time>2021-03-03T09:09:07Z</time>
      </trkpt>
      <trkpt lat="44.14778" lon="7.55782">
        <ele>1910.28</ele>
        <time>2021-03-03T09:09:20Z</time>
      </trkpt>
      <trkpt lat="44.14772" lon="7.55768">
        <ele>1911.24</ele>
        <time>2021-03-03T09:09:33Z</time>
      </trkpt>
      <trkpt lat="44.14771" lon="7.55767">
        <ele>1911.72</ele>
        <time>2021-03-03T09:09:35Z</time>
      </trkpt>
      <trkpt lat="44.1477" lon="7.55763">
        <ele>1912.2</ele>
        <time>2021-03-03T09:09:38Z</time>
      </trkpt>
      <trkpt lat="44.14765" lon="7.55754">
        <ele>1912.68</ele>
        <time>2021-03-03T09:09:49Z</time>
      </trkpt>
      <trkpt lat="44.14759" lon="7.55739">
        <ele>1912.2</ele>
        <time>2021-03-03T09:10:03Z</time>
      </trkpt>
      <trkpt lat="44.14753" lon="7.55723">
        <ele>1911.24</ele>
        <time>2021-03-03T09:10:18Z</time>
      </trkpt>
      <trkpt lat="44.1475" lon="7.55709">
        <ele>1913.16</ele>
        <time>2021-03-03T09:10:32Z</time>
      </trkpt>
      <trkpt lat="44.14749" lon="7.55707">
        <ele>1913.16</ele>
        <time>2021-03-03T09:10:34Z</time>
      </trkpt>
      <trkpt lat="44.14745" lon="7.55692">
        <ele>1914.6</ele>
        <time>2021-03-03T09:10:48Z</time>
      </trkpt>
      <trkpt lat="44.14741" lon="7.55679">
        <ele>1916.53</ele>
        <time>2021-03-03T09:11:03Z</time>
      </trkpt>
      <trkpt lat="44.14739" lon="7.55667">
        <ele>1917.01</ele>
        <time>2021-03-03T09:11:16Z</time>
      </trkpt>
      <trkpt lat="44.14738" lon="7.55654">
        <ele>1917.49</ele>
        <time>2021-03-03T09:11:32Z</time>
      </trkpt>
      <trkpt lat="44.14736" lon="7.55642">
        <ele>1917.97</ele>
        <time>2021-03-03T09:11:46Z</time>
      </trkpt>
      <trkpt lat="44.14736" lon="7.55634">
        <ele>1921.33</ele>
        <time>2021-03-03T09:12:00Z</time>
      </trkpt>
      <trkpt lat="44.14738" lon="7.55633">
        <ele>1922.77</ele>
        <time>2021-03-03T09:12:14Z</time>
      </trkpt>
      <trkpt lat="44.14739" lon="7.55625">
        <ele>1925.66</ele>
        <time>2021-03-03T09:12:29Z</time>
      </trkpt>
      <trkpt lat="44.14741" lon="7.55617">
        <ele>1927.58</ele>
        <time>2021-03-03T09:12:37Z</time>
      </trkpt>
      <trkpt lat="44.14741" lon="7.55615">
        <ele>1928.06</ele>
        <time>2021-03-03T09:12:39Z</time>
      </trkpt>
      <trkpt lat="44.14743" lon="7.55605">
        <ele>1928.06</ele>
        <time>2021-03-03T09:12:51Z</time>
      </trkpt>
      <trkpt lat="44.14744" lon="7.55595">
        <ele>1929.98</ele>
        <time>2021-03-03T09:13:03Z</time>
      </trkpt>
      <trkpt lat="44.14745" lon="7.55584">
        <ele>1928.54</ele>
        <time>2021-03-03T09:13:17Z</time>
      </trkpt>
      <trkpt lat="44.14747" lon="7.55575">
        <ele>1932.39</ele>
        <time>2021-03-03T09:13:32Z</time>
      </trkpt>
      <trkpt lat="44.14747" lon="7.55562">
        <ele>1934.79</ele>
        <time>2021-03-03T09:13:47Z</time>
      </trkpt>
      <trkpt lat="44.14748" lon="7.55549">
        <ele>1937.67</ele>
        <time>2021-03-03T09:14:02Z</time>
      </trkpt>
      <trkpt lat="44.14748" lon="7.55539">
        <ele>1937.67</ele>
        <time>2021-03-03T09:14:14Z</time>
      </trkpt>
      <trkpt lat="44.14748" lon="7.5553">
        <ele>1941.52</ele>
        <time>2021-03-03T09:14:27Z</time>
      </trkpt>
      <trkpt lat="44.1475" lon="7.55519">
        <ele>1946.33</ele>
        <time>2021-03-03T09:14:40Z</time>
      </trkpt>
      <trkpt lat="44.14749" lon="7.55505">
        <ele>1944.88</ele>
        <time>2021-03-03T09:14:55Z</time>
      </trkpt>
      <trkpt lat="44.14748" lon="7.55494">
        <ele>1946.81</ele>
        <time>2021-03-03T09:15:07Z</time>
      </trkpt>
      <trkpt lat="44.14749" lon="7.55487">
        <ele>1950.17</ele>
        <time>2021-03-03T09:15:20Z</time>
      </trkpt>
      <trkpt lat="44.1475" lon="7.55488">
        <ele>1948.73</ele>
        <time>2021-03-03T09:15:35Z</time>
      </trkpt>
      <trkpt lat="44.1475" lon="7.55485">
        <ele>1948.73</ele>
        <time>2021-03-03T09:15:52Z</time>
      </trkpt>
      <trkpt lat="44.14751" lon="7.55477">
        <ele>1950.17</ele>
        <time>2021-03-03T09:16:03Z</time>
      </trkpt>
      <trkpt lat="44.14751" lon="7.55465">
        <ele>1954.02</ele>
        <time>2021-03-03T09:16:17Z</time>
      </trkpt>
      <trkpt lat="44.14751" lon="7.55454">
        <ele>1956.42</ele>
        <time>2021-03-03T09:16:29Z</time>
      </trkpt>
      <trkpt lat="44.14748" lon="7.55445">
        <ele>1959.3</ele>
        <time>2021-03-03T09:16:41Z</time>
      </trkpt>
      <trkpt lat="44.14742" lon="7.55438">
        <ele>1957.38</ele>
        <time>2021-03-03T09:16:54Z</time>
      </trkpt>
      <trkpt lat="44.14738" lon="7.5543">
        <ele>1956.9</ele>
        <time>2021-03-03T09:17:10Z</time>
      </trkpt>
      <trkpt lat="44.14734" lon="7.5542">
        <ele>1959.3</ele>
        <time>2021-03-03T09:17:26Z</time>
      </trkpt>
      <trkpt lat="44.14734" lon="7.55416">
        <ele>1961.23</ele>
        <time>2021-03-03T09:17:43Z</time>
      </trkpt>
      <trkpt lat="44.14734" lon="7.55414">
        <ele>1961.23</ele>
        <time>2021-03-03T09:17:56Z</time>
      </trkpt>
      <trkpt lat="44.14729" lon="7.55415">
        <ele>1962.19</ele>
        <time>2021-03-03T09:18:20Z</time>
      </trkpt>
      <trkpt lat="44.14729" lon="7.55408">
        <ele>1963.15</ele>
        <time>2021-03-03T09:18:42Z</time>
      </trkpt>
      <trkpt lat="44.14725" lon="7.55397">
        <ele>1967.96</ele>
        <time>2021-03-03T09:18:57Z</time>
      </trkpt>
      <trkpt lat="44.14722" lon="7.5539">
        <ele>1968.92</ele>
        <time>2021-03-03T09:19:12Z</time>
      </trkpt>
      <trkpt lat="44.14719" lon="7.55382">
        <ele>1970.36</ele>
        <time>2021-03-03T09:19:25Z</time>
      </trkpt>
      <trkpt lat="44.14716" lon="7.55372">
        <ele>1969.4</ele>
        <time>2021-03-03T09:19:41Z</time>
      </trkpt>
      <trkpt lat="44.14714" lon="7.55364">
        <ele>1970.84</ele>
        <time>2021-03-03T09:19:56Z</time>
      </trkpt>
      <trkpt lat="44.14711" lon="7.55358">
        <ele>1973.72</ele>
        <time>2021-03-03T09:20:10Z</time>
      </trkpt>
      <trkpt lat="44.14709" lon="7.55348">
        <ele>1973.72</ele>
        <time>2021-03-03T09:20:22Z</time>
      </trkpt>
      <trkpt lat="44.14705" lon="7.55338">
        <ele>1974.69</ele>
        <time>2021-03-03T09:20:37Z</time>
      </trkpt>
      <trkpt lat="44.14702" lon="7.55328">
        <ele>1974.69</ele>
        <time>2021-03-03T09:20:50Z</time>
      </trkpt>
      <trkpt lat="44.14699" lon="7.55326">
        <ele>1974.69</ele>
        <time>2021-03-03T09:21:03Z</time>
      </trkpt>
      <trkpt lat="44.14699" lon="7.55317">
        <ele>1977.57</ele>
        <time>2021-03-03T09:21:17Z</time>
      </trkpt>
      <trkpt lat="44.14697" lon="7.55308">
        <ele>1981.41</ele>
        <time>2021-03-03T09:21:33Z</time>
      </trkpt>
      <trkpt lat="44.14695" lon="7.55296">
        <ele>1984.78</ele>
        <time>2021-03-03T09:21:47Z</time>
      </trkpt>
      <trkpt lat="44.14694" lon="7.55285">
        <ele>1987.66</ele>
        <time>2021-03-03T09:22:00Z</time>
      </trkpt>
      <trkpt lat="44.14691" lon="7.55278">
        <ele>1987.66</ele>
        <time>2021-03-03T09:22:14Z</time>
      </trkpt>
      <trkpt lat="44.14689" lon="7.55269">
        <ele>1990.07</ele>
        <time>2021-03-03T09:22:29Z</time>
      </trkpt>
      <trkpt lat="44.14686" lon="7.55258">
        <ele>1991.51</ele>
        <time>2021-03-03T09:22:44Z</time>
      </trkpt>
      <trkpt lat="44.14684" lon="7.55249">
        <ele>1993.43</ele>
        <time>2021-03-03T09:23:00Z</time>
      </trkpt>
      <trkpt lat="44.14683" lon="7.55238">
        <ele>1994.87</ele>
        <time>2021-03-03T09:23:13Z</time>
      </trkpt>
      <trkpt lat="44.14681" lon="7.55227">
        <ele>1995.35</ele>
        <time>2021-03-03T09:23:27Z</time>
      </trkpt>
      <trkpt lat="44.14681" lon="7.55215">
        <ele>1998.72</ele>
        <time>2021-03-03T09:23:44Z</time>
      </trkpt>
      <trkpt lat="44.14679" lon="7.55201">
        <ele>1999.2</ele>
        <time>2021-03-03T09:23:59Z</time>
      </trkpt>
      <trkpt lat="44.14677" lon="7.55192">
        <ele>2002.08</ele>
        <time>2021-03-03T09:24:11Z</time>
      </trkpt>
      <trkpt lat="44.14676" lon="7.55183">
        <ele>2004.49</ele>
        <time>2021-03-03T09:24:22Z</time>
      </trkpt>
      <trkpt lat="44.14675" lon="7.55176">
        <ele>2005.93</ele>
        <time>2021-03-03T09:24:32Z</time>
      </trkpt>
      <trkpt lat="44.14674" lon="7.55167">
        <ele>2009.29</ele>
        <time>2021-03-03T09:24:47Z</time>
      </trkpt>
      <trkpt lat="44.1467" lon="7.5516">
        <ele>2008.33</ele>
        <time>2021-03-03T09:24:59Z</time>
      </trkpt>
      <trkpt lat="44.14666" lon="7.55151">
        <ele>2006.89</ele>
        <time>2021-03-03T09:25:14Z</time>
      </trkpt>
      <trkpt lat="44.14662" lon="7.55143">
        <ele>2008.33</ele>
        <time>2021-03-03T09:25:30Z</time>
      </trkpt>
      <trkpt lat="44.1466" lon="7.55133">
        <ele>2007.85</ele>
        <time>2021-03-03T09:25:44Z</time>
      </trkpt>
      <trkpt lat="44.14657" lon="7.55121">
        <ele>2012.66</ele>
        <time>2021-03-03T09:26:03Z</time>
      </trkpt>
      <trkpt lat="44.14657" lon="7.55108">
        <ele>2014.1</ele>
        <time>2021-03-03T09:26:20Z</time>
      </trkpt>
      <trkpt lat="44.14655" lon="7.55105">
        <ele>2013.62</ele>
        <time>2021-03-03T09:26:42Z</time>
      </trkpt>
      <trkpt lat="44.14656" lon="7.55093">
        <ele>2015.54</ele>
        <time>2021-03-03T09:26:56Z</time>
      </trkpt>
      <trkpt lat="44.14656" lon="7.55089">
        <ele>2016.02</ele>
        <time>2021-03-03T09:27:10Z</time>
      </trkpt>
      <trkpt lat="44.14655" lon="7.55088">
        <ele>2014.1</ele>
        <time>2021-03-03T09:27:28Z</time>
      </trkpt>
      <trkpt lat="44.1465" lon="7.55081">
        <ele>2017.46</ele>
        <time>2021-03-03T09:27:48Z</time>
      </trkpt>
      <trkpt lat="44.1465" lon="7.55072">
        <ele>2020.83</ele>
        <time>2021-03-03T09:28:01Z</time>
      </trkpt>
      <trkpt lat="44.14649" lon="7.55065">
        <ele>2023.23</ele>
        <time>2021-03-03T09:28:14Z</time>
      </trkpt>
      <trkpt lat="44.14648" lon="7.55058">
        <ele>2025.15</ele>
        <time>2021-03-03T09:28:28Z</time>
      </trkpt>
      <trkpt lat="44.14646" lon="7.55043">
        <ele>2028.04</ele>
        <time>2021-03-03T09:28:47Z</time>
      </trkpt>
      <trkpt lat="44.14646" lon="7.55031">
        <ele>2030.44</ele>
        <time>2021-03-03T09:29:04Z</time>
      </trkpt>
      <trkpt lat="44.14646" lon="7.5502">
        <ele>2030.92</ele>
        <time>2021-03-03T09:29:18Z</time>
      </trkpt>
      <trkpt lat="44.14646" lon="7.55011">
        <ele>2032.36</ele>
        <time>2021-03-03T09:29:29Z</time>
      </trkpt>
      <trkpt lat="44.14648" lon="7.55002">
        <ele>2033.33</ele>
        <time>2021-03-03T09:29:42Z</time>
      </trkpt>
      <trkpt lat="44.14646" lon="7.55">
        <ele>2033.81</ele>
        <time>2021-03-03T09:29:56Z</time>
      </trkpt>
      <trkpt lat="44.14639" lon="7.54996">
        <ele>2034.29</ele>
        <time>2021-03-03T09:30:13Z</time>
      </trkpt>
      <trkpt lat="44.14635" lon="7.55001">
        <ele>2033.33</ele>
        <time>2021-03-03T09:30:27Z</time>
      </trkpt>
      <trkpt lat="44.14629" lon="7.5501">
        <ele>2037.17</ele>
        <time>2021-03-03T09:30:41Z</time>
      </trkpt>
      <trkpt lat="44.14622" lon="7.55013">
        <ele>2038.61</ele>
        <time>2021-03-03T09:30:58Z</time>
      </trkpt>
      <trkpt lat="44.14622" lon="7.55004">
        <ele>2041.98</ele>
        <time>2021-03-03T09:31:11Z</time>
      </trkpt>
      <trkpt lat="44.14623" lon="7.54997">
        <ele>2043.42</ele>
        <time>2021-03-03T09:31:25Z</time>
      </trkpt>
      <trkpt lat="44.1462" lon="7.54989">
        <ele>2043.42</ele>
        <time>2021-03-03T09:31:37Z</time>
      </trkpt>
      <trkpt lat="44.14614" lon="7.54979">
        <ele>2042.46</ele>
        <time>2021-03-03T09:31:52Z</time>
      </trkpt>
      <trkpt lat="44.14605" lon="7.54976">
        <ele>2045.82</ele>
        <time>2021-03-03T09:32:08Z</time>
      </trkpt>
      <trkpt lat="44.14605" lon="7.54963">
        <ele>2047.75</ele>
        <time>2021-03-03T09:32:24Z</time>
      </trkpt>
      <trkpt lat="44.14598" lon="7.54959">
        <ele>2050.15</ele>
        <time>2021-03-03T09:32:38Z</time>
      </trkpt>
      <trkpt lat="44.14595" lon="7.5495">
        <ele>2052.07</ele>
        <time>2021-03-03T09:32:52Z</time>
      </trkpt>
      <trkpt lat="44.14593" lon="7.54936">
        <ele>2053.51</ele>
        <time>2021-03-03T09:33:07Z</time>
      </trkpt>
      <trkpt lat="44.14592" lon="7.54927">
        <ele>2054.96</ele>
        <time>2021-03-03T09:33:21Z</time>
      </trkpt>
      <trkpt lat="44.1459" lon="7.54912">
        <ele>2054.96</ele>
        <time>2021-03-03T09:33:36Z</time>
      </trkpt>
      <trkpt lat="44.14591" lon="7.54899">
        <ele>2053.51</ele>
        <time>2021-03-03T09:33:49Z</time>
      </trkpt>
      <trkpt lat="44.14588" lon="7.54891">
        <ele>2053.99</ele>
        <time>2021-03-03T09:34:01Z</time>
      </trkpt>
      <trkpt lat="44.14584" lon="7.54883">
        <ele>2057.36</ele>
        <time>2021-03-03T09:34:15Z</time>
      </trkpt>
      <trkpt lat="44.14579" lon="7.54877">
        <ele>2058.8</ele>
        <time>2021-03-03T09:34:29Z</time>
      </trkpt>
      <trkpt lat="44.1457" lon="7.54869">
        <ele>2063.13</ele>
        <time>2021-03-03T09:34:46Z</time>
      </trkpt>
      <trkpt lat="44.1456" lon="7.54862">
        <ele>2064.57</ele>
        <time>2021-03-03T09:35:03Z</time>
      </trkpt>
      <trkpt lat="44.14551" lon="7.54853">
        <ele>2066.01</ele>
        <time>2021-03-03T09:35:18Z</time>
      </trkpt>
      <trkpt lat="44.14547" lon="7.54845">
        <ele>2068.41</ele>
        <time>2021-03-03T09:35:32Z</time>
      </trkpt>
      <trkpt lat="44.14548" lon="7.54834">
        <ele>2070.82</ele>
        <time>2021-03-03T09:35:44Z</time>
      </trkpt>
      <trkpt lat="44.14548" lon="7.54823">
        <ele>2073.22</ele>
        <time>2021-03-03T09:35:58Z</time>
      </trkpt>
      <trkpt lat="44.14549" lon="7.54817">
        <ele>2074.66</ele>
        <time>2021-03-03T09:36:10Z</time>
      </trkpt>
      <trkpt lat="44.14547" lon="7.5481">
        <ele>2076.1</ele>
        <time>2021-03-03T09:36:33Z</time>
      </trkpt>
      <trkpt lat="44.14538" lon="7.54804">
        <ele>2078.51</ele>
        <time>2021-03-03T09:36:49Z</time>
      </trkpt>
      <trkpt lat="44.14532" lon="7.54797">
        <ele>2080.91</ele>
        <time>2021-03-03T09:37:02Z</time>
      </trkpt>
      <trkpt lat="44.14525" lon="7.5479">
        <ele>2083.79</ele>
        <time>2021-03-03T09:37:16Z</time>
      </trkpt>
      <trkpt lat="44.1452" lon="7.54781">
        <ele>2086.68</ele>
        <time>2021-03-03T09:37:31Z</time>
      </trkpt>
      <trkpt lat="44.14515" lon="7.54772">
        <ele>2088.12</ele>
        <time>2021-03-03T09:37:44Z</time>
      </trkpt>
      <trkpt lat="44.1451" lon="7.54761">
        <ele>2090.04</ele>
        <time>2021-03-03T09:38:02Z</time>
      </trkpt>
      <trkpt lat="44.14505" lon="7.54754">
        <ele>2092.93</ele>
        <time>2021-03-03T09:38:16Z</time>
      </trkpt>
      <trkpt lat="44.14501" lon="7.5475">
        <ele>2092.93</ele>
        <time>2021-03-03T09:38:29Z</time>
      </trkpt>
      <trkpt lat="44.14497" lon="7.5474">
        <ele>2092.93</ele>
        <time>2021-03-03T09:38:42Z</time>
      </trkpt>
      <trkpt lat="44.14495" lon="7.54731">
        <ele>2093.41</ele>
        <time>2021-03-03T09:38:55Z</time>
      </trkpt>
      <trkpt lat="44.14492" lon="7.54727">
        <ele>2095.81</ele>
        <time>2021-03-03T09:39:07Z</time>
      </trkpt>
      <trkpt lat="44.14488" lon="7.54716">
        <ele>2097.73</ele>
        <time>2021-03-03T09:39:21Z</time>
      </trkpt>
      <trkpt lat="44.14484" lon="7.54707">
        <ele>2101.58</ele>
        <time>2021-03-03T09:39:34Z</time>
      </trkpt>
      <trkpt lat="44.14479" lon="7.54697">
        <ele>2102.06</ele>
        <time>2021-03-03T09:39:49Z</time>
      </trkpt>
      <trkpt lat="44.14473" lon="7.54689">
        <ele>2102.54</ele>
        <time>2021-03-03T09:40:03Z</time>
      </trkpt>
      <trkpt lat="44.14473" lon="7.54688">
        <ele>2102.54</ele>
        <time>2021-03-03T09:40:04Z</time>
      </trkpt>
      <trkpt lat="44.14465" lon="7.54677">
        <ele>2103.5</ele>
        <time>2021-03-03T09:40:19Z</time>
      </trkpt>
      <trkpt lat="44.14458" lon="7.54665">
        <ele>2103.98</ele>
        <time>2021-03-03T09:40:33Z</time>
      </trkpt>
      <trkpt lat="44.14451" lon="7.54654">
        <ele>2104.46</ele>
        <time>2021-03-03T09:40:47Z</time>
      </trkpt>
      <trkpt lat="44.14446" lon="7.54647">
        <ele>2104.46</ele>
        <time>2021-03-03T09:41:00Z</time>
      </trkpt>
      <trkpt lat="44.14448" lon="7.54646">
        <ele>2103.98</ele>
        <time>2021-03-03T09:41:14Z</time>
      </trkpt>
      <trkpt lat="44.14448" lon="7.54644">
        <ele>2105.42</ele>
        <time>2021-03-03T09:41:43Z</time>
      </trkpt>
      <trkpt lat="44.14456" lon="7.54647">
        <ele>2107.35</ele>
        <time>2021-03-03T09:41:56Z</time>
      </trkpt>
      <trkpt lat="44.14462" lon="7.54649">
        <ele>2108.79</ele>
        <time>2021-03-03T09:42:11Z</time>
      </trkpt>
      <trkpt lat="44.1447" lon="7.54653">
        <ele>2110.23</ele>
        <time>2021-03-03T09:42:28Z</time>
      </trkpt>
      <trkpt lat="44.14477" lon="7.54655">
        <ele>2112.63</ele>
        <time>2021-03-03T09:42:44Z</time>
      </trkpt>
      <trkpt lat="44.14488" lon="7.54655">
        <ele>2113.6</ele>
        <time>2021-03-03T09:43:02Z</time>
      </trkpt>
      <trkpt lat="44.14493" lon="7.54654">
        <ele>2115.04</ele>
        <time>2021-03-03T09:43:16Z</time>
      </trkpt>
      <trkpt lat="44.14499" lon="7.54652">
        <ele>2118.88</ele>
        <time>2021-03-03T09:43:33Z</time>
      </trkpt>
      <trkpt lat="44.14505" lon="7.54652">
        <ele>2119.36</ele>
        <time>2021-03-03T09:43:47Z</time>
      </trkpt>
      <trkpt lat="44.1451" lon="7.54652">
        <ele>2119.84</ele>
        <time>2021-03-03T09:44:05Z</time>
      </trkpt>
      <trkpt lat="44.14515" lon="7.5465">
        <ele>2121.77</ele>
        <time>2021-03-03T09:44:21Z</time>
      </trkpt>
      <trkpt lat="44.14516" lon="7.54648">
        <ele>2123.21</ele>
        <time>2021-03-03T09:44:37Z</time>
      </trkpt>
      <trkpt lat="44.1452" lon="7.54647">
        <ele>2124.17</ele>
        <time>2021-03-03T09:44:55Z</time>
      </trkpt>
      <trkpt lat="44.14523" lon="7.54645">
        <ele>2125.61</ele>
        <time>2021-03-03T09:45:11Z</time>
      </trkpt>
      <trkpt lat="44.14526" lon="7.54642">
        <ele>2127.05</ele>
        <time>2021-03-03T09:45:27Z</time>
      </trkpt>
      <trkpt lat="44.14527" lon="7.54641">
        <ele>2127.05</ele>
        <time>2021-03-03T09:45:44Z</time>
      </trkpt>
      <trkpt lat="44.14526" lon="7.54642">
        <ele>2126.57</ele>
        <time>2021-03-03T09:46:02Z</time>
      </trkpt>
      <trkpt lat="44.14527" lon="7.54639">
        <ele>2126.57</ele>
        <time>2021-03-03T09:46:25Z</time>
      </trkpt>
      <trkpt lat="44.14522" lon="7.54631">
        <ele>2127.53</ele>
        <time>2021-03-03T09:46:36Z</time>
      </trkpt>
      <trkpt lat="44.14521" lon="7.54627">
        <ele>2127.53</ele>
        <time>2021-03-03T09:46:39Z</time>
      </trkpt>
      <trkpt lat="44.14521" lon="7.54621">
        <ele>2128.02</ele>
        <time>2021-03-03T09:46:45Z</time>
      </trkpt>
      <trkpt lat="44.14522" lon="7.54614">
        <ele>2128.02</ele>
        <time>2021-03-03T09:46:51Z</time>
      </trkpt>
      <trkpt lat="44.14517" lon="7.54603">
        <ele>2127.53</ele>
        <time>2021-03-03T09:47:04Z</time>
      </trkpt>
      <trkpt lat="44.14518" lon="7.54597">
        <ele>2127.05</ele>
        <time>2021-03-03T09:47:12Z</time>
      </trkpt>
      <trkpt lat="44.14512" lon="7.54596">
        <ele>2126.57</ele>
        <time>2021-03-03T09:47:25Z</time>
      </trkpt>
      <trkpt lat="44.14512" lon="7.54595">
        <ele>2125.61</ele>
        <time>2021-03-03T09:47:40Z</time>
      </trkpt>
      <trkpt lat="44.14511" lon="7.54598">
        <ele>2126.09</ele>
        <time>2021-03-03T09:47:44Z</time>
      </trkpt>
      <trkpt lat="44.14512" lon="7.54605">
        <ele>2127.05</ele>
        <time>2021-03-03T09:47:59Z</time>
      </trkpt>
      <trkpt lat="44.14513" lon="7.546">
        <ele>2127.05</ele>
        <time>2021-03-03T09:48:05Z</time>
      </trkpt>
      <trkpt lat="44.14511" lon="7.54594">
        <ele>2126.57</ele>
        <time>2021-03-03T09:48:18Z</time>
      </trkpt>
      <trkpt lat="44.14508" lon="7.54598">
        <ele>2126.09</ele>
        <time>2021-03-03T09:48:31Z</time>
      </trkpt>
      <trkpt lat="44.14509" lon="7.5459">
        <ele>2123.69</ele>
        <time>2021-03-03T09:48:44Z</time>
      </trkpt>
      <trkpt lat="44.14509" lon="7.54587">
        <ele>2122.73</ele>
        <time>2021-03-03T09:48:54Z</time>
      </trkpt>
      <trkpt lat="44.14508" lon="7.54584">
        <ele>2121.29</ele>
        <time>2021-03-03T09:49:09Z</time>
      </trkpt>
      <trkpt lat="44.14509" lon="7.54587">
        <ele>2123.69</ele>
        <time>2021-03-03T09:49:21Z</time>
      </trkpt>
      <trkpt lat="44.14509" lon="7.54586">
        <ele>2122.25</ele>
        <time>2021-03-03T09:49:34Z</time>
      </trkpt>
      <trkpt lat="44.14509" lon="7.5459">
        <ele>2122.73</ele>
        <time>2021-03-03T09:49:48Z</time>
      </trkpt>
      <trkpt lat="44.14508" lon="7.5459">
        <ele>2122.73</ele>
        <time>2021-03-03T09:50:07Z</time>
      </trkpt>
      <trkpt lat="44.14509" lon="7.5459">
        <ele>2121.29</ele>
        <time>2021-03-03T09:50:16Z</time>
      </trkpt>
      <trkpt lat="44.14508" lon="7.54591">
        <ele>2117.92</ele>
        <time>2021-03-03T09:50:45Z</time>
      </trkpt>
      <trkpt lat="44.14509" lon="7.5459">
        <ele>2119.36</ele>
        <time>2021-03-03T09:51:11Z</time>
      </trkpt>
      <trkpt lat="44.14511" lon="7.54589">
        <ele>2122.25</ele>
        <time>2021-03-03T09:51:48Z</time>
      </trkpt>
      <trkpt lat="44.14511" lon="7.54588">
        <ele>2124.17</ele>
        <time>2021-03-03T09:52:13Z</time>
      </trkpt>
      <trkpt lat="44.14511" lon="7.54588">
        <ele>2124.17</ele>
        <time>2021-03-03T09:52:45Z</time>
      </trkpt>
      <trkpt lat="44.14512" lon="7.54589">
        <ele>2122.73</ele>
        <time>2021-03-03T09:53:14Z</time>
      </trkpt>
      <trkpt lat="44.1451" lon="7.54588">
        <ele>2122.73</ele>
        <time>2021-03-03T09:53:40Z</time>
      </trkpt>
      <trkpt lat="44.14509" lon="7.54589">
        <ele>2121.29</ele>
        <time>2021-03-03T09:54:10Z</time>
      </trkpt>
      <trkpt lat="44.14507" lon="7.54588">
        <ele>2121.29</ele>
        <time>2021-03-03T09:54:37Z</time>
      </trkpt>
      <trkpt lat="44.14507" lon="7.54589">
        <ele>2119.84</ele>
        <time>2021-03-03T09:55:06Z</time>
      </trkpt>
      <trkpt lat="44.14508" lon="7.54589">
        <ele>2119.36</ele>
        <time>2021-03-03T09:55:30Z</time>
      </trkpt>
      <trkpt lat="44.14508" lon="7.54589">
        <ele>2118.4</ele>
        <time>2021-03-03T09:55:56Z</time>
      </trkpt>
      <trkpt lat="44.14507" lon="7.54589">
        <ele>2118.88</ele>
        <time>2021-03-03T09:56:18Z</time>
      </trkpt>
      <trkpt lat="44.14508" lon="7.54589">
        <ele>2119.84</ele>
        <time>2021-03-03T09:56:48Z</time>
      </trkpt>
      <trkpt lat="44.14508" lon="7.54589">
        <ele>2120.32</ele>
        <time>2021-03-03T09:57:14Z</time>
      </trkpt>
      <trkpt lat="44.14507" lon="7.54589">
        <ele>2120.81</ele>
        <time>2021-03-03T09:57:42Z</time>
      </trkpt>
      <trkpt lat="44.14508" lon="7.5459">
        <ele>2122.25</ele>
        <time>2021-03-03T09:58:03Z</time>
      </trkpt>
      <trkpt lat="44.1451" lon="7.54591">
        <ele>2120.32</ele>
        <time>2021-03-03T09:58:34Z</time>
      </trkpt>
      <trkpt lat="44.14513" lon="7.5459">
        <ele>2121.77</ele>
        <time>2021-03-03T09:58:59Z</time>
      </trkpt>
      <trkpt lat="44.14513" lon="7.54588">
        <ele>2122.73</ele>
        <time>2021-03-03T09:59:21Z</time>
      </trkpt>
      <trkpt lat="44.14513" lon="7.54588">
        <ele>2122.25</ele>
        <time>2021-03-03T09:59:46Z</time>
      </trkpt>
      <trkpt lat="44.14515" lon="7.54589">
        <ele>2123.21</ele>
        <time>2021-03-03T10:00:11Z</time>
      </trkpt>
      <trkpt lat="44.14514" lon="7.54588">
        <ele>2123.69</ele>
        <time>2021-03-03T10:00:39Z</time>
      </trkpt>
      <trkpt lat="44.14513" lon="7.54587">
        <ele>2124.17</ele>
        <time>2021-03-03T10:01:06Z</time>
      </trkpt>
      <trkpt lat="44.14513" lon="7.54587">
        <ele>2123.69</ele>
        <time>2021-03-03T10:01:35Z</time>
      </trkpt>
      <trkpt lat="44.14516" lon="7.54587">
        <ele>2123.21</ele>
        <time>2021-03-03T10:01:49Z</time>
      </trkpt>
      <trkpt lat="44.14517" lon="7.54587">
        <ele>2124.17</ele>
        <time>2021-03-03T10:02:08Z</time>
      </trkpt>
      <trkpt lat="44.14514" lon="7.54589">
        <ele>2122.73</ele>
        <time>2021-03-03T10:02:38Z</time>
      </trkpt>
      <trkpt lat="44.14513" lon="7.5459">
        <ele>2123.21</ele>
        <time>2021-03-03T10:03:16Z</time>
      </trkpt>
      <trkpt lat="44.14515" lon="7.54591">
        <ele>2124.17</ele>
        <time>2021-03-03T10:03:44Z</time>
      </trkpt>
      <trkpt lat="44.14516" lon="7.54589">
        <ele>2125.61</ele>
        <time>2021-03-03T10:04:13Z</time>
      </trkpt>
      <trkpt lat="44.14518" lon="7.54589">
        <ele>2125.13</ele>
        <time>2021-03-03T10:04:46Z</time>
      </trkpt>
      <trkpt lat="44.14514" lon="7.54588">
        <ele>2125.13</ele>
        <time>2021-03-03T10:05:12Z</time>
      </trkpt>
      <trkpt lat="44.14515" lon="7.54588">
        <ele>2125.13</ele>
        <time>2021-03-03T10:05:14Z</time>
      </trkpt>
      <trkpt lat="44.14514" lon="7.54589">
        <ele>2123.69</ele>
        <time>2021-03-03T10:05:28Z</time>
      </trkpt>
      <trkpt lat="44.14515" lon="7.54589">
        <ele>2121.77</ele>
        <time>2021-03-03T10:05:46Z</time>
      </trkpt>
      <trkpt lat="44.14513" lon="7.54588">
        <ele>2124.17</ele>
        <time>2021-03-03T10:06:04Z</time>
      </trkpt>
      <trkpt lat="44.14514" lon="7.54597">
        <ele>2125.61</ele>
        <time>2021-03-03T10:06:21Z</time>
      </trkpt>
      <trkpt lat="44.14514" lon="7.546">
        <ele>2124.65</ele>
        <time>2021-03-03T10:06:36Z</time>
      </trkpt>
      <trkpt lat="44.14515" lon="7.546">
        <ele>2125.13</ele>
        <time>2021-03-03T10:06:37Z</time>
      </trkpt>
      <trkpt lat="44.14517" lon="7.54593">
        <ele>2124.65</ele>
        <time>2021-03-03T10:06:49Z</time>
      </trkpt>
      <trkpt lat="44.1452" lon="7.54594">
        <ele>2126.09</ele>
        <time>2021-03-03T10:07:01Z</time>
      </trkpt>
      <trkpt lat="44.14525" lon="7.54593">
        <ele>2125.61</ele>
        <time>2021-03-03T10:07:18Z</time>
      </trkpt>
      <trkpt lat="44.14533" lon="7.5459">
        <ele>2126.09</ele>
        <time>2021-03-03T10:07:33Z</time>
      </trkpt>
      <trkpt lat="44.14532" lon="7.54604">
        <ele>2127.05</ele>
        <time>2021-03-03T10:07:47Z</time>
      </trkpt>
      <trkpt lat="44.14532" lon="7.54606">
        <ele>2126.09</ele>
        <time>2021-03-03T10:08:02Z</time>
      </trkpt>
      <trkpt lat="44.14525" lon="7.54599">
        <ele>2125.61</ele>
        <time>2021-03-03T10:08:15Z</time>
      </trkpt>
      <trkpt lat="44.14521" lon="7.54592">
        <ele>2124.17</ele>
        <time>2021-03-03T10:08:27Z</time>
      </trkpt>
      <trkpt lat="44.14522" lon="7.54585">
        <ele>2124.17</ele>
        <time>2021-03-03T10:08:39Z</time>
      </trkpt>
      <trkpt lat="44.14522" lon="7.54585">
        <ele>2123.69</ele>
        <time>2021-03-03T10:08:55Z</time>
      </trkpt>
      <trkpt lat="44.14518" lon="7.54593">
        <ele>2123.21</ele>
        <time>2021-03-03T10:09:10Z</time>
      </trkpt>
      <trkpt lat="44.14515" lon="7.54599">
        <ele>2122.25</ele>
        <time>2021-03-03T10:09:23Z</time>
      </trkpt>
      <trkpt lat="44.14516" lon="7.546">
        <ele>2121.29</ele>
        <time>2021-03-03T10:09:32Z</time>
      </trkpt>
      <trkpt lat="44.14518" lon="7.54601">
        <ele>2121.77</ele>
        <time>2021-03-03T10:10:02Z</time>
      </trkpt>
      <trkpt lat="44.14519" lon="7.54599">
        <ele>2123.21</ele>
        <time>2021-03-03T10:10:39Z</time>
      </trkpt>
      <trkpt lat="44.14519" lon="7.546">
        <ele>2123.21</ele>
        <time>2021-03-03T10:11:03Z</time>
      </trkpt>
      <trkpt lat="44.14519" lon="7.546">
        <ele>2124.17</ele>
        <time>2021-03-03T10:11:36Z</time>
      </trkpt>
      <trkpt lat="44.14519" lon="7.54601">
        <ele>2122.73</ele>
        <time>2021-03-03T10:12:08Z</time>
      </trkpt>
      <trkpt lat="44.14519" lon="7.54601">
        <ele>2122.73</ele>
        <time>2021-03-03T10:12:32Z</time>
      </trkpt>
      <trkpt lat="44.14519" lon="7.54599">
        <ele>2123.69</ele>
        <time>2021-03-03T10:12:56Z</time>
      </trkpt>
      <trkpt lat="44.14517" lon="7.54598">
        <ele>2123.21</ele>
        <time>2021-03-03T10:13:21Z</time>
      </trkpt>
      <trkpt lat="44.14516" lon="7.54596">
        <ele>2123.21</ele>
        <time>2021-03-03T10:13:43Z</time>
      </trkpt>
      <trkpt lat="44.14516" lon="7.54596">
        <ele>2122.73</ele>
        <time>2021-03-03T10:14:09Z</time>
      </trkpt>
      <trkpt lat="44.14516" lon="7.54596">
        <ele>2122.25</ele>
        <time>2021-03-03T10:14:43Z</time>
      </trkpt>
      <trkpt lat="44.14516" lon="7.54596">
        <ele>2122.73</ele>
        <time>2021-03-03T10:15:18Z</time>
      </trkpt>
      <trkpt lat="44.14517" lon="7.54599">
        <ele>2124.65</ele>
        <time>2021-03-03T10:15:35Z</time>
      </trkpt>
      <trkpt lat="44.14515" lon="7.54598">
        <ele>2126.57</ele>
        <time>2021-03-03T10:15:49Z</time>
      </trkpt>
      <trkpt lat="44.14516" lon="7.54597">
        <ele>2126.57</ele>
        <time>2021-03-03T10:15:58Z</time>
      </trkpt>
      <trkpt lat="44.14516" lon="7.546">
        <ele>2128.02</ele>
        <time>2021-03-03T10:16:13Z</time>
      </trkpt>
      <trkpt lat="44.14515" lon="7.54602">
        <ele>2128.02</ele>
        <time>2021-03-03T10:16:28Z</time>
      </trkpt>
      <trkpt lat="44.14517" lon="7.54605">
        <ele>2128.5</ele>
        <time>2021-03-03T10:16:39Z</time>
      </trkpt>
      <trkpt lat="44.14518" lon="7.54605">
        <ele>2127.53</ele>
        <time>2021-03-03T10:16:49Z</time>
      </trkpt>
      <trkpt lat="44.14517" lon="7.54603">
        <ele>2126.57</ele>
        <time>2021-03-03T10:17:05Z</time>
      </trkpt>
      <trkpt lat="44.14515" lon="7.54601">
        <ele>2126.57</ele>
        <time>2021-03-03T10:17:22Z</time>
      </trkpt>
      <trkpt lat="44.14517" lon="7.54597">
        <ele>2127.53</ele>
        <time>2021-03-03T10:17:33Z</time>
      </trkpt>
      <trkpt lat="44.14517" lon="7.54598">
        <ele>2128.02</ele>
        <time>2021-03-03T10:17:44Z</time>
      </trkpt>
      <trkpt lat="44.14517" lon="7.546">
        <ele>2127.53</ele>
        <time>2021-03-03T10:17:55Z</time>
      </trkpt>
      <trkpt lat="44.14518" lon="7.54602">
        <ele>2130.9</ele>
        <time>2021-03-03T10:18:15Z</time>
      </trkpt>
      <trkpt lat="44.14516" lon="7.54602">
        <ele>2131.38</ele>
        <time>2021-03-03T10:18:40Z</time>
      </trkpt>
      <trkpt lat="44.14519" lon="7.546">
        <ele>2129.94</ele>
        <time>2021-03-03T10:18:55Z</time>
      </trkpt>
      <trkpt lat="44.14525" lon="7.54605">
        <ele>2129.94</ele>
        <time>2021-03-03T10:19:07Z</time>
      </trkpt>
      <trkpt lat="44.14529" lon="7.54611">
        <ele>2130.9</ele>
        <time>2021-03-03T10:19:13Z</time>
      </trkpt>
      <trkpt lat="44.1453" lon="7.54617">
        <ele>2130.9</ele>
        <time>2021-03-03T10:19:18Z</time>
      </trkpt>
      <trkpt lat="44.14527" lon="7.54622">
        <ele>2129.94</ele>
        <time>2021-03-03T10:19:31Z</time>
      </trkpt>
      <trkpt lat="44.14527" lon="7.54623">
        <ele>2130.9</ele>
        <time>2021-03-03T10:19:49Z</time>
      </trkpt>
      <trkpt lat="44.14527" lon="7.54624">
        <ele>2130.42</ele>
        <time>2021-03-03T10:20:09Z</time>
      </trkpt>
      <trkpt lat="44.14528" lon="7.54623">
        <ele>2130.42</ele>
        <time>2021-03-03T10:20:24Z</time>
      </trkpt>
      <trkpt lat="44.14531" lon="7.54625">
        <ele>2131.38</ele>
        <time>2021-03-03T10:20:38Z</time>
      </trkpt>
      <trkpt lat="44.14532" lon="7.54628">
        <ele>2131.38</ele>
        <time>2021-03-03T10:20:42Z</time>
      </trkpt>
      <trkpt lat="44.14534" lon="7.54636">
        <ele>2129.46</ele>
        <time>2021-03-03T10:20:53Z</time>
      </trkpt>
      <trkpt lat="44.14536" lon="7.54642">
        <ele>2126.57</ele>
        <time>2021-03-03T10:21:04Z</time>
      </trkpt>
      <trkpt lat="44.14535" lon="7.54642">
        <ele>2126.09</ele>
        <time>2021-03-03T10:21:09Z</time>
      </trkpt>
      <trkpt lat="44.14532" lon="7.54647">
        <ele>2124.65</ele>
        <time>2021-03-03T10:21:16Z</time>
      </trkpt>
      <trkpt lat="44.14521" lon="7.54658">
        <ele>2120.81</ele>
        <time>2021-03-03T10:21:25Z</time>
      </trkpt>
      <trkpt lat="44.14521" lon="7.54662">
        <ele>2120.32</ele>
        <time>2021-03-03T10:21:27Z</time>
      </trkpt>
      <trkpt lat="44.14524" lon="7.54664">
        <ele>2119.84</ele>
        <time>2021-03-03T10:21:28Z</time>
      </trkpt>
      <trkpt lat="44.14527" lon="7.54664">
        <ele>2118.88</ele>
        <time>2021-03-03T10:21:29Z</time>
      </trkpt>
      <trkpt lat="44.1453" lon="7.54663">
        <ele>2118.4</ele>
        <time>2021-03-03T10:21:30Z</time>
      </trkpt>
      <trkpt lat="44.14533" lon="7.54663">
        <ele>2117.92</ele>
        <time>2021-03-03T10:21:31Z</time>
      </trkpt>
      <trkpt lat="44.1456" lon="7.54647">
        <ele>2113.12</ele>
        <time>2021-03-03T10:21:42Z</time>
      </trkpt>
      <trkpt lat="44.14562" lon="7.54644">
        <ele>2112.63</ele>
        <time>2021-03-03T10:21:50Z</time>
      </trkpt>
      <trkpt lat="44.14571" lon="7.5465">
        <ele>2109.75</ele>
        <time>2021-03-03T10:21:58Z</time>
      </trkpt>
      <trkpt lat="44.14576" lon="7.54664">
        <ele>2107.35</ele>
        <time>2021-03-03T10:22:04Z</time>
      </trkpt>
      <trkpt lat="44.14574" lon="7.54692">
        <ele>2105.91</ele>
        <time>2021-03-03T10:22:14Z</time>
      </trkpt>
      <trkpt lat="44.14574" lon="7.54693">
        <ele>2105.42</ele>
        <time>2021-03-03T10:22:22Z</time>
      </trkpt>
      <trkpt lat="44.14576" lon="7.54699">
        <ele>2104.46</ele>
        <time>2021-03-03T10:22:26Z</time>
      </trkpt>
      <trkpt lat="44.14577" lon="7.54707">
        <ele>2101.58</ele>
        <time>2021-03-03T10:22:36Z</time>
      </trkpt>
      <trkpt lat="44.14588" lon="7.54693">
        <ele>2098.7</ele>
        <time>2021-03-03T10:22:43Z</time>
      </trkpt>
      <trkpt lat="44.14589" lon="7.54709">
        <ele>2095.33</ele>
        <time>2021-03-03T10:22:50Z</time>
      </trkpt>
      <trkpt lat="44.14589" lon="7.54713">
        <ele>2092.45</ele>
        <time>2021-03-03T10:23:05Z</time>
      </trkpt>
      <trkpt lat="44.14589" lon="7.54713">
        <ele>2092.93</ele>
        <time>2021-03-03T10:23:12Z</time>
      </trkpt>
      <trkpt lat="44.14589" lon="7.54721">
        <ele>2091.97</ele>
        <time>2021-03-03T10:23:16Z</time>
      </trkpt>
      <trkpt lat="44.14583" lon="7.54759">
        <ele>2087.64</ele>
        <time>2021-03-03T10:23:31Z</time>
      </trkpt>
      <trkpt lat="44.14583" lon="7.54761">
        <ele>2085.72</ele>
        <time>2021-03-03T10:23:51Z</time>
      </trkpt>
      <trkpt lat="44.14583" lon="7.54762">
        <ele>2084.76</ele>
        <time>2021-03-03T10:24:08Z</time>
      </trkpt>
      <trkpt lat="44.14583" lon="7.54763">
        <ele>2084.76</ele>
        <time>2021-03-03T10:24:13Z</time>
      </trkpt>
      <trkpt lat="44.14582" lon="7.54765">
        <ele>2084.76</ele>
        <time>2021-03-03T10:24:14Z</time>
      </trkpt>
      <trkpt lat="44.14573" lon="7.54793">
        <ele>2082.83</ele>
        <time>2021-03-03T10:24:26Z</time>
      </trkpt>
      <trkpt lat="44.14574" lon="7.54795">
        <ele>2080.43</ele>
        <time>2021-03-03T10:24:49Z</time>
      </trkpt>
      <trkpt lat="44.14574" lon="7.54798">
        <ele>2079.95</ele>
        <time>2021-03-03T10:24:50Z</time>
      </trkpt>
      <trkpt lat="44.14572" lon="7.5481">
        <ele>2078.03</ele>
        <time>2021-03-03T10:24:54Z</time>
      </trkpt>
      <trkpt lat="44.14571" lon="7.54812">
        <ele>2077.55</ele>
        <time>2021-03-03T10:24:55Z</time>
      </trkpt>
      <trkpt lat="44.1457" lon="7.54814">
        <ele>2077.07</ele>
        <time>2021-03-03T10:24:56Z</time>
      </trkpt>
      <trkpt lat="44.14569" lon="7.54817">
        <ele>2076.59</ele>
        <time>2021-03-03T10:24:57Z</time>
      </trkpt>
      <trkpt lat="44.14568" lon="7.5482">
        <ele>2076.1</ele>
        <time>2021-03-03T10:24:58Z</time>
      </trkpt>
      <trkpt lat="44.14567" lon="7.54824">
        <ele>2075.62</ele>
        <time>2021-03-03T10:24:59Z</time>
      </trkpt>
      <trkpt lat="44.14559" lon="7.54862">
        <ele>2071.3</ele>
        <time>2021-03-03T10:25:08Z</time>
      </trkpt>
      <trkpt lat="44.14555" lon="7.54908">
        <ele>2067.45</ele>
        <time>2021-03-03T10:25:18Z</time>
      </trkpt>
      <trkpt lat="44.14556" lon="7.54919">
        <ele>2066.49</ele>
        <time>2021-03-03T10:25:20Z</time>
      </trkpt>
      <trkpt lat="44.14557" lon="7.54942">
        <ele>2065.05</ele>
        <time>2021-03-03T10:25:24Z</time>
      </trkpt>
      <trkpt lat="44.14558" lon="7.54948">
        <ele>2064.57</ele>
        <time>2021-03-03T10:25:25Z</time>
      </trkpt>
      <trkpt lat="44.14564" lon="7.5497">
        <ele>2061.68</ele>
        <time>2021-03-03T10:25:31Z</time>
      </trkpt>
      <trkpt lat="44.14567" lon="7.54966">
        <ele>2060.24</ele>
        <time>2021-03-03T10:25:32Z</time>
      </trkpt>
      <trkpt lat="44.1457" lon="7.54961">
        <ele>2059.28</ele>
        <time>2021-03-03T10:25:33Z</time>
      </trkpt>
      <trkpt lat="44.14572" lon="7.54957">
        <ele>2058.32</ele>
        <time>2021-03-03T10:25:34Z</time>
      </trkpt>
      <trkpt lat="44.14574" lon="7.54953">
        <ele>2057.84</ele>
        <time>2021-03-03T10:25:35Z</time>
      </trkpt>
      <trkpt lat="44.14575" lon="7.54949">
        <ele>2057.84</ele>
        <time>2021-03-03T10:25:36Z</time>
      </trkpt>
      <trkpt lat="44.1458" lon="7.54943">
        <ele>2057.36</ele>
        <time>2021-03-03T10:25:39Z</time>
      </trkpt>
      <trkpt lat="44.14581" lon="7.54943">
        <ele>2056.88</ele>
        <time>2021-03-03T10:25:40Z</time>
      </trkpt>
      <trkpt lat="44.14582" lon="7.54946">
        <ele>2056.88</ele>
        <time>2021-03-03T10:25:41Z</time>
      </trkpt>
      <trkpt lat="44.14583" lon="7.54981">
        <ele>2053.51</ele>
        <time>2021-03-03T10:25:48Z</time>
      </trkpt>
      <trkpt lat="44.14583" lon="7.54984">
        <ele>2053.51</ele>
        <time>2021-03-03T10:25:49Z</time>
      </trkpt>
      <trkpt lat="44.14584" lon="7.54987">
        <ele>2053.03</ele>
        <time>2021-03-03T10:25:50Z</time>
      </trkpt>
      <trkpt lat="44.14584" lon="7.54993">
        <ele>2051.11</ele>
        <time>2021-03-03T10:26:00Z</time>
      </trkpt>
      <trkpt lat="44.14585" lon="7.54994">
        <ele>2053.51</ele>
        <time>2021-03-03T10:26:16Z</time>
      </trkpt>
      <trkpt lat="44.14592" lon="7.55018">
        <ele>2051.11</ele>
        <time>2021-03-03T10:26:30Z</time>
      </trkpt>
      <trkpt lat="44.14595" lon="7.55059">
        <ele>2046.78</ele>
        <time>2021-03-03T10:26:43Z</time>
      </trkpt>
      <trkpt lat="44.14596" lon="7.55061">
        <ele>2045.82</ele>
        <time>2021-03-03T10:26:50Z</time>
      </trkpt>
      <trkpt lat="44.14598" lon="7.55064">
        <ele>2045.34</ele>
        <time>2021-03-03T10:26:51Z</time>
      </trkpt>
      <trkpt lat="44.146" lon="7.55069">
        <ele>2044.86</ele>
        <time>2021-03-03T10:26:52Z</time>
      </trkpt>
      <trkpt lat="44.14601" lon="7.55076">
        <ele>2043.9</ele>
        <time>2021-03-03T10:26:53Z</time>
      </trkpt>
      <trkpt lat="44.14601" lon="7.55081">
        <ele>2042.94</ele>
        <time>2021-03-03T10:26:54Z</time>
      </trkpt>
      <trkpt lat="44.14602" lon="7.55086">
        <ele>2042.46</ele>
        <time>2021-03-03T10:26:55Z</time>
      </trkpt>
      <trkpt lat="44.14603" lon="7.55092">
        <ele>2041.5</ele>
        <time>2021-03-03T10:26:56Z</time>
      </trkpt>
      <trkpt lat="44.14608" lon="7.55125">
        <ele>2038.13</ele>
        <time>2021-03-03T10:27:04Z</time>
      </trkpt>
      <trkpt lat="44.14611" lon="7.55132">
        <ele>2037.17</ele>
        <time>2021-03-03T10:27:09Z</time>
      </trkpt>
      <trkpt lat="44.14614" lon="7.55129">
        <ele>2036.21</ele>
        <time>2021-03-03T10:27:11Z</time>
      </trkpt>
      <trkpt lat="44.14616" lon="7.55124">
        <ele>2035.25</ele>
        <time>2021-03-03T10:27:12Z</time>
      </trkpt>
      <trkpt lat="44.14617" lon="7.55121">
        <ele>2034.77</ele>
        <time>2021-03-03T10:27:13Z</time>
      </trkpt>
      <trkpt lat="44.1462" lon="7.55116">
        <ele>2033.33</ele>
        <time>2021-03-03T10:27:16Z</time>
      </trkpt>
      <trkpt lat="44.14625" lon="7.55124">
        <ele>2030.44</ele>
        <time>2021-03-03T10:27:19Z</time>
      </trkpt>
      <trkpt lat="44.14628" lon="7.55138">
        <ele>2026.6</ele>
        <time>2021-03-03T10:27:23Z</time>
      </trkpt>
      <trkpt lat="44.14636" lon="7.55128">
        <ele>2022.75</ele>
        <time>2021-03-03T10:27:29Z</time>
      </trkpt>
      <trkpt lat="44.14642" lon="7.55136">
        <ele>2020.35</ele>
        <time>2021-03-03T10:27:32Z</time>
      </trkpt>
      <trkpt lat="44.14643" lon="7.5514">
        <ele>2019.39</ele>
        <time>2021-03-03T10:27:33Z</time>
      </trkpt>
      <trkpt lat="44.14645" lon="7.55144">
        <ele>2017.94</ele>
        <time>2021-03-03T10:27:34Z</time>
      </trkpt>
      <trkpt lat="44.14646" lon="7.5515">
        <ele>2016.02</ele>
        <time>2021-03-03T10:27:35Z</time>
      </trkpt>
      <trkpt lat="44.14647" lon="7.55155">
        <ele>2015.06</ele>
        <time>2021-03-03T10:27:36Z</time>
      </trkpt>
      <trkpt lat="44.14648" lon="7.55161">
        <ele>2014.1</ele>
        <time>2021-03-03T10:27:37Z</time>
      </trkpt>
      <trkpt lat="44.14648" lon="7.55165">
        <ele>2014.1</ele>
        <time>2021-03-03T10:27:38Z</time>
      </trkpt>
      <trkpt lat="44.14647" lon="7.55168">
        <ele>2014.1</ele>
        <time>2021-03-03T10:27:48Z</time>
      </trkpt>
      <trkpt lat="44.14649" lon="7.55168">
        <ele>2014.1</ele>
        <time>2021-03-03T10:27:56Z</time>
      </trkpt>
      <trkpt lat="44.1465" lon="7.55171">
        <ele>2013.14</ele>
        <time>2021-03-03T10:27:57Z</time>
      </trkpt>
      <trkpt lat="44.14654" lon="7.55212">
        <ele>2007.37</ele>
        <time>2021-03-03T10:28:09Z</time>
      </trkpt>
      <trkpt lat="44.14662" lon="7.55262">
        <ele>2000.16</ele>
        <time>2021-03-03T10:28:19Z</time>
      </trkpt>
      <trkpt lat="44.14664" lon="7.55284">
        <ele>1995.35</ele>
        <time>2021-03-03T10:28:26Z</time>
      </trkpt>
      <trkpt lat="44.14665" lon="7.55285">
        <ele>1993.91</ele>
        <time>2021-03-03T10:28:40Z</time>
      </trkpt>
      <trkpt lat="44.14665" lon="7.55287">
        <ele>1993.43</ele>
        <time>2021-03-03T10:28:41Z</time>
      </trkpt>
      <trkpt lat="44.14665" lon="7.55289">
        <ele>1993.43</ele>
        <time>2021-03-03T10:28:42Z</time>
      </trkpt>
      <trkpt lat="44.14665" lon="7.55291">
        <ele>1992.95</ele>
        <time>2021-03-03T10:28:43Z</time>
      </trkpt>
      <trkpt lat="44.14664" lon="7.55292">
        <ele>1992.95</ele>
        <time>2021-03-03T10:28:59Z</time>
      </trkpt>
      <trkpt lat="44.14665" lon="7.55295">
        <ele>1995.83</ele>
        <time>2021-03-03T10:29:22Z</time>
      </trkpt>
      <trkpt lat="44.14666" lon="7.55297">
        <ele>1995.83</ele>
        <time>2021-03-03T10:29:23Z</time>
      </trkpt>
      <trkpt lat="44.14668" lon="7.55313">
        <ele>1992.95</ele>
        <time>2021-03-03T10:29:29Z</time>
      </trkpt>
      <trkpt lat="44.1467" lon="7.55314">
        <ele>1992.47</ele>
        <time>2021-03-03T10:29:30Z</time>
      </trkpt>
      <trkpt lat="44.14674" lon="7.55308">
        <ele>1991.51</ele>
        <time>2021-03-03T10:29:33Z</time>
      </trkpt>
      <trkpt lat="44.14678" lon="7.55311">
        <ele>1990.55</ele>
        <time>2021-03-03T10:29:36Z</time>
      </trkpt>
      <trkpt lat="44.14679" lon="7.55327">
        <ele>1988.14</ele>
        <time>2021-03-03T10:29:40Z</time>
      </trkpt>
      <trkpt lat="44.14681" lon="7.55332">
        <ele>1987.18</ele>
        <time>2021-03-03T10:29:41Z</time>
      </trkpt>
      <trkpt lat="44.14682" lon="7.55338">
        <ele>1986.22</ele>
        <time>2021-03-03T10:29:42Z</time>
      </trkpt>
      <trkpt lat="44.14682" lon="7.55343">
        <ele>1985.26</ele>
        <time>2021-03-03T10:29:43Z</time>
      </trkpt>
      <trkpt lat="44.14683" lon="7.55349">
        <ele>1984.3</ele>
        <time>2021-03-03T10:29:44Z</time>
      </trkpt>
      <trkpt lat="44.14683" lon="7.55354">
        <ele>1983.82</ele>
        <time>2021-03-03T10:29:45Z</time>
      </trkpt>
      <trkpt lat="44.14683" lon="7.55359">
        <ele>1982.86</ele>
        <time>2021-03-03T10:29:46Z</time>
      </trkpt>
      <trkpt lat="44.14684" lon="7.55364">
        <ele>1982.38</ele>
        <time>2021-03-03T10:29:47Z</time>
      </trkpt>
      <trkpt lat="44.14684" lon="7.5537">
        <ele>1981.9</ele>
        <time>2021-03-03T10:29:48Z</time>
      </trkpt>
      <trkpt lat="44.14684" lon="7.55375">
        <ele>1980.93</ele>
        <time>2021-03-03T10:29:49Z</time>
      </trkpt>
      <trkpt lat="44.14685" lon="7.55383">
        <ele>1979.49</ele>
        <time>2021-03-03T10:29:51Z</time>
      </trkpt>
      <trkpt lat="44.14691" lon="7.55375">
        <ele>1977.57</ele>
        <time>2021-03-03T10:29:54Z</time>
      </trkpt>
      <trkpt lat="44.14692" lon="7.55371">
        <ele>1977.09</ele>
        <time>2021-03-03T10:29:55Z</time>
      </trkpt>
      <trkpt lat="44.14693" lon="7.55368">
        <ele>1976.13</ele>
        <time>2021-03-03T10:29:57Z</time>
      </trkpt>
      <trkpt lat="44.14696" lon="7.55375">
        <ele>1974.69</ele>
        <time>2021-03-03T10:29:59Z</time>
      </trkpt>
      <trkpt lat="44.14698" lon="7.55381">
        <ele>1973.72</ele>
        <time>2021-03-03T10:30:00Z</time>
      </trkpt>
      <trkpt lat="44.14698" lon="7.55387">
        <ele>1973.24</ele>
        <time>2021-03-03T10:30:01Z</time>
      </trkpt>
      <trkpt lat="44.14699" lon="7.55394">
        <ele>1972.28</ele>
        <time>2021-03-03T10:30:02Z</time>
      </trkpt>
      <trkpt lat="44.14704" lon="7.55444">
        <ele>1968.92</ele>
        <time>2021-03-03T10:30:12Z</time>
      </trkpt>
      <trkpt lat="44.14704" lon="7.55451">
        <ele>1967.96</ele>
        <time>2021-03-03T10:30:13Z</time>
      </trkpt>
      <trkpt lat="44.14704" lon="7.55457">
        <ele>1966.99</ele>
        <time>2021-03-03T10:30:14Z</time>
      </trkpt>
      <trkpt lat="44.14702" lon="7.55476">
        <ele>1965.07</ele>
        <time>2021-03-03T10:30:23Z</time>
      </trkpt>
      <trkpt lat="44.14703" lon="7.55477">
        <ele>1965.07</ele>
        <time>2021-03-03T10:30:24Z</time>
      </trkpt>
      <trkpt lat="44.14708" lon="7.55475">
        <ele>1963.63</ele>
        <time>2021-03-03T10:30:26Z</time>
      </trkpt>
      <trkpt lat="44.1471" lon="7.55472">
        <ele>1963.63</ele>
        <time>2021-03-03T10:30:27Z</time>
      </trkpt>
      <trkpt lat="44.14712" lon="7.55469">
        <ele>1963.15</ele>
        <time>2021-03-03T10:30:28Z</time>
      </trkpt>
      <trkpt lat="44.14714" lon="7.55465">
        <ele>1962.67</ele>
        <time>2021-03-03T10:30:29Z</time>
      </trkpt>
      <trkpt lat="44.14716" lon="7.5546">
        <ele>1961.71</ele>
        <time>2021-03-03T10:30:30Z</time>
      </trkpt>
      <trkpt lat="44.14717" lon="7.55455">
        <ele>1961.23</ele>
        <time>2021-03-03T10:30:31Z</time>
      </trkpt>
      <trkpt lat="44.14726" lon="7.55427">
        <ele>1959.78</ele>
        <time>2021-03-03T10:30:41Z</time>
      </trkpt>
      <trkpt lat="44.14735" lon="7.55449">
        <ele>1955.94</ele>
        <time>2021-03-03T10:30:48Z</time>
      </trkpt>
      <trkpt lat="44.14738" lon="7.55472">
        <ele>1950.65</ele>
        <time>2021-03-03T10:30:54Z</time>
      </trkpt>
      <trkpt lat="44.14734" lon="7.55509">
        <ele>1944.88</ele>
        <time>2021-03-03T10:31:04Z</time>
      </trkpt>
      <trkpt lat="44.14735" lon="7.5551">
        <ele>1944.4</ele>
        <time>2021-03-03T10:31:05Z</time>
      </trkpt>
      <trkpt lat="44.14735" lon="7.55512">
        <ele>1943.92</ele>
        <time>2021-03-03T10:31:06Z</time>
      </trkpt>
      <trkpt lat="44.14731" lon="7.55539">
        <ele>1940.56</ele>
        <time>2021-03-03T10:31:15Z</time>
      </trkpt>
      <trkpt lat="44.14732" lon="7.55542">
        <ele>1940.08</ele>
        <time>2021-03-03T10:31:20Z</time>
      </trkpt>
      <trkpt lat="44.14736" lon="7.55544">
        <ele>1939.6</ele>
        <time>2021-03-03T10:31:22Z</time>
      </trkpt>
      <trkpt lat="44.1474" lon="7.55543">
        <ele>1939.12</ele>
        <time>2021-03-03T10:31:23Z</time>
      </trkpt>
      <trkpt lat="44.14743" lon="7.55541">
        <ele>1938.64</ele>
        <time>2021-03-03T10:31:24Z</time>
      </trkpt>
      <trkpt lat="44.14745" lon="7.55537">
        <ele>1938.64</ele>
        <time>2021-03-03T10:31:25Z</time>
      </trkpt>
      <trkpt lat="44.14748" lon="7.55534">
        <ele>1938.16</ele>
        <time>2021-03-03T10:31:26Z</time>
      </trkpt>
      <trkpt lat="44.1475" lon="7.5553">
        <ele>1937.67</ele>
        <time>2021-03-03T10:31:27Z</time>
      </trkpt>
      <trkpt lat="44.14768" lon="7.55515">
        <ele>1935.27</ele>
        <time>2021-03-03T10:31:36Z</time>
      </trkpt>
      <trkpt lat="44.1477" lon="7.55521">
        <ele>1934.31</ele>
        <time>2021-03-03T10:31:38Z</time>
      </trkpt>
      <trkpt lat="44.14769" lon="7.55524">
        <ele>1933.83</ele>
        <time>2021-03-03T10:31:39Z</time>
      </trkpt>
      <trkpt lat="44.14768" lon="7.55527">
        <ele>1933.83</ele>
        <time>2021-03-03T10:31:40Z</time>
      </trkpt>
      <trkpt lat="44.14768" lon="7.55531">
        <ele>1933.35</ele>
        <time>2021-03-03T10:31:41Z</time>
      </trkpt>
      <trkpt lat="44.14767" lon="7.55534">
        <ele>1932.87</ele>
        <time>2021-03-03T10:31:42Z</time>
      </trkpt>
      <trkpt lat="44.14765" lon="7.55559">
        <ele>1928.54</ele>
        <time>2021-03-03T10:31:50Z</time>
      </trkpt>
      <trkpt lat="44.14763" lon="7.55566">
        <ele>1927.1</ele>
        <time>2021-03-03T10:31:57Z</time>
      </trkpt>
      <trkpt lat="44.14763" lon="7.55567">
        <ele>1927.1</ele>
        <time>2021-03-03T10:32:04Z</time>
      </trkpt>
      <trkpt lat="44.14759" lon="7.55594">
        <ele>1924.7</ele>
        <time>2021-03-03T10:32:19Z</time>
      </trkpt>
      <trkpt lat="44.14755" lon="7.55621">
        <ele>1920.37</ele>
        <time>2021-03-03T10:32:24Z</time>
      </trkpt>
      <trkpt lat="44.14754" lon="7.55627">
        <ele>1918.93</ele>
        <time>2021-03-03T10:32:25Z</time>
      </trkpt>
      <trkpt lat="44.14753" lon="7.55634">
        <ele>1917.97</ele>
        <time>2021-03-03T10:32:26Z</time>
      </trkpt>
      <trkpt lat="44.14753" lon="7.55641">
        <ele>1916.53</ele>
        <time>2021-03-03T10:32:27Z</time>
      </trkpt>
      <trkpt lat="44.14752" lon="7.55648">
        <ele>1915.56</ele>
        <time>2021-03-03T10:32:28Z</time>
      </trkpt>
      <trkpt lat="44.14751" lon="7.55655">
        <ele>1914.12</ele>
        <time>2021-03-03T10:32:29Z</time>
      </trkpt>
      <trkpt lat="44.1475" lon="7.55661">
        <ele>1913.16</ele>
        <time>2021-03-03T10:32:30Z</time>
      </trkpt>
      <trkpt lat="44.14751" lon="7.5569">
        <ele>1908.35</ele>
        <time>2021-03-03T10:32:36Z</time>
      </trkpt>
      <trkpt lat="44.14752" lon="7.55696">
        <ele>1907.39</ele>
        <time>2021-03-03T10:32:37Z</time>
      </trkpt>
      <trkpt lat="44.14754" lon="7.55702">
        <ele>1906.43</ele>
        <time>2021-03-03T10:32:38Z</time>
      </trkpt>
      <trkpt lat="44.14756" lon="7.55709">
        <ele>1905.95</ele>
        <time>2021-03-03T10:32:39Z</time>
      </trkpt>
      <trkpt lat="44.14759" lon="7.55716">
        <ele>1904.51</ele>
        <time>2021-03-03T10:32:40Z</time>
      </trkpt>
      <trkpt lat="44.14762" lon="7.55723">
        <ele>1904.03</ele>
        <time>2021-03-03T10:32:41Z</time>
      </trkpt>
      <trkpt lat="44.14768" lon="7.55736">
        <ele>1903.07</ele>
        <time>2021-03-03T10:32:43Z</time>
      </trkpt>
      <trkpt lat="44.14787" lon="7.55769">
        <ele>1901.14</ele>
        <time>2021-03-03T10:32:49Z</time>
      </trkpt>
      <trkpt lat="44.14791" lon="7.55773">
        <ele>1900.18</ele>
        <time>2021-03-03T10:32:50Z</time>
      </trkpt>
      <trkpt lat="44.14796" lon="7.55778">
        <ele>1899.7</ele>
        <time>2021-03-03T10:32:51Z</time>
      </trkpt>
      <trkpt lat="44.14801" lon="7.55782">
        <ele>1899.22</ele>
        <time>2021-03-03T10:32:52Z</time>
      </trkpt>
      <trkpt lat="44.14805" lon="7.55787">
        <ele>1898.74</ele>
        <time>2021-03-03T10:32:53Z</time>
      </trkpt>
      <trkpt lat="44.14809" lon="7.55792">
        <ele>1897.78</ele>
        <time>2021-03-03T10:32:54Z</time>
      </trkpt>
      <trkpt lat="44.14813" lon="7.55797">
        <ele>1896.82</ele>
        <time>2021-03-03T10:32:55Z</time>
      </trkpt>
      <trkpt lat="44.14817" lon="7.55801">
        <ele>1896.82</ele>
        <time>2021-03-03T10:32:56Z</time>
      </trkpt>
      <trkpt lat="44.1482" lon="7.55804">
        <ele>1896.34</ele>
        <time>2021-03-03T10:32:57Z</time>
      </trkpt>
      <trkpt lat="44.14824" lon="7.55808">
        <ele>1895.86</ele>
        <time>2021-03-03T10:32:58Z</time>
      </trkpt>
      <trkpt lat="44.14827" lon="7.55811">
        <ele>1895.86</ele>
        <time>2021-03-03T10:32:59Z</time>
      </trkpt>
      <trkpt lat="44.14841" lon="7.5582">
        <ele>1894.42</ele>
        <time>2021-03-03T10:33:03Z</time>
      </trkpt>
      <trkpt lat="44.14844" lon="7.55823">
        <ele>1893.93</ele>
        <time>2021-03-03T10:33:04Z</time>
      </trkpt>
      <trkpt lat="44.1488" lon="7.55852">
        <ele>1892.01</ele>
        <time>2021-03-03T10:33:17Z</time>
      </trkpt>
      <trkpt lat="44.14893" lon="7.5586">
        <ele>1892.49</ele>
        <time>2021-03-03T10:33:29Z</time>
      </trkpt>
      <trkpt lat="44.14922" lon="7.55878">
        <ele>1891.05</ele>
        <time>2021-03-03T10:33:43Z</time>
      </trkpt>
      <trkpt lat="44.14959" lon="7.55905">
        <ele>1888.17</ele>
        <time>2021-03-03T10:33:57Z</time>
      </trkpt>
      <trkpt lat="44.14968" lon="7.5593">
        <ele>1886.24</ele>
        <time>2021-03-03T10:34:10Z</time>
      </trkpt>
      <trkpt lat="44.14969" lon="7.55936">
        <ele>1885.28</ele>
        <time>2021-03-03T10:34:25Z</time>
      </trkpt>
      <trkpt lat="44.1497" lon="7.55936">
        <ele>1885.28</ele>
        <time>2021-03-03T10:34:39Z</time>
      </trkpt>
      <trkpt lat="44.14972" lon="7.55938">
        <ele>1885.28</ele>
        <time>2021-03-03T10:34:40Z</time>
      </trkpt>
      <trkpt lat="44.14981" lon="7.55928">
        <ele>1882.88</ele>
        <time>2021-03-03T10:34:44Z</time>
      </trkpt>
      <trkpt lat="44.14983" lon="7.55916">
        <ele>1881.92</ele>
        <time>2021-03-03T10:34:47Z</time>
      </trkpt>
      <trkpt lat="44.14997" lon="7.55915">
        <ele>1877.59</ele>
        <time>2021-03-03T10:34:53Z</time>
      </trkpt>
      <trkpt lat="44.15008" lon="7.55908">
        <ele>1872.3</ele>
        <time>2021-03-03T10:35:00Z</time>
      </trkpt>
      <trkpt lat="44.15009" lon="7.55912">
        <ele>1871.34</ele>
        <time>2021-03-03T10:35:01Z</time>
      </trkpt>
      <trkpt lat="44.15026" lon="7.55906">
        <ele>1865.58</ele>
        <time>2021-03-03T10:35:08Z</time>
      </trkpt>
      <trkpt lat="44.1504" lon="7.55917">
        <ele>1859.33</ele>
        <time>2021-03-03T10:35:13Z</time>
      </trkpt>
      <trkpt lat="44.15047" lon="7.55906">
        <ele>1857.4</ele>
        <time>2021-03-03T10:35:15Z</time>
      </trkpt>
      <trkpt lat="44.15058" lon="7.55891">
        <ele>1849.71</ele>
        <time>2021-03-03T10:35:23Z</time>
      </trkpt>
      <trkpt lat="44.15075" lon="7.55891">
        <ele>1846.35</ele>
        <time>2021-03-03T10:35:28Z</time>
      </trkpt>
      <trkpt lat="44.15083" lon="7.55883">
        <ele>1842.5</ele>
        <time>2021-03-03T10:35:34Z</time>
      </trkpt>
      <trkpt lat="44.15082" lon="7.55887">
        <ele>1838.66</ele>
        <time>2021-03-03T10:35:48Z</time>
      </trkpt>
      <trkpt lat="44.15081" lon="7.55887">
        <ele>1836.74</ele>
        <time>2021-03-03T10:35:52Z</time>
      </trkpt>
      <trkpt lat="44.15089" lon="7.55866">
        <ele>1836.74</ele>
        <time>2021-03-03T10:36:00Z</time>
      </trkpt>
      <trkpt lat="44.15086" lon="7.55834">
        <ele>1838.66</ele>
        <time>2021-03-03T10:36:14Z</time>
      </trkpt>
      <trkpt lat="44.15085" lon="7.55835">
        <ele>1838.66</ele>
        <time>2021-03-03T10:36:26Z</time>
      </trkpt>
      <trkpt lat="44.15086" lon="7.55835">
        <ele>1837.7</ele>
        <time>2021-03-03T10:36:33Z</time>
      </trkpt>
      <trkpt lat="44.15104" lon="7.55846">
        <ele>1832.41</ele>
        <time>2021-03-03T10:36:41Z</time>
      </trkpt>
      <trkpt lat="44.15111" lon="7.5588">
        <ele>1827.6</ele>
        <time>2021-03-03T10:36:52Z</time>
      </trkpt>
      <trkpt lat="44.15112" lon="7.55891">
        <ele>1826.16</ele>
        <time>2021-03-03T10:37:01Z</time>
      </trkpt>
      <trkpt lat="44.15111" lon="7.55931">
        <ele>1822.32</ele>
        <time>2021-03-03T10:37:10Z</time>
      </trkpt>
      <trkpt lat="44.15113" lon="7.55947">
        <ele>1821.35</ele>
        <time>2021-03-03T10:37:13Z</time>
      </trkpt>
      <trkpt lat="44.15109" lon="7.56002">
        <ele>1818.47</ele>
        <time>2021-03-03T10:37:25Z</time>
      </trkpt>
      <trkpt lat="44.15108" lon="7.56005">
        <ele>1819.43</ele>
        <time>2021-03-03T10:37:40Z</time>
      </trkpt>
      <trkpt lat="44.15108" lon="7.56006">
        <ele>1817.99</ele>
        <time>2021-03-03T10:37:44Z</time>
      </trkpt>
      <trkpt lat="44.15108" lon="7.56008">
        <ele>1817.99</ele>
        <time>2021-03-03T10:37:45Z</time>
      </trkpt>
      <trkpt lat="44.15108" lon="7.56012">
        <ele>1817.51</ele>
        <time>2021-03-03T10:37:46Z</time>
      </trkpt>
      <trkpt lat="44.151" lon="7.56057">
        <ele>1814.63</ele>
        <time>2021-03-03T10:37:59Z</time>
      </trkpt>
      <trkpt lat="44.15099" lon="7.56062">
        <ele>1814.15</ele>
        <time>2021-03-03T10:38:02Z</time>
      </trkpt>
      <trkpt lat="44.1511" lon="7.56056">
        <ele>1811.26</ele>
        <time>2021-03-03T10:38:08Z</time>
      </trkpt>
      <trkpt lat="44.15115" lon="7.56051">
        <ele>1810.3</ele>
        <time>2021-03-03T10:38:11Z</time>
      </trkpt>
      <trkpt lat="44.15118" lon="7.56058">
        <ele>1808.86</ele>
        <time>2021-03-03T10:38:14Z</time>
      </trkpt>
      <trkpt lat="44.15117" lon="7.56094">
        <ele>1804.53</ele>
        <time>2021-03-03T10:38:23Z</time>
      </trkpt>
      <trkpt lat="44.1512" lon="7.56095">
        <ele>1804.05</ele>
        <time>2021-03-03T10:38:24Z</time>
      </trkpt>
      <trkpt lat="44.15125" lon="7.56086">
        <ele>1803.09</ele>
        <time>2021-03-03T10:38:26Z</time>
      </trkpt>
      <trkpt lat="44.15128" lon="7.56078">
        <ele>1802.13</ele>
        <time>2021-03-03T10:38:28Z</time>
      </trkpt>
      <trkpt lat="44.15129" lon="7.56075">
        <ele>1801.65</ele>
        <time>2021-03-03T10:38:29Z</time>
      </trkpt>
      <trkpt lat="44.1513" lon="7.56073">
        <ele>1801.65</ele>
        <time>2021-03-03T10:38:30Z</time>
      </trkpt>
      <trkpt lat="44.15131" lon="7.56072">
        <ele>1801.17</ele>
        <time>2021-03-03T10:38:31Z</time>
      </trkpt>
      <trkpt lat="44.15132" lon="7.56073">
        <ele>1800.69</ele>
        <time>2021-03-03T10:38:32Z</time>
      </trkpt>
      <trkpt lat="44.15133" lon="7.56078">
        <ele>1800.21</ele>
        <time>2021-03-03T10:38:33Z</time>
      </trkpt>
      <trkpt lat="44.15132" lon="7.56081">
        <ele>1799.73</ele>
        <time>2021-03-03T10:38:34Z</time>
      </trkpt>
      <trkpt lat="44.15132" lon="7.56084">
        <ele>1799.24</ele>
        <time>2021-03-03T10:38:35Z</time>
      </trkpt>
      <trkpt lat="44.15131" lon="7.56087">
        <ele>1798.28</ele>
        <time>2021-03-03T10:38:41Z</time>
      </trkpt>
      <trkpt lat="44.15132" lon="7.56089">
        <ele>1797.8</ele>
        <time>2021-03-03T10:38:42Z</time>
      </trkpt>
      <trkpt lat="44.15132" lon="7.56091">
        <ele>1797.8</ele>
        <time>2021-03-03T10:38:43Z</time>
      </trkpt>
      <trkpt lat="44.15133" lon="7.56095">
        <ele>1797.32</ele>
        <time>2021-03-03T10:38:44Z</time>
      </trkpt>
      <trkpt lat="44.15134" lon="7.56125">
        <ele>1794.92</ele>
        <time>2021-03-03T10:38:50Z</time>
      </trkpt>
      <trkpt lat="44.15141" lon="7.56142">
        <ele>1792.03</ele>
        <time>2021-03-03T10:39:00Z</time>
      </trkpt>
      <trkpt lat="44.15141" lon="7.56147">
        <ele>1791.55</ele>
        <time>2021-03-03T10:39:03Z</time>
      </trkpt>
      <trkpt lat="44.15153" lon="7.56174">
        <ele>1789.63</ele>
        <time>2021-03-03T10:39:10Z</time>
      </trkpt>
      <trkpt lat="44.15157" lon="7.56172">
        <ele>1790.59</ele>
        <time>2021-03-03T10:39:21Z</time>
      </trkpt>
      <trkpt lat="44.15158" lon="7.56171">
        <ele>1790.59</ele>
        <time>2021-03-03T10:39:33Z</time>
      </trkpt>
      <trkpt lat="44.15169" lon="7.56171">
        <ele>1789.63</ele>
        <time>2021-03-03T10:39:41Z</time>
      </trkpt>
      <trkpt lat="44.15177" lon="7.56177">
        <ele>1787.71</ele>
        <time>2021-03-03T10:39:46Z</time>
      </trkpt>
      <trkpt lat="44.15181" lon="7.56183">
        <ele>1787.23</ele>
        <time>2021-03-03T10:39:48Z</time>
      </trkpt>
      <trkpt lat="44.15193" lon="7.562">
        <ele>1784.82</ele>
        <time>2021-03-03T10:39:53Z</time>
      </trkpt>
      <trkpt lat="44.15219" lon="7.56216">
        <ele>1781.94</ele>
        <time>2021-03-03T10:40:03Z</time>
      </trkpt>
      <trkpt lat="44.15227" lon="7.56225">
        <ele>1780.02</ele>
        <time>2021-03-03T10:40:14Z</time>
      </trkpt>
      <trkpt lat="44.15226" lon="7.56225">
        <ele>1779.06</ele>
        <time>2021-03-03T10:40:29Z</time>
      </trkpt>
      <trkpt lat="44.15227" lon="7.56223">
        <ele>1779.06</ele>
        <time>2021-03-03T10:40:52Z</time>
      </trkpt>
      <trkpt lat="44.15233" lon="7.56234">
        <ele>1777.61</ele>
        <time>2021-03-03T10:41:05Z</time>
      </trkpt>
      <trkpt lat="44.15236" lon="7.56241">
        <ele>1777.13</ele>
        <time>2021-03-03T10:41:09Z</time>
      </trkpt>
      <trkpt lat="44.15239" lon="7.56248">
        <ele>1776.17</ele>
        <time>2021-03-03T10:41:12Z</time>
      </trkpt>
      <trkpt lat="44.15245" lon="7.56233">
        <ele>1773.29</ele>
        <time>2021-03-03T10:41:16Z</time>
      </trkpt>
      <trkpt lat="44.15247" lon="7.56207">
        <ele>1770.41</ele>
        <time>2021-03-03T10:41:25Z</time>
      </trkpt>
      <trkpt lat="44.15263" lon="7.56217">
        <ele>1769.92</ele>
        <time>2021-03-03T10:41:33Z</time>
      </trkpt>
      <trkpt lat="44.15284" lon="7.56255">
        <ele>1768</ele>
        <time>2021-03-03T10:41:44Z</time>
      </trkpt>
      <trkpt lat="44.15295" lon="7.56271">
        <ele>1764.16</ele>
        <time>2021-03-03T10:41:53Z</time>
      </trkpt>
      <trkpt lat="44.15302" lon="7.56274">
        <ele>1762.23</ele>
        <time>2021-03-03T10:42:01Z</time>
      </trkpt>
      <trkpt lat="44.15302" lon="7.56273">
        <ele>1761.75</ele>
        <time>2021-03-03T10:42:03Z</time>
      </trkpt>
      <trkpt lat="44.15302" lon="7.56245">
        <ele>1755.99</ele>
        <time>2021-03-03T10:42:10Z</time>
      </trkpt>
      <trkpt lat="44.15303" lon="7.56249">
        <ele>1749.74</ele>
        <time>2021-03-03T10:42:24Z</time>
      </trkpt>
      <trkpt lat="44.15306" lon="7.56252">
        <ele>1751.18</ele>
        <time>2021-03-03T10:42:39Z</time>
      </trkpt>
      <trkpt lat="44.15308" lon="7.56249">
        <ele>1754.06</ele>
        <time>2021-03-03T10:43:03Z</time>
      </trkpt>
      <trkpt lat="44.15307" lon="7.56249">
        <ele>1754.06</ele>
        <time>2021-03-03T10:43:07Z</time>
      </trkpt>
      <trkpt lat="44.15304" lon="7.56246">
        <ele>1750.7</ele>
        <time>2021-03-03T10:43:21Z</time>
      </trkpt>
      <trkpt lat="44.15304" lon="7.56245">
        <ele>1749.74</ele>
        <time>2021-03-03T10:43:25Z</time>
      </trkpt>
      <trkpt lat="44.15303" lon="7.56235">
        <ele>1749.26</ele>
        <time>2021-03-03T10:43:30Z</time>
      </trkpt>
      <trkpt lat="44.15306" lon="7.5623">
        <ele>1748.78</ele>
        <time>2021-03-03T10:43:32Z</time>
      </trkpt>
      <trkpt lat="44.15308" lon="7.5622">
        <ele>1746.85</ele>
        <time>2021-03-03T10:43:38Z</time>
      </trkpt>
      <trkpt lat="44.15309" lon="7.56219">
        <ele>1746.37</ele>
        <time>2021-03-03T10:43:41Z</time>
      </trkpt>
      <trkpt lat="44.15312" lon="7.56219">
        <ele>1744.45</ele>
        <time>2021-03-03T10:43:51Z</time>
      </trkpt>
      <trkpt lat="44.15314" lon="7.56211">
        <ele>1743.49</ele>
        <time>2021-03-03T10:43:54Z</time>
      </trkpt>
      <trkpt lat="44.15315" lon="7.56209">
        <ele>1742.05</ele>
        <time>2021-03-03T10:43:56Z</time>
      </trkpt>
      <trkpt lat="44.15324" lon="7.56187">
        <ele>1736.76</ele>
        <time>2021-03-03T10:44:03Z</time>
      </trkpt>
      <trkpt lat="44.15335" lon="7.56172">
        <ele>1730.51</ele>
        <time>2021-03-03T10:44:09Z</time>
      </trkpt>
      <trkpt lat="44.1534" lon="7.56153">
        <ele>1725.7</ele>
        <time>2021-03-03T10:44:16Z</time>
      </trkpt>
      <trkpt lat="44.15349" lon="7.56137">
        <ele>1719.94</ele>
        <time>2021-03-03T10:44:24Z</time>
      </trkpt>
      <trkpt lat="44.15356" lon="7.56128">
        <ele>1715.13</ele>
        <time>2021-03-03T10:44:31Z</time>
      </trkpt>
      <trkpt lat="44.15356" lon="7.56128">
        <ele>1713.69</ele>
        <time>2021-03-03T10:44:34Z</time>
      </trkpt>
      <trkpt lat="44.15357" lon="7.56121">
        <ele>1711.76</ele>
        <time>2021-03-03T10:44:37Z</time>
      </trkpt>
      <trkpt lat="44.15364" lon="7.56116">
        <ele>1709.36</ele>
        <time>2021-03-03T10:44:44Z</time>
      </trkpt>
      <trkpt lat="44.15368" lon="7.56101">
        <ele>1704.55</ele>
        <time>2021-03-03T10:44:51Z</time>
      </trkpt>
      <trkpt lat="44.15375" lon="7.56086">
        <ele>1701.67</ele>
        <time>2021-03-03T10:44:57Z</time>
      </trkpt>
      <trkpt lat="44.15377" lon="7.56091">
        <ele>1698.79</ele>
        <time>2021-03-03T10:45:09Z</time>
      </trkpt>
      <trkpt lat="44.15378" lon="7.56081">
        <ele>1698.31</ele>
        <time>2021-03-03T10:45:12Z</time>
      </trkpt>
      <trkpt lat="44.15383" lon="7.56069">
        <ele>1695.42</ele>
        <time>2021-03-03T10:45:18Z</time>
      </trkpt>
      <trkpt lat="44.15391" lon="7.56053">
        <ele>1693.02</ele>
        <time>2021-03-03T10:45:24Z</time>
      </trkpt>
      <trkpt lat="44.15399" lon="7.56041">
        <ele>1691.1</ele>
        <time>2021-03-03T10:45:27Z</time>
      </trkpt>
      <trkpt lat="44.15403" lon="7.56031">
        <ele>1688.21</ele>
        <time>2021-03-03T10:45:30Z</time>
      </trkpt>
      <trkpt lat="44.15416" lon="7.56004">
        <ele>1682.44</ele>
        <time>2021-03-03T10:45:37Z</time>
      </trkpt>
      <trkpt lat="44.15426" lon="7.5598">
        <ele>1678.12</ele>
        <time>2021-03-03T10:45:43Z</time>
      </trkpt>
      <trkpt lat="44.15431" lon="7.55955">
        <ele>1672.35</ele>
        <time>2021-03-03T10:45:50Z</time>
      </trkpt>
      <trkpt lat="44.15433" lon="7.5595">
        <ele>1671.39</ele>
        <time>2021-03-03T10:45:52Z</time>
      </trkpt>
      <trkpt lat="44.15435" lon="7.55938">
        <ele>1670.91</ele>
        <time>2021-03-03T10:45:55Z</time>
      </trkpt>
      <trkpt lat="44.1544" lon="7.55912">
        <ele>1667.06</ele>
        <time>2021-03-03T10:46:01Z</time>
      </trkpt>
      <trkpt lat="44.1544" lon="7.55911">
        <ele>1666.58</ele>
        <time>2021-03-03T10:46:14Z</time>
      </trkpt>
      <trkpt lat="44.15442" lon="7.55892">
        <ele>1664.66</ele>
        <time>2021-03-03T10:46:20Z</time>
      </trkpt>
      <trkpt lat="44.15445" lon="7.55893">
        <ele>1664.18</ele>
        <time>2021-03-03T10:46:38Z</time>
      </trkpt>
      <trkpt lat="44.15448" lon="7.55879">
        <ele>1663.22</ele>
        <time>2021-03-03T10:46:46Z</time>
      </trkpt>
      <trkpt lat="44.15449" lon="7.55878">
        <ele>1662.74</ele>
        <time>2021-03-03T10:46:47Z</time>
      </trkpt>
      <trkpt lat="44.15455" lon="7.55854">
        <ele>1659.37</ele>
        <time>2021-03-03T10:46:54Z</time>
      </trkpt>
      <trkpt lat="44.15457" lon="7.55843">
        <ele>1656.01</ele>
        <time>2021-03-03T10:47:01Z</time>
      </trkpt>
      <trkpt lat="44.15461" lon="7.55815">
        <ele>1651.68</ele>
        <time>2021-03-03T10:47:07Z</time>
      </trkpt>
      <trkpt lat="44.15466" lon="7.55766">
        <ele>1646.88</ele>
        <time>2021-03-03T10:47:13Z</time>
      </trkpt>
      <trkpt lat="44.15468" lon="7.55747">
        <ele>1644.47</ele>
        <time>2021-03-03T10:47:16Z</time>
      </trkpt>
      <trkpt lat="44.15469" lon="7.55745">
        <ele>1643.51</ele>
        <time>2021-03-03T10:47:17Z</time>
      </trkpt>
      <trkpt lat="44.1547" lon="7.55751">
        <ele>1637.74</ele>
        <time>2021-03-03T10:47:30Z</time>
      </trkpt>
      <trkpt lat="44.15471" lon="7.55749">
        <ele>1637.26</ele>
        <time>2021-03-03T10:47:34Z</time>
      </trkpt>
      <trkpt lat="44.15473" lon="7.55747">
        <ele>1637.26</ele>
        <time>2021-03-03T10:47:35Z</time>
      </trkpt>
      <trkpt lat="44.15474" lon="7.55743">
        <ele>1636.3</ele>
        <time>2021-03-03T10:47:36Z</time>
      </trkpt>
      <trkpt lat="44.15475" lon="7.55737">
        <ele>1635.82</ele>
        <time>2021-03-03T10:47:37Z</time>
      </trkpt>
      <trkpt lat="44.15477" lon="7.55732">
        <ele>1635.34</ele>
        <time>2021-03-03T10:47:38Z</time>
      </trkpt>
      <trkpt lat="44.15481" lon="7.55727">
        <ele>1634.86</ele>
        <time>2021-03-03T10:47:39Z</time>
      </trkpt>
      <trkpt lat="44.15485" lon="7.55722">
        <ele>1634.38</ele>
        <time>2021-03-03T10:47:40Z</time>
      </trkpt>
      <trkpt lat="44.15489" lon="7.55717">
        <ele>1633.42</ele>
        <time>2021-03-03T10:47:41Z</time>
      </trkpt>
      <trkpt lat="44.15493" lon="7.55713">
        <ele>1632.94</ele>
        <time>2021-03-03T10:47:42Z</time>
      </trkpt>
      <trkpt lat="44.15498" lon="7.55711">
        <ele>1632.46</ele>
        <time>2021-03-03T10:47:43Z</time>
      </trkpt>
      <trkpt lat="44.15503" lon="7.55708">
        <ele>1631.98</ele>
        <time>2021-03-03T10:47:44Z</time>
      </trkpt>
      <trkpt lat="44.15508" lon="7.55705">
        <ele>1631.49</ele>
        <time>2021-03-03T10:47:45Z</time>
      </trkpt>
      <trkpt lat="44.15513" lon="7.55704">
        <ele>1631.01</ele>
        <time>2021-03-03T10:47:46Z</time>
      </trkpt>
      <trkpt lat="44.15518" lon="7.55701">
        <ele>1630.53</ele>
        <time>2021-03-03T10:47:47Z</time>
      </trkpt>
      <trkpt lat="44.15523" lon="7.55698">
        <ele>1630.05</ele>
        <time>2021-03-03T10:47:48Z</time>
      </trkpt>
      <trkpt lat="44.15528" lon="7.55696">
        <ele>1629.57</ele>
        <time>2021-03-03T10:47:49Z</time>
      </trkpt>
      <trkpt lat="44.15532" lon="7.55693">
        <ele>1629.57</ele>
        <time>2021-03-03T10:47:50Z</time>
      </trkpt>
      <trkpt lat="44.15537" lon="7.55689">
        <ele>1629.09</ele>
        <time>2021-03-03T10:47:51Z</time>
      </trkpt>
      <trkpt lat="44.15542" lon="7.55686">
        <ele>1628.13</ele>
        <time>2021-03-03T10:47:52Z</time>
      </trkpt>
      <trkpt lat="44.15546" lon="7.55682">
        <ele>1627.65</ele>
        <time>2021-03-03T10:47:53Z</time>
      </trkpt>
      <trkpt lat="44.15551" lon="7.55677">
        <ele>1627.17</ele>
        <time>2021-03-03T10:47:54Z</time>
      </trkpt>
      <trkpt lat="44.15556" lon="7.55672">
        <ele>1626.69</ele>
        <time>2021-03-03T10:47:55Z</time>
      </trkpt>
      <trkpt lat="44.1556" lon="7.55667">
        <ele>1625.73</ele>
        <time>2021-03-03T10:47:56Z</time>
      </trkpt>
      <trkpt lat="44.15564" lon="7.55663">
        <ele>1625.25</ele>
        <time>2021-03-03T10:47:57Z</time>
      </trkpt>
      <trkpt lat="44.15568" lon="7.55659">
        <ele>1624.77</ele>
        <time>2021-03-03T10:47:58Z</time>
      </trkpt>
      <trkpt lat="44.15571" lon="7.55654">
        <ele>1624.28</ele>
        <time>2021-03-03T10:47:59Z</time>
      </trkpt>
      <trkpt lat="44.15575" lon="7.55652">
        <ele>1623.8</ele>
        <time>2021-03-03T10:48:00Z</time>
      </trkpt>
      <trkpt lat="44.15579" lon="7.55648">
        <ele>1623.32</ele>
        <time>2021-03-03T10:48:01Z</time>
      </trkpt>
      <trkpt lat="44.15583" lon="7.55643">
        <ele>1622.84</ele>
        <time>2021-03-03T10:48:02Z</time>
      </trkpt>
      <trkpt lat="44.15586" lon="7.55639">
        <ele>1622.36</ele>
        <time>2021-03-03T10:48:03Z</time>
      </trkpt>
      <trkpt lat="44.15591" lon="7.55636">
        <ele>1621.88</ele>
        <time>2021-03-03T10:48:04Z</time>
      </trkpt>
      <trkpt lat="44.15595" lon="7.55632">
        <ele>1620.92</ele>
        <time>2021-03-03T10:48:05Z</time>
      </trkpt>
      <trkpt lat="44.15599" lon="7.55628">
        <ele>1619.96</ele>
        <time>2021-03-03T10:48:06Z</time>
      </trkpt>
      <trkpt lat="44.15603" lon="7.55624">
        <ele>1619.48</ele>
        <time>2021-03-03T10:48:07Z</time>
      </trkpt>
      <trkpt lat="44.15606" lon="7.5562">
        <ele>1618.52</ele>
        <time>2021-03-03T10:48:08Z</time>
      </trkpt>
      <trkpt lat="44.1561" lon="7.55616">
        <ele>1617.56</ele>
        <time>2021-03-03T10:48:09Z</time>
      </trkpt>
      <trkpt lat="44.15614" lon="7.55613">
        <ele>1617.07</ele>
        <time>2021-03-03T10:48:10Z</time>
      </trkpt>
      <trkpt lat="44.15617" lon="7.55609">
        <ele>1616.11</ele>
        <time>2021-03-03T10:48:11Z</time>
      </trkpt>
      <trkpt lat="44.1562" lon="7.55605">
        <ele>1615.63</ele>
        <time>2021-03-03T10:48:12Z</time>
      </trkpt>
      <trkpt lat="44.15625" lon="7.55602">
        <ele>1614.67</ele>
        <time>2021-03-03T10:48:13Z</time>
      </trkpt>
      <trkpt lat="44.15629" lon="7.55597">
        <ele>1613.71</ele>
        <time>2021-03-03T10:48:14Z</time>
      </trkpt>
      <trkpt lat="44.15632" lon="7.55592">
        <ele>1612.75</ele>
        <time>2021-03-03T10:48:15Z</time>
      </trkpt>
      <trkpt lat="44.15637" lon="7.55589">
        <ele>1611.79</ele>
        <time>2021-03-03T10:48:16Z</time>
      </trkpt>
      <trkpt lat="44.15642" lon="7.55583">
        <ele>1610.83</ele>
        <time>2021-03-03T10:48:17Z</time>
      </trkpt>
      <trkpt lat="44.15645" lon="7.55576">
        <ele>1609.86</ele>
        <time>2021-03-03T10:48:18Z</time>
      </trkpt>
      <trkpt lat="44.15647" lon="7.55568">
        <ele>1608.9</ele>
        <time>2021-03-03T10:48:19Z</time>
      </trkpt>
      <trkpt lat="44.15658" lon="7.55549">
        <ele>1606.5</ele>
        <time>2021-03-03T10:48:22Z</time>
      </trkpt>
      <trkpt lat="44.15694" lon="7.5551">
        <ele>1600.25</ele>
        <time>2021-03-03T10:48:30Z</time>
      </trkpt>
      <trkpt lat="44.15698" lon="7.55504">
        <ele>1599.29</ele>
        <time>2021-03-03T10:48:31Z</time>
      </trkpt>
      <trkpt lat="44.15721" lon="7.55481">
        <ele>1597.37</ele>
        <time>2021-03-03T10:48:36Z</time>
      </trkpt>
      <trkpt lat="44.15758" lon="7.55451">
        <ele>1593.04</ele>
        <time>2021-03-03T10:48:45Z</time>
      </trkpt>
      <trkpt lat="44.15771" lon="7.55433">
        <ele>1590.64</ele>
        <time>2021-03-03T10:48:49Z</time>
      </trkpt>
      <trkpt lat="44.15778" lon="7.55412">
        <ele>1587.75</ele>
        <time>2021-03-03T10:48:53Z</time>
      </trkpt>
      <trkpt lat="44.15778" lon="7.55408">
        <ele>1587.27</ele>
        <time>2021-03-03T10:48:54Z</time>
      </trkpt>
      <trkpt lat="44.15779" lon="7.55404">
        <ele>1586.79</ele>
        <time>2021-03-03T10:48:55Z</time>
      </trkpt>
      <trkpt lat="44.1578" lon="7.55399">
        <ele>1586.31</ele>
        <time>2021-03-03T10:48:56Z</time>
      </trkpt>
      <trkpt lat="44.15777" lon="7.5538">
        <ele>1581.51</ele>
        <time>2021-03-03T10:49:02Z</time>
      </trkpt>
      <trkpt lat="44.15778" lon="7.55384">
        <ele>1577.66</ele>
        <time>2021-03-03T10:49:21Z</time>
      </trkpt>
      <trkpt lat="44.1578" lon="7.55385">
        <ele>1578.62</ele>
        <time>2021-03-03T10:49:40Z</time>
      </trkpt>
      <trkpt lat="44.15779" lon="7.55386">
        <ele>1578.14</ele>
        <time>2021-03-03T10:50:02Z</time>
      </trkpt>
      <trkpt lat="44.15777" lon="7.55384">
        <ele>1576.7</ele>
        <time>2021-03-03T10:50:18Z</time>
      </trkpt>
      <trkpt lat="44.15779" lon="7.5538">
        <ele>1576.7</ele>
        <time>2021-03-03T10:50:27Z</time>
      </trkpt>
      <trkpt lat="44.15785" lon="7.55361">
        <ele>1576.22</ele>
        <time>2021-03-03T10:50:35Z</time>
      </trkpt>
      <trkpt lat="44.15796" lon="7.55345">
        <ele>1574.3</ele>
        <time>2021-03-03T10:50:40Z</time>
      </trkpt>
      <trkpt lat="44.15801" lon="7.55347">
        <ele>1573.33</ele>
        <time>2021-03-03T10:50:42Z</time>
      </trkpt>
      <trkpt lat="44.15814" lon="7.55358">
        <ele>1571.89</ele>
        <time>2021-03-03T10:50:46Z</time>
      </trkpt>
      <trkpt lat="44.15836" lon="7.5535">
        <ele>1568.53</ele>
        <time>2021-03-03T10:50:51Z</time>
      </trkpt>
      <trkpt lat="44.15859" lon="7.55334">
        <ele>1566.12</ele>
        <time>2021-03-03T10:50:57Z</time>
      </trkpt>
      <trkpt lat="44.15867" lon="7.55331">
        <ele>1565.64</ele>
        <time>2021-03-03T10:50:59Z</time>
      </trkpt>
      <trkpt lat="44.15902" lon="7.5531">
        <ele>1561.32</ele>
        <time>2021-03-03T10:51:07Z</time>
      </trkpt>
      <trkpt lat="44.15927" lon="7.55295">
        <ele>1557.47</ele>
        <time>2021-03-03T10:51:13Z</time>
      </trkpt>
      <trkpt lat="44.1596" lon="7.5527">
        <ele>1551.22</ele>
        <time>2021-03-03T10:51:21Z</time>
      </trkpt>
      <trkpt lat="44.15965" lon="7.5526">
        <ele>1548.34</ele>
        <time>2021-03-03T10:51:26Z</time>
      </trkpt>
      <trkpt lat="44.15965" lon="7.55268">
        <ele>1541.13</ele>
        <time>2021-03-03T10:51:42Z</time>
      </trkpt>
      <trkpt lat="44.15966" lon="7.55268">
        <ele>1541.61</ele>
        <time>2021-03-03T10:51:44Z</time>
      </trkpt>
      <trkpt lat="44.15979" lon="7.55248">
        <ele>1540.17</ele>
        <time>2021-03-03T10:51:51Z</time>
      </trkpt>
      <trkpt lat="44.15995" lon="7.55224">
        <ele>1536.32</ele>
        <time>2021-03-03T10:51:56Z</time>
      </trkpt>
      <trkpt lat="44.16015" lon="7.5521">
        <ele>1530.56</ele>
        <time>2021-03-03T10:52:01Z</time>
      </trkpt>
      <trkpt lat="44.16044" lon="7.55188">
        <ele>1521.9</ele>
        <time>2021-03-03T10:52:08Z</time>
      </trkpt>
      <trkpt lat="44.16072" lon="7.55167">
        <ele>1515.66</ele>
        <time>2021-03-03T10:52:15Z</time>
      </trkpt>
      <trkpt lat="44.16099" lon="7.55147">
        <ele>1510.85</ele>
        <time>2021-03-03T10:52:21Z</time>
      </trkpt>
      <trkpt lat="44.16114" lon="7.55128">
        <ele>1508.93</ele>
        <time>2021-03-03T10:52:29Z</time>
      </trkpt>
      <trkpt lat="44.16115" lon="7.55127">
        <ele>1508.93</ele>
        <time>2021-03-03T10:52:30Z</time>
      </trkpt>
      <trkpt lat="44.16117" lon="7.55127">
        <ele>1508.45</ele>
        <time>2021-03-03T10:52:31Z</time>
      </trkpt>
      <trkpt lat="44.16119" lon="7.55126">
        <ele>1508.45</ele>
        <time>2021-03-03T10:52:32Z</time>
      </trkpt>
      <trkpt lat="44.16121" lon="7.55126">
        <ele>1508.45</ele>
        <time>2021-03-03T10:52:33Z</time>
      </trkpt>
      <trkpt lat="44.16123" lon="7.55126">
        <ele>1507.97</ele>
        <time>2021-03-03T10:52:34Z</time>
      </trkpt>
      <trkpt lat="44.16125" lon="7.55126">
        <ele>1507.97</ele>
        <time>2021-03-03T10:52:35Z</time>
      </trkpt>
      <trkpt lat="44.16127" lon="7.55127">
        <ele>1507.48</ele>
        <time>2021-03-03T10:52:36Z</time>
      </trkpt>
      <trkpt lat="44.16129" lon="7.55129">
        <ele>1507.48</ele>
        <time>2021-03-03T10:52:37Z</time>
      </trkpt>
      <trkpt lat="44.16131" lon="7.5513">
        <ele>1507</ele>
        <time>2021-03-03T10:52:38Z</time>
      </trkpt>
      <trkpt lat="44.16139" lon="7.55131">
        <ele>1505.08</ele>
        <time>2021-03-03T10:52:41Z</time>
      </trkpt>
      <trkpt lat="44.16141" lon="7.55129">
        <ele>1505.08</ele>
        <time>2021-03-03T10:52:42Z</time>
      </trkpt>
      <trkpt lat="44.16143" lon="7.55128">
        <ele>1505.08</ele>
        <time>2021-03-03T10:52:43Z</time>
      </trkpt>
      <trkpt lat="44.16145" lon="7.55128">
        <ele>1504.6</ele>
        <time>2021-03-03T10:52:44Z</time>
      </trkpt>
      <trkpt lat="44.16147" lon="7.55128">
        <ele>1504.6</ele>
        <time>2021-03-03T10:52:45Z</time>
      </trkpt>
      <trkpt lat="44.16186" lon="7.55114">
        <ele>1502.68</ele>
        <time>2021-03-03T10:52:59Z</time>
      </trkpt>
      <trkpt lat="44.16194" lon="7.55115">
        <ele>1502.2</ele>
        <time>2021-03-03T10:53:01Z</time>
      </trkpt>
      <trkpt lat="44.16198" lon="7.55113">
        <ele>1501.72</ele>
        <time>2021-03-03T10:53:02Z</time>
      </trkpt>
      <trkpt lat="44.16206" lon="7.55106">
        <ele>1500.76</ele>
        <time>2021-03-03T10:53:04Z</time>
      </trkpt>
      <trkpt lat="44.1621" lon="7.55105">
        <ele>1500.27</ele>
        <time>2021-03-03T10:53:05Z</time>
      </trkpt>
      <trkpt lat="44.16214" lon="7.55102">
        <ele>1499.79</ele>
        <time>2021-03-03T10:53:06Z</time>
      </trkpt>
      <trkpt lat="44.16217" lon="7.55097">
        <ele>1498.83</ele>
        <time>2021-03-03T10:53:07Z</time>
      </trkpt>
      <trkpt lat="44.16221" lon="7.55093">
        <ele>1498.35</ele>
        <time>2021-03-03T10:53:08Z</time>
      </trkpt>
      <trkpt lat="44.16224" lon="7.5509">
        <ele>1497.39</ele>
        <time>2021-03-03T10:53:09Z</time>
      </trkpt>
      <trkpt lat="44.16227" lon="7.55084">
        <ele>1496.91</ele>
        <time>2021-03-03T10:53:10Z</time>
      </trkpt>
      <trkpt lat="44.16227" lon="7.55078">
        <ele>1495.95</ele>
        <time>2021-03-03T10:53:11Z</time>
      </trkpt>
      <trkpt lat="44.16228" lon="7.55072">
        <ele>1494.99</ele>
        <time>2021-03-03T10:53:12Z</time>
      </trkpt>
      <trkpt lat="44.16231" lon="7.55069">
        <ele>1494.03</ele>
        <time>2021-03-03T10:53:13Z</time>
      </trkpt>
      <trkpt lat="44.16234" lon="7.55065">
        <ele>1493.55</ele>
        <time>2021-03-03T10:53:14Z</time>
      </trkpt>
      <trkpt lat="44.16234" lon="7.5506">
        <ele>1492.58</ele>
        <time>2021-03-03T10:53:15Z</time>
      </trkpt>
      <trkpt lat="44.16234" lon="7.55055">
        <ele>1491.62</ele>
        <time>2021-03-03T10:53:16Z</time>
      </trkpt>
      <trkpt lat="44.16236" lon="7.55051">
        <ele>1491.14</ele>
        <time>2021-03-03T10:53:17Z</time>
      </trkpt>
      <trkpt lat="44.16238" lon="7.55048">
        <ele>1490.18</ele>
        <time>2021-03-03T10:53:18Z</time>
      </trkpt>
      <trkpt lat="44.16239" lon="7.55044">
        <ele>1489.7</ele>
        <time>2021-03-03T10:53:19Z</time>
      </trkpt>
      <trkpt lat="44.16239" lon="7.5504">
        <ele>1488.74</ele>
        <time>2021-03-03T10:53:20Z</time>
      </trkpt>
      <trkpt lat="44.16241" lon="7.55036">
        <ele>1488.26</ele>
        <time>2021-03-03T10:53:21Z</time>
      </trkpt>
      <trkpt lat="44.16244" lon="7.55033">
        <ele>1487.3</ele>
        <time>2021-03-03T10:53:22Z</time>
      </trkpt>
      <trkpt lat="44.16246" lon="7.55028">
        <ele>1486.34</ele>
        <time>2021-03-03T10:53:23Z</time>
      </trkpt>
      <trkpt lat="44.16245" lon="7.55023">
        <ele>1485.37</ele>
        <time>2021-03-03T10:53:24Z</time>
      </trkpt>
      <trkpt lat="44.16246" lon="7.55018">
        <ele>1484.89</ele>
        <time>2021-03-03T10:53:25Z</time>
      </trkpt>
      <trkpt lat="44.16248" lon="7.55015">
        <ele>1483.93</ele>
        <time>2021-03-03T10:53:26Z</time>
      </trkpt>
      <trkpt lat="44.16252" lon="7.55012">
        <ele>1483.45</ele>
        <time>2021-03-03T10:53:27Z</time>
      </trkpt>
      <trkpt lat="44.16253" lon="7.55008">
        <ele>1482.49</ele>
        <time>2021-03-03T10:53:28Z</time>
      </trkpt>
      <trkpt lat="44.16252" lon="7.55004">
        <ele>1481.53</ele>
        <time>2021-03-03T10:53:29Z</time>
      </trkpt>
      <trkpt lat="44.16251" lon="7.55">
        <ele>1481.05</ele>
        <time>2021-03-03T10:53:30Z</time>
      </trkpt>
      <trkpt lat="44.16252" lon="7.54997">
        <ele>1480.09</ele>
        <time>2021-03-03T10:53:31Z</time>
      </trkpt>
      <trkpt lat="44.16255" lon="7.54995">
        <ele>1479.13</ele>
        <time>2021-03-03T10:53:32Z</time>
      </trkpt>
      <trkpt lat="44.16257" lon="7.54991">
        <ele>1478.65</ele>
        <time>2021-03-03T10:53:33Z</time>
      </trkpt>
      <trkpt lat="44.16257" lon="7.54985">
        <ele>1477.68</ele>
        <time>2021-03-03T10:53:34Z</time>
      </trkpt>
      <trkpt lat="44.16257" lon="7.54978">
        <ele>1476.72</ele>
        <time>2021-03-03T10:53:35Z</time>
      </trkpt>
      <trkpt lat="44.1626" lon="7.54974">
        <ele>1475.76</ele>
        <time>2021-03-03T10:53:36Z</time>
      </trkpt>
      <trkpt lat="44.16263" lon="7.5497">
        <ele>1475.28</ele>
        <time>2021-03-03T10:53:37Z</time>
      </trkpt>
      <trkpt lat="44.16265" lon="7.54965">
        <ele>1474.32</ele>
        <time>2021-03-03T10:53:38Z</time>
      </trkpt>
      <trkpt lat="44.16264" lon="7.5496">
        <ele>1473.36</ele>
        <time>2021-03-03T10:53:39Z</time>
      </trkpt>
      <trkpt lat="44.16265" lon="7.54955">
        <ele>1472.4</ele>
        <time>2021-03-03T10:53:40Z</time>
      </trkpt>
      <trkpt lat="44.16268" lon="7.54952">
        <ele>1471.92</ele>
        <time>2021-03-03T10:53:41Z</time>
      </trkpt>
      <trkpt lat="44.16271" lon="7.54949">
        <ele>1470.95</ele>
        <time>2021-03-03T10:53:42Z</time>
      </trkpt>
      <trkpt lat="44.16273" lon="7.54944">
        <ele>1470.47</ele>
        <time>2021-03-03T10:53:43Z</time>
      </trkpt>
      <trkpt lat="44.16273" lon="7.54939">
        <ele>1469.99</ele>
        <time>2021-03-03T10:53:44Z</time>
      </trkpt>
      <trkpt lat="44.16274" lon="7.54935">
        <ele>1469.03</ele>
        <time>2021-03-03T10:53:45Z</time>
      </trkpt>
      <trkpt lat="44.16276" lon="7.54932">
        <ele>1468.55</ele>
        <time>2021-03-03T10:53:46Z</time>
      </trkpt>
      <trkpt lat="44.16278" lon="7.54929">
        <ele>1468.07</ele>
        <time>2021-03-03T10:53:47Z</time>
      </trkpt>
      <trkpt lat="44.1628" lon="7.54924">
        <ele>1467.59</ele>
        <time>2021-03-03T10:53:48Z</time>
      </trkpt>
      <trkpt lat="44.1628" lon="7.5492">
        <ele>1467.11</ele>
        <time>2021-03-03T10:53:49Z</time>
      </trkpt>
      <trkpt lat="44.16281" lon="7.54916">
        <ele>1466.15</ele>
        <time>2021-03-03T10:53:50Z</time>
      </trkpt>
      <trkpt lat="44.16283" lon="7.54914">
        <ele>1465.67</ele>
        <time>2021-03-03T10:53:51Z</time>
      </trkpt>
      <trkpt lat="44.16285" lon="7.5491">
        <ele>1464.71</ele>
        <time>2021-03-03T10:53:52Z</time>
      </trkpt>
      <trkpt lat="44.16286" lon="7.54906">
        <ele>1463.74</ele>
        <time>2021-03-03T10:53:53Z</time>
      </trkpt>
      <trkpt lat="44.16288" lon="7.54902">
        <ele>1463.26</ele>
        <time>2021-03-03T10:53:54Z</time>
      </trkpt>
      <trkpt lat="44.1629" lon="7.549">
        <ele>1462.78</ele>
        <time>2021-03-03T10:53:55Z</time>
      </trkpt>
      <trkpt lat="44.16292" lon="7.54896">
        <ele>1462.3</ele>
        <time>2021-03-03T10:53:56Z</time>
      </trkpt>
      <trkpt lat="44.16294" lon="7.54891">
        <ele>1461.34</ele>
        <time>2021-03-03T10:53:57Z</time>
      </trkpt>
      <trkpt lat="44.16295" lon="7.54887">
        <ele>1460.86</ele>
        <time>2021-03-03T10:53:58Z</time>
      </trkpt>
      <trkpt lat="44.16297" lon="7.54884">
        <ele>1460.38</ele>
        <time>2021-03-03T10:53:59Z</time>
      </trkpt>
      <trkpt lat="44.16299" lon="7.5488">
        <ele>1460.38</ele>
        <time>2021-03-03T10:54:00Z</time>
      </trkpt>
      <trkpt lat="44.16301" lon="7.54875">
        <ele>1459.9</ele>
        <time>2021-03-03T10:54:01Z</time>
      </trkpt>
      <trkpt lat="44.16303" lon="7.54872">
        <ele>1459.42</ele>
        <time>2021-03-03T10:54:02Z</time>
      </trkpt>
      <trkpt lat="44.16305" lon="7.54871">
        <ele>1458.46</ele>
        <time>2021-03-03T10:54:03Z</time>
      </trkpt>
      <trkpt lat="44.16309" lon="7.54873">
        <ele>1455.09</ele>
        <time>2021-03-03T10:54:12Z</time>
      </trkpt>
      <trkpt lat="44.1631" lon="7.54873">
        <ele>1454.13</ele>
        <time>2021-03-03T10:54:34Z</time>
      </trkpt>
      <trkpt lat="44.16312" lon="7.54874">
        <ele>1454.13</ele>
        <time>2021-03-03T10:54:58Z</time>
      </trkpt>
      <trkpt lat="44.16313" lon="7.54876">
        <ele>1454.13</ele>
        <time>2021-03-03T10:55:17Z</time>
      </trkpt>
      <trkpt lat="44.16313" lon="7.54878">
        <ele>1454.61</ele>
        <time>2021-03-03T10:55:18Z</time>
      </trkpt>
      <trkpt lat="44.16313" lon="7.54879">
        <ele>1454.61</ele>
        <time>2021-03-03T10:55:19Z</time>
      </trkpt>
      <trkpt lat="44.16313" lon="7.54884">
        <ele>1455.09</ele>
        <time>2021-03-03T10:55:21Z</time>
      </trkpt>
      <trkpt lat="44.16315" lon="7.54892">
        <ele>1454.61</ele>
        <time>2021-03-03T10:55:23Z</time>
      </trkpt>
      <trkpt lat="44.16329" lon="7.54899">
        <ele>1452.21</ele>
        <time>2021-03-03T10:55:28Z</time>
      </trkpt>
      <trkpt lat="44.16342" lon="7.54926">
        <ele>1447.88</ele>
        <time>2021-03-03T10:55:35Z</time>
      </trkpt>
      <trkpt lat="44.16349" lon="7.54948">
        <ele>1442.6</ele>
        <time>2021-03-03T10:55:40Z</time>
      </trkpt>
      <trkpt lat="44.16353" lon="7.54952">
        <ele>1441.63</ele>
        <time>2021-03-03T10:55:41Z</time>
      </trkpt>
      <trkpt lat="44.16356" lon="7.54956">
        <ele>1440.67</ele>
        <time>2021-03-03T10:55:42Z</time>
      </trkpt>
      <trkpt lat="44.16356" lon="7.54961">
        <ele>1439.71</ele>
        <time>2021-03-03T10:55:43Z</time>
      </trkpt>
      <trkpt lat="44.16355" lon="7.54967">
        <ele>1438.75</ele>
        <time>2021-03-03T10:55:44Z</time>
      </trkpt>
      <trkpt lat="44.16356" lon="7.54972">
        <ele>1437.79</ele>
        <time>2021-03-03T10:55:45Z</time>
      </trkpt>
      <trkpt lat="44.16358" lon="7.54975">
        <ele>1436.83</ele>
        <time>2021-03-03T10:55:46Z</time>
      </trkpt>
      <trkpt lat="44.1636" lon="7.54977">
        <ele>1435.87</ele>
        <time>2021-03-03T10:55:47Z</time>
      </trkpt>
      <trkpt lat="44.1636" lon="7.5498">
        <ele>1434.91</ele>
        <time>2021-03-03T10:55:48Z</time>
      </trkpt>
      <trkpt lat="44.16357" lon="7.54982">
        <ele>1434.42</ele>
        <time>2021-03-03T10:55:49Z</time>
      </trkpt>
      <trkpt lat="44.16356" lon="7.54986">
        <ele>1433.46</ele>
        <time>2021-03-03T10:55:50Z</time>
      </trkpt>
      <trkpt lat="44.16356" lon="7.54991">
        <ele>1432.5</ele>
        <time>2021-03-03T10:55:51Z</time>
      </trkpt>
      <trkpt lat="44.16355" lon="7.54997">
        <ele>1432.02</ele>
        <time>2021-03-03T10:55:52Z</time>
      </trkpt>
      <trkpt lat="44.16352" lon="7.55002">
        <ele>1431.06</ele>
        <time>2021-03-03T10:55:53Z</time>
      </trkpt>
      <trkpt lat="44.16352" lon="7.55008">
        <ele>1430.1</ele>
        <time>2021-03-03T10:55:54Z</time>
      </trkpt>
      <trkpt lat="44.16353" lon="7.55015">
        <ele>1429.62</ele>
        <time>2021-03-03T10:55:55Z</time>
      </trkpt>
      <trkpt lat="44.16351" lon="7.55021">
        <ele>1428.66</ele>
        <time>2021-03-03T10:55:56Z</time>
      </trkpt>
      <trkpt lat="44.1635" lon="7.55028">
        <ele>1427.7</ele>
        <time>2021-03-03T10:55:57Z</time>
      </trkpt>
      <trkpt lat="44.16351" lon="7.55034">
        <ele>1426.25</ele>
        <time>2021-03-03T10:55:58Z</time>
      </trkpt>
      <trkpt lat="44.16351" lon="7.55041">
        <ele>1424.81</ele>
        <time>2021-03-03T10:55:59Z</time>
      </trkpt>
      <trkpt lat="44.1635" lon="7.55047">
        <ele>1423.85</ele>
        <time>2021-03-03T10:56:00Z</time>
      </trkpt>
      <trkpt lat="44.16352" lon="7.55053">
        <ele>1422.41</ele>
        <time>2021-03-03T10:56:01Z</time>
      </trkpt>
      <trkpt lat="44.16353" lon="7.55058">
        <ele>1421.45</ele>
        <time>2021-03-03T10:56:02Z</time>
      </trkpt>
      <trkpt lat="44.16352" lon="7.55064">
        <ele>1420.49</ele>
        <time>2021-03-03T10:56:03Z</time>
      </trkpt>
      <trkpt lat="44.16354" lon="7.5507">
        <ele>1419.52</ele>
        <time>2021-03-03T10:56:04Z</time>
      </trkpt>
      <trkpt lat="44.16356" lon="7.55076">
        <ele>1419.04</ele>
        <time>2021-03-03T10:56:05Z</time>
      </trkpt>
      <trkpt lat="44.16357" lon="7.55082">
        <ele>1418.08</ele>
        <time>2021-03-03T10:56:06Z</time>
      </trkpt>
      <trkpt lat="44.16358" lon="7.55088">
        <ele>1417.6</ele>
        <time>2021-03-03T10:56:07Z</time>
      </trkpt>
      <trkpt lat="44.1636" lon="7.55093">
        <ele>1417.12</ele>
        <time>2021-03-03T10:56:08Z</time>
      </trkpt>
      <trkpt lat="44.16362" lon="7.55098">
        <ele>1416.64</ele>
        <time>2021-03-03T10:56:09Z</time>
      </trkpt>
      <trkpt lat="44.16362" lon="7.55103">
        <ele>1416.16</ele>
        <time>2021-03-03T10:56:10Z</time>
      </trkpt>
      <trkpt lat="44.16364" lon="7.55107">
        <ele>1415.68</ele>
        <time>2021-03-03T10:56:11Z</time>
      </trkpt>
      <trkpt lat="44.16365" lon="7.55111">
        <ele>1414.72</ele>
        <time>2021-03-03T10:56:12Z</time>
      </trkpt>
      <trkpt lat="44.16366" lon="7.55116">
        <ele>1414.24</ele>
        <time>2021-03-03T10:56:13Z</time>
      </trkpt>
      <trkpt lat="44.16368" lon="7.5512">
        <ele>1413.28</ele>
        <time>2021-03-03T10:56:14Z</time>
      </trkpt>
      <trkpt lat="44.16369" lon="7.55125">
        <ele>1412.79</ele>
        <time>2021-03-03T10:56:15Z</time>
      </trkpt>
      <trkpt lat="44.1637" lon="7.5513">
        <ele>1412.31</ele>
        <time>2021-03-03T10:56:16Z</time>
      </trkpt>
      <trkpt lat="44.16372" lon="7.55135">
        <ele>1411.83</ele>
        <time>2021-03-03T10:56:17Z</time>
      </trkpt>
      <trkpt lat="44.16374" lon="7.5514">
        <ele>1411.35</ele>
        <time>2021-03-03T10:56:18Z</time>
      </trkpt>
      <trkpt lat="44.16375" lon="7.55145">
        <ele>1411.35</ele>
        <time>2021-03-03T10:56:19Z</time>
      </trkpt>
      <trkpt lat="44.16376" lon="7.5515">
        <ele>1410.87</ele>
        <time>2021-03-03T10:56:20Z</time>
      </trkpt>
      <trkpt lat="44.16377" lon="7.55156">
        <ele>1409.91</ele>
        <time>2021-03-03T10:56:21Z</time>
      </trkpt>
      <trkpt lat="44.16378" lon="7.5516">
        <ele>1409.43</ele>
        <time>2021-03-03T10:56:22Z</time>
      </trkpt>
      <trkpt lat="44.1638" lon="7.55165">
        <ele>1408.95</ele>
        <time>2021-03-03T10:56:23Z</time>
      </trkpt>
      <trkpt lat="44.16381" lon="7.5517">
        <ele>1408.47</ele>
        <time>2021-03-03T10:56:24Z</time>
      </trkpt>
      <trkpt lat="44.16383" lon="7.55175">
        <ele>1408.47</ele>
        <time>2021-03-03T10:56:25Z</time>
      </trkpt>
      <trkpt lat="44.16384" lon="7.55179">
        <ele>1407.99</ele>
        <time>2021-03-03T10:56:26Z</time>
      </trkpt>
      <trkpt lat="44.16385" lon="7.55183">
        <ele>1407.51</ele>
        <time>2021-03-03T10:56:27Z</time>
      </trkpt>
      <trkpt lat="44.16386" lon="7.55188">
        <ele>1407.51</ele>
        <time>2021-03-03T10:56:28Z</time>
      </trkpt>
      <trkpt lat="44.16388" lon="7.55192">
        <ele>1407.03</ele>
        <time>2021-03-03T10:56:29Z</time>
      </trkpt>
      <trkpt lat="44.16388" lon="7.55196">
        <ele>1407.03</ele>
        <time>2021-03-03T10:56:30Z</time>
      </trkpt>
      <trkpt lat="44.16388" lon="7.55201">
        <ele>1407.03</ele>
        <time>2021-03-03T10:56:39Z</time>
      </trkpt>
      <trkpt lat="44.16388" lon="7.55201">
        <ele>1408.95</ele>
        <time>2021-03-03T10:56:57Z</time>
      </trkpt>
      <trkpt lat="44.16389" lon="7.55202">
        <ele>1408.95</ele>
        <time>2021-03-03T10:57:19Z</time>
      </trkpt>
      <trkpt lat="44.16392" lon="7.55204">
        <ele>1408.95</ele>
        <time>2021-03-03T10:57:24Z</time>
      </trkpt>
      <trkpt lat="44.16394" lon="7.55205">
        <ele>1408.95</ele>
        <time>2021-03-03T10:57:25Z</time>
      </trkpt>
      <trkpt lat="44.16396" lon="7.55205">
        <ele>1408.95</ele>
        <time>2021-03-03T10:57:26Z</time>
      </trkpt>
      <trkpt lat="44.16398" lon="7.55207">
        <ele>1408.47</ele>
        <time>2021-03-03T10:57:27Z</time>
      </trkpt>
      <trkpt lat="44.164" lon="7.55211">
        <ele>1408.47</ele>
        <time>2021-03-03T10:57:28Z</time>
      </trkpt>
      <trkpt lat="44.16404" lon="7.55215">
        <ele>1407.99</ele>
        <time>2021-03-03T10:57:29Z</time>
      </trkpt>
      <trkpt lat="44.16407" lon="7.55219">
        <ele>1407.51</ele>
        <time>2021-03-03T10:57:30Z</time>
      </trkpt>
      <trkpt lat="44.1641" lon="7.55224">
        <ele>1407.51</ele>
        <time>2021-03-03T10:57:31Z</time>
      </trkpt>
      <trkpt lat="44.16414" lon="7.5523">
        <ele>1407.03</ele>
        <time>2021-03-03T10:57:32Z</time>
      </trkpt>
      <trkpt lat="44.16417" lon="7.55234">
        <ele>1407.03</ele>
        <time>2021-03-03T10:57:33Z</time>
      </trkpt>
      <trkpt lat="44.16421" lon="7.55237">
        <ele>1407.03</ele>
        <time>2021-03-03T10:57:34Z</time>
      </trkpt>
      <trkpt lat="44.16425" lon="7.55241">
        <ele>1406.55</ele>
        <time>2021-03-03T10:57:35Z</time>
      </trkpt>
      <trkpt lat="44.1643" lon="7.55243">
        <ele>1406.55</ele>
        <time>2021-03-03T10:57:36Z</time>
      </trkpt>
      <trkpt lat="44.16435" lon="7.55245">
        <ele>1406.07</ele>
        <time>2021-03-03T10:57:37Z</time>
      </trkpt>
      <trkpt lat="44.1644" lon="7.55249">
        <ele>1405.58</ele>
        <time>2021-03-03T10:57:38Z</time>
      </trkpt>
      <trkpt lat="44.16445" lon="7.55252">
        <ele>1405.1</ele>
        <time>2021-03-03T10:57:39Z</time>
      </trkpt>
      <trkpt lat="44.16449" lon="7.55255">
        <ele>1404.62</ele>
        <time>2021-03-03T10:57:40Z</time>
      </trkpt>
      <trkpt lat="44.16455" lon="7.55258">
        <ele>1403.66</ele>
        <time>2021-03-03T10:57:41Z</time>
      </trkpt>
      <trkpt lat="44.1646" lon="7.55261">
        <ele>1402.7</ele>
        <time>2021-03-03T10:57:42Z</time>
      </trkpt>
      <trkpt lat="44.16465" lon="7.55265">
        <ele>1401.74</ele>
        <time>2021-03-03T10:57:43Z</time>
      </trkpt>
      <trkpt lat="44.1647" lon="7.5527">
        <ele>1400.78</ele>
        <time>2021-03-03T10:57:44Z</time>
      </trkpt>
      <trkpt lat="44.16474" lon="7.55274">
        <ele>1400.3</ele>
        <time>2021-03-03T10:57:45Z</time>
      </trkpt>
      <trkpt lat="44.16478" lon="7.55274">
        <ele>1399.82</ele>
        <time>2021-03-03T10:57:46Z</time>
      </trkpt>
      <trkpt lat="44.16481" lon="7.55269">
        <ele>1398.86</ele>
        <time>2021-03-03T10:57:47Z</time>
      </trkpt>
      <trkpt lat="44.16481" lon="7.55266">
        <ele>1398.37</ele>
        <time>2021-03-03T10:57:49Z</time>
      </trkpt>
      <trkpt lat="44.16481" lon="7.55264">
        <ele>1398.37</ele>
        <time>2021-03-03T10:57:50Z</time>
      </trkpt>
      <trkpt lat="44.16481" lon="7.55259">
        <ele>1397.89</ele>
        <time>2021-03-03T10:57:51Z</time>
      </trkpt>
      <trkpt lat="44.16483" lon="7.55253">
        <ele>1396.93</ele>
        <time>2021-03-03T10:57:52Z</time>
      </trkpt>
      <trkpt lat="44.16483" lon="7.55247">
        <ele>1396.45</ele>
        <time>2021-03-03T10:57:53Z</time>
      </trkpt>
      <trkpt lat="44.16482" lon="7.55241">
        <ele>1395.97</ele>
        <time>2021-03-03T10:57:54Z</time>
      </trkpt>
      <trkpt lat="44.16482" lon="7.55235">
        <ele>1395.01</ele>
        <time>2021-03-03T10:57:55Z</time>
      </trkpt>
      <trkpt lat="44.16481" lon="7.55228">
        <ele>1394.53</ele>
        <time>2021-03-03T10:57:56Z</time>
      </trkpt>
      <trkpt lat="44.16481" lon="7.55222">
        <ele>1393.57</ele>
        <time>2021-03-03T10:57:57Z</time>
      </trkpt>
      <trkpt lat="44.16481" lon="7.55215">
        <ele>1393.09</ele>
        <time>2021-03-03T10:57:58Z</time>
      </trkpt>
      <trkpt lat="44.16481" lon="7.5521">
        <ele>1392.13</ele>
        <time>2021-03-03T10:57:59Z</time>
      </trkpt>
      <trkpt lat="44.16482" lon="7.55207">
        <ele>1391.65</ele>
        <time>2021-03-03T10:58:00Z</time>
      </trkpt>
      <trkpt lat="44.16485" lon="7.55204">
        <ele>1390.68</ele>
        <time>2021-03-03T10:58:01Z</time>
      </trkpt>
      <trkpt lat="44.16487" lon="7.55199">
        <ele>1389.72</ele>
        <time>2021-03-03T10:58:02Z</time>
      </trkpt>
      <trkpt lat="44.16489" lon="7.55194">
        <ele>1389.24</ele>
        <time>2021-03-03T10:58:03Z</time>
      </trkpt>
      <trkpt lat="44.16493" lon="7.55192">
        <ele>1387.8</ele>
        <time>2021-03-03T10:58:04Z</time>
      </trkpt>
      <trkpt lat="44.16496" lon="7.55194">
        <ele>1386.36</ele>
        <time>2021-03-03T10:58:05Z</time>
      </trkpt>
      <trkpt lat="44.16499" lon="7.55197">
        <ele>1385.4</ele>
        <time>2021-03-03T10:58:06Z</time>
      </trkpt>
      <trkpt lat="44.16501" lon="7.55201">
        <ele>1384.44</ele>
        <time>2021-03-03T10:58:07Z</time>
      </trkpt>
      <trkpt lat="44.16504" lon="7.55205">
        <ele>1383.96</ele>
        <time>2021-03-03T10:58:08Z</time>
      </trkpt>
      <trkpt lat="44.16508" lon="7.55209">
        <ele>1383.47</ele>
        <time>2021-03-03T10:58:09Z</time>
      </trkpt>
      <trkpt lat="44.16512" lon="7.5521">
        <ele>1382.51</ele>
        <time>2021-03-03T10:58:10Z</time>
      </trkpt>
      <trkpt lat="44.16516" lon="7.55211">
        <ele>1381.55</ele>
        <time>2021-03-03T10:58:11Z</time>
      </trkpt>
      <trkpt lat="44.16521" lon="7.55211">
        <ele>1380.59</ele>
        <time>2021-03-03T10:58:12Z</time>
      </trkpt>
      <trkpt lat="44.16527" lon="7.55211">
        <ele>1379.63</ele>
        <time>2021-03-03T10:58:13Z</time>
      </trkpt>
      <trkpt lat="44.16531" lon="7.55213">
        <ele>1378.67</ele>
        <time>2021-03-03T10:58:14Z</time>
      </trkpt>
      <trkpt lat="44.16534" lon="7.55216">
        <ele>1377.71</ele>
        <time>2021-03-03T10:58:15Z</time>
      </trkpt>
      <trkpt lat="44.16538" lon="7.55219">
        <ele>1377.23</ele>
        <time>2021-03-03T10:58:16Z</time>
      </trkpt>
      <trkpt lat="44.16542" lon="7.5522">
        <ele>1376.26</ele>
        <time>2021-03-03T10:58:17Z</time>
      </trkpt>
      <trkpt lat="44.16547" lon="7.5522">
        <ele>1375.3</ele>
        <time>2021-03-03T10:58:18Z</time>
      </trkpt>
      <trkpt lat="44.16552" lon="7.55217">
        <ele>1374.82</ele>
        <time>2021-03-03T10:58:19Z</time>
      </trkpt>
      <trkpt lat="44.16556" lon="7.55211">
        <ele>1373.38</ele>
        <time>2021-03-03T10:58:20Z</time>
      </trkpt>
      <trkpt lat="44.16562" lon="7.55212">
        <ele>1370.5</ele>
        <time>2021-03-03T10:58:24Z</time>
      </trkpt>
      <trkpt lat="44.16563" lon="7.55215">
        <ele>1370.02</ele>
        <time>2021-03-03T10:58:25Z</time>
      </trkpt>
      <trkpt lat="44.16564" lon="7.55218">
        <ele>1369.54</ele>
        <time>2021-03-03T10:58:26Z</time>
      </trkpt>
      <trkpt lat="44.16566" lon="7.5522">
        <ele>1369.05</ele>
        <time>2021-03-03T10:58:27Z</time>
      </trkpt>
      <trkpt lat="44.16569" lon="7.55222">
        <ele>1369.05</ele>
        <time>2021-03-03T10:58:28Z</time>
      </trkpt>
      <trkpt lat="44.16572" lon="7.55223">
        <ele>1368.57</ele>
        <time>2021-03-03T10:58:29Z</time>
      </trkpt>
      <trkpt lat="44.16575" lon="7.55222">
        <ele>1368.57</ele>
        <time>2021-03-03T10:58:30Z</time>
      </trkpt>
      <trkpt lat="44.16579" lon="7.55221">
        <ele>1368.09</ele>
        <time>2021-03-03T10:58:31Z</time>
      </trkpt>
      <trkpt lat="44.16581" lon="7.5522">
        <ele>1368.09</ele>
        <time>2021-03-03T10:58:32Z</time>
      </trkpt>
      <trkpt lat="44.16584" lon="7.55219">
        <ele>1367.61</ele>
        <time>2021-03-03T10:58:33Z</time>
      </trkpt>
      <trkpt lat="44.16586" lon="7.55218">
        <ele>1367.13</ele>
        <time>2021-03-03T10:58:34Z</time>
      </trkpt>
      <trkpt lat="44.16588" lon="7.55217">
        <ele>1367.13</ele>
        <time>2021-03-03T10:58:35Z</time>
      </trkpt>
      <trkpt lat="44.16589" lon="7.55218">
        <ele>1366.65</ele>
        <time>2021-03-03T10:58:36Z</time>
      </trkpt>
      <trkpt lat="44.16591" lon="7.5522">
        <ele>1366.17</ele>
        <time>2021-03-03T10:58:37Z</time>
      </trkpt>
      <trkpt lat="44.16592" lon="7.55221">
        <ele>1366.17</ele>
        <time>2021-03-03T10:58:38Z</time>
      </trkpt>
      <trkpt lat="44.16591" lon="7.55223">
        <ele>1365.69</ele>
        <time>2021-03-03T10:58:39Z</time>
      </trkpt>
      <trkpt lat="44.16589" lon="7.55225">
        <ele>1365.69</ele>
        <time>2021-03-03T10:58:40Z</time>
      </trkpt>
      <trkpt lat="44.16587" lon="7.5523">
        <ele>1365.21</ele>
        <time>2021-03-03T10:58:52Z</time>
      </trkpt>
      <trkpt lat="44.16586" lon="7.55232">
        <ele>1364.73</ele>
        <time>2021-03-03T10:59:12Z</time>
      </trkpt>
      <trkpt lat="44.16587" lon="7.55232">
        <ele>1363.29</ele>
        <time>2021-03-03T10:59:27Z</time>
      </trkpt>
      <trkpt lat="44.16597" lon="7.55223">
        <ele>1367.61</ele>
        <time>2021-03-03T10:59:40Z</time>
      </trkpt>
      <trkpt lat="44.16597" lon="7.55222">
        <ele>1367.61</ele>
        <time>2021-03-03T10:59:41Z</time>
      </trkpt>
      <trkpt lat="44.16602" lon="7.55218">
        <ele>1368.57</ele>
        <time>2021-03-03T10:59:46Z</time>
      </trkpt>
      <trkpt lat="44.16604" lon="7.55214">
        <ele>1367.13</ele>
        <time>2021-03-03T10:59:49Z</time>
      </trkpt>
      <trkpt lat="44.16605" lon="7.55213">
        <ele>1367.13</ele>
        <time>2021-03-03T10:59:50Z</time>
      </trkpt>
      <trkpt lat="44.16605" lon="7.55211">
        <ele>1367.13</ele>
        <time>2021-03-03T10:59:51Z</time>
      </trkpt>
      <trkpt lat="44.16605" lon="7.55209">
        <ele>1367.13</ele>
        <time>2021-03-03T10:59:52Z</time>
      </trkpt>
      <trkpt lat="44.16605" lon="7.55206">
        <ele>1366.65</ele>
        <time>2021-03-03T10:59:53Z</time>
      </trkpt>
      <trkpt lat="44.16604" lon="7.55205">
        <ele>1366.65</ele>
        <time>2021-03-03T10:59:54Z</time>
      </trkpt>
      <trkpt lat="44.16603" lon="7.55203">
        <ele>1367.13</ele>
        <time>2021-03-03T10:59:55Z</time>
      </trkpt>
      <trkpt lat="44.16602" lon="7.55202">
        <ele>1367.13</ele>
        <time>2021-03-03T10:59:56Z</time>
      </trkpt>
      <trkpt lat="44.16601" lon="7.55194">
        <ele>1366.17</ele>
        <time>2021-03-03T11:00:10Z</time>
      </trkpt>
      <trkpt lat="44.16596" lon="7.55195">
        <ele>1368.09</ele>
        <time>2021-03-03T11:00:25Z</time>
      </trkpt>
      <trkpt lat="44.16597" lon="7.55197">
        <ele>1368.09</ele>
        <time>2021-03-03T11:00:42Z</time>
      </trkpt>
      <trkpt lat="44.16593" lon="7.55194">
        <ele>1366.65</ele>
        <time>2021-03-03T11:01:02Z</time>
      </trkpt>
      <trkpt lat="44.16597" lon="7.55197">
        <ele>1365.69</ele>
        <time>2021-03-03T11:01:17Z</time>
      </trkpt>
      <trkpt lat="44.16599" lon="7.55195">
        <ele>1367.13</ele>
        <time>2021-03-03T11:01:38Z</time>
      </trkpt>
      <trkpt lat="44.16596" lon="7.55194">
        <ele>1368.57</ele>
        <time>2021-03-03T11:01:50Z</time>
      </trkpt>
      <trkpt lat="44.16596" lon="7.55194">
        <ele>1369.05</ele>
        <time>2021-03-03T11:01:55Z</time>
      </trkpt>
    </trkseg>
  </trk>
</gpx>